<?xml version="1.0" encoding="UTF-8" standalone="no" ?>
<gpx xmlns="http://www.topografix.com/GPX/1/1" xmlns:xsi="http://www.w3.org/2001/XMLSchema-instance" xsi:schemaLocation="http://www.topografix.com/GPX/1/1 http://www.topografix.com/GPX/1/1/gpx.xsd" version="1.1" creator="VisuGPX - https://www.visugpx.com">
  <metadata>
    <name>Vosne-Romanée Chambolle-Musigny</name>
    <desc><![CDATA[Randonnée effectuée le 12 octobre 2017
L'indice IBP d'effort est de 58, (suivant l'échelle de la FFRP) un score compris entre 51 et 75 correspond au niveau 3 qualifié de "PEU DIFFICILE". La randonnée pédestre nécessite un certain engagement physique qui reste toutefois mesuré. Ce niveau correspond à des randonnées pédestres modérées.]]></desc>
  </metadata>
  <trk>
    <name><![CDATA[OR-8005489--Vosne-Romanée:Vosne-Romanée Chambolle Musigny]]></name>
    <trkseg>
      <trkpt lat="47.15789" lon="4.95484">
        <ele>244</ele>
        <time>2017-10-13T06:52:53Z</time>
      </trkpt>
      <trkpt lat="47.15788" lon="4.95484">
        <ele>244</ele>
        <time>2017-10-13T06:54:53Z</time>
      </trkpt>
      <trkpt lat="47.15798" lon="4.95485">
        <ele>244</ele>
        <time>2017-10-13T06:56:53Z</time>
      </trkpt>
      <trkpt lat="47.15807" lon="4.9549">
        <ele>245</ele>
        <time>2017-10-13T06:58:53Z</time>
      </trkpt>
      <trkpt lat="47.15812" lon="4.95491">
        <ele>245</ele>
        <time>2017-10-13T07:00:53Z</time>
      </trkpt>
      <trkpt lat="47.15817" lon="4.95488">
        <ele>245</ele>
        <time>2017-10-13T07:02:53Z</time>
      </trkpt>
      <trkpt lat="47.15828" lon="4.95473">
        <ele>245</ele>
        <time>2017-10-13T07:04:53Z</time>
      </trkpt>
      <trkpt lat="47.15837" lon="4.95466">
        <ele>245</ele>
        <time>2017-10-13T07:06:53Z</time>
      </trkpt>
      <trkpt lat="47.15841" lon="4.95464">
        <ele>245</ele>
        <time>2017-10-13T07:08:53Z</time>
      </trkpt>
      <trkpt lat="47.15849" lon="4.95452">
        <ele>245</ele>
        <time>2017-10-13T07:10:53Z</time>
      </trkpt>
      <trkpt lat="47.15853" lon="4.95448">
        <ele>244</ele>
        <time>2017-10-13T07:12:53Z</time>
      </trkpt>
      <trkpt lat="47.15857" lon="4.95444">
        <ele>244</ele>
        <time>2017-10-13T07:14:53Z</time>
      </trkpt>
      <trkpt lat="47.15866" lon="4.95437">
        <ele>244</ele>
        <time>2017-10-13T07:16:53Z</time>
      </trkpt>
      <trkpt lat="47.15869" lon="4.95432">
        <ele>244</ele>
        <time>2017-10-13T07:18:53Z</time>
      </trkpt>
      <trkpt lat="47.15877" lon="4.95426">
        <ele>243</ele>
        <time>2017-10-13T07:20:53Z</time>
      </trkpt>
      <trkpt lat="47.15884" lon="4.95407">
        <ele>243</ele>
        <time>2017-10-13T07:22:53Z</time>
      </trkpt>
      <trkpt lat="47.15892" lon="4.9538">
        <ele>243</ele>
        <time>2017-10-13T07:24:53Z</time>
      </trkpt>
      <trkpt lat="47.15899" lon="4.95369">
        <ele>243</ele>
        <time>2017-10-13T07:26:53Z</time>
      </trkpt>
      <trkpt lat="47.15902" lon="4.95364">
        <ele>243</ele>
        <time>2017-10-13T07:28:53Z</time>
      </trkpt>
      <trkpt lat="47.15907" lon="4.9536">
        <ele>243</ele>
        <time>2017-10-13T07:30:53Z</time>
      </trkpt>
      <trkpt lat="47.1591" lon="4.95356">
        <ele>243</ele>
        <time>2017-10-13T07:32:53Z</time>
      </trkpt>
      <trkpt lat="47.15915" lon="4.95356">
        <ele>243</ele>
        <time>2017-10-13T07:34:53Z</time>
      </trkpt>
      <trkpt lat="47.15925" lon="4.95361">
        <ele>243</ele>
        <time>2017-10-13T07:36:53Z</time>
      </trkpt>
      <trkpt lat="47.15929" lon="4.95363">
        <ele>243</ele>
        <time>2017-10-13T07:38:53Z</time>
      </trkpt>
      <trkpt lat="47.15949" lon="4.95366">
        <ele>244</ele>
        <time>2017-10-13T07:40:53Z</time>
      </trkpt>
      <trkpt lat="47.15967" lon="4.95376">
        <ele>244</ele>
        <time>2017-10-13T07:42:53Z</time>
      </trkpt>
      <trkpt lat="47.15972" lon="4.95376">
        <ele>244</ele>
        <time>2017-10-13T07:44:53Z</time>
      </trkpt>
      <trkpt lat="47.15977" lon="4.95376">
        <ele>244</ele>
        <time>2017-10-13T07:46:53Z</time>
      </trkpt>
      <trkpt lat="47.15996" lon="4.95384">
        <ele>245</ele>
        <time>2017-10-13T07:48:53Z</time>
      </trkpt>
      <trkpt lat="47.16007" lon="4.95389">
        <ele>245</ele>
        <time>2017-10-13T07:50:53Z</time>
      </trkpt>
      <trkpt lat="47.16023" lon="4.95405">
        <ele>245</ele>
        <time>2017-10-13T07:52:53Z</time>
      </trkpt>
      <trkpt lat="47.16033" lon="4.95407">
        <ele>245</ele>
        <time>2017-10-13T07:54:53Z</time>
      </trkpt>
      <trkpt lat="47.1604" lon="4.95418">
        <ele>245</ele>
        <time>2017-10-13T07:56:53Z</time>
      </trkpt>
      <trkpt lat="47.16049" lon="4.95422">
        <ele>246</ele>
        <time>2017-10-13T07:58:53Z</time>
      </trkpt>
      <trkpt lat="47.16055" lon="4.95412">
        <ele>246</ele>
        <time>2017-10-13T08:00:53Z</time>
      </trkpt>
      <trkpt lat="47.16061" lon="4.95384">
        <ele>246</ele>
        <time>2017-10-13T08:02:53Z</time>
      </trkpt>
      <trkpt lat="47.16061" lon="4.95355">
        <ele>246</ele>
        <time>2017-10-13T08:04:53Z</time>
      </trkpt>
      <trkpt lat="47.16056" lon="4.95343">
        <ele>246</ele>
        <time>2017-10-13T08:06:53Z</time>
      </trkpt>
      <trkpt lat="47.16052" lon="4.9533">
        <ele>246</ele>
        <time>2017-10-13T08:08:53Z</time>
      </trkpt>
      <trkpt lat="47.16047" lon="4.95317">
        <ele>247</ele>
        <time>2017-10-13T08:10:53Z</time>
      </trkpt>
      <trkpt lat="47.1604" lon="4.95307">
        <ele>247</ele>
        <time>2017-10-13T08:12:53Z</time>
      </trkpt>
      <trkpt lat="47.16035" lon="4.95279">
        <ele>247</ele>
        <time>2017-10-13T08:14:53Z</time>
      </trkpt>
      <trkpt lat="47.16035" lon="4.95265">
        <ele>247</ele>
        <time>2017-10-13T08:16:53Z</time>
      </trkpt>
      <trkpt lat="47.16035" lon="4.9525">
        <ele>248</ele>
        <time>2017-10-13T08:18:53Z</time>
      </trkpt>
      <trkpt lat="47.16039" lon="4.95237">
        <ele>248</ele>
        <time>2017-10-13T08:20:53Z</time>
      </trkpt>
      <trkpt lat="47.16044" lon="4.9521">
        <ele>249</ele>
        <time>2017-10-13T08:22:53Z</time>
      </trkpt>
      <trkpt lat="47.16047" lon="4.95196">
        <ele>250</ele>
        <time>2017-10-13T08:24:53Z</time>
      </trkpt>
      <trkpt lat="47.16051" lon="4.95184">
        <ele>250</ele>
        <time>2017-10-13T08:26:53Z</time>
      </trkpt>
      <trkpt lat="47.16075" lon="4.95149">
        <ele>252</ele>
        <time>2017-10-13T08:28:53Z</time>
      </trkpt>
      <trkpt lat="47.16079" lon="4.95144">
        <ele>253</ele>
        <time>2017-10-13T08:30:53Z</time>
      </trkpt>
      <trkpt lat="47.16082" lon="4.95137">
        <ele>253</ele>
        <time>2017-10-13T08:32:53Z</time>
      </trkpt>
      <trkpt lat="47.16082" lon="4.9513">
        <ele>254</ele>
        <time>2017-10-13T08:34:53Z</time>
      </trkpt>
      <trkpt lat="47.16092" lon="4.9509">
        <ele>256</ele>
        <time>2017-10-13T08:36:53Z</time>
      </trkpt>
      <trkpt lat="47.16094" lon="4.95082">
        <ele>256</ele>
        <time>2017-10-13T08:38:53Z</time>
      </trkpt>
      <trkpt lat="47.16096" lon="4.95076">
        <ele>257</ele>
        <time>2017-10-13T08:40:53Z</time>
      </trkpt>
      <trkpt lat="47.161" lon="4.95072">
        <ele>257</ele>
        <time>2017-10-13T08:42:53Z</time>
      </trkpt>
      <trkpt lat="47.16105" lon="4.95071">
        <ele>257</ele>
        <time>2017-10-13T08:44:53Z</time>
      </trkpt>
      <trkpt lat="47.1612" lon="4.95077">
        <ele>257</ele>
        <time>2017-10-13T08:46:53Z</time>
      </trkpt>
      <trkpt lat="47.16125" lon="4.95078">
        <ele>257</ele>
        <time>2017-10-13T08:48:53Z</time>
      </trkpt>
      <trkpt lat="47.16129" lon="4.9508">
        <ele>257</ele>
        <time>2017-10-13T08:50:53Z</time>
      </trkpt>
      <trkpt lat="47.1614" lon="4.9508">
        <ele>258</ele>
        <time>2017-10-13T08:52:53Z</time>
      </trkpt>
      <trkpt lat="47.16144" lon="4.95079">
        <ele>258</ele>
        <time>2017-10-13T08:54:53Z</time>
      </trkpt>
      <trkpt lat="47.1615" lon="4.95078">
        <ele>258</ele>
        <time>2017-10-13T08:56:53Z</time>
      </trkpt>
      <trkpt lat="47.1616" lon="4.95081">
        <ele>258</ele>
        <time>2017-10-13T08:58:53Z</time>
      </trkpt>
      <trkpt lat="47.16171" lon="4.95081">
        <ele>258</ele>
        <time>2017-10-13T09:00:53Z</time>
      </trkpt>
      <trkpt lat="47.16176" lon="4.95082">
        <ele>258</ele>
        <time>2017-10-13T09:02:53Z</time>
      </trkpt>
      <trkpt lat="47.16181" lon="4.95082">
        <ele>258</ele>
        <time>2017-10-13T09:04:53Z</time>
      </trkpt>
      <trkpt lat="47.16186" lon="4.95082">
        <ele>258</ele>
        <time>2017-10-13T09:06:53Z</time>
      </trkpt>
      <trkpt lat="47.16196" lon="4.95081">
        <ele>258</ele>
        <time>2017-10-13T09:08:53Z</time>
      </trkpt>
      <trkpt lat="47.162" lon="4.95078">
        <ele>259</ele>
        <time>2017-10-13T09:10:53Z</time>
      </trkpt>
      <trkpt lat="47.16205" lon="4.95075">
        <ele>259</ele>
        <time>2017-10-13T09:12:53Z</time>
      </trkpt>
      <trkpt lat="47.16214" lon="4.95071">
        <ele>259</ele>
        <time>2017-10-13T09:14:53Z</time>
      </trkpt>
      <trkpt lat="47.1622" lon="4.95072">
        <ele>259</ele>
        <time>2017-10-13T09:16:53Z</time>
      </trkpt>
      <trkpt lat="47.16231" lon="4.9507">
        <ele>259</ele>
        <time>2017-10-13T09:18:53Z</time>
      </trkpt>
      <trkpt lat="47.1624" lon="4.95066">
        <ele>260</ele>
        <time>2017-10-13T09:20:53Z</time>
      </trkpt>
      <trkpt lat="47.16246" lon="4.95066">
        <ele>260</ele>
        <time>2017-10-13T09:22:53Z</time>
      </trkpt>
      <trkpt lat="47.16265" lon="4.95069">
        <ele>260</ele>
        <time>2017-10-13T09:24:53Z</time>
      </trkpt>
      <trkpt lat="47.1627" lon="4.95069">
        <ele>260</ele>
        <time>2017-10-13T09:26:53Z</time>
      </trkpt>
      <trkpt lat="47.16282" lon="4.95073">
        <ele>260</ele>
        <time>2017-10-13T09:28:53Z</time>
      </trkpt>
      <trkpt lat="47.16287" lon="4.95073">
        <ele>260</ele>
        <time>2017-10-13T09:30:53Z</time>
      </trkpt>
      <trkpt lat="47.16298" lon="4.95077">
        <ele>260</ele>
        <time>2017-10-13T09:32:53Z</time>
      </trkpt>
      <trkpt lat="47.16307" lon="4.95079">
        <ele>260</ele>
        <time>2017-10-13T09:34:53Z</time>
      </trkpt>
      <trkpt lat="47.16323" lon="4.95076">
        <ele>261</ele>
        <time>2017-10-13T09:36:53Z</time>
      </trkpt>
      <trkpt lat="47.16327" lon="4.95073">
        <ele>261</ele>
        <time>2017-10-13T09:38:53Z</time>
      </trkpt>
      <trkpt lat="47.16343" lon="4.9507">
        <ele>261</ele>
        <time>2017-10-13T09:40:53Z</time>
      </trkpt>
      <trkpt lat="47.16362" lon="4.95063">
        <ele>261</ele>
        <time>2017-10-13T09:42:53Z</time>
      </trkpt>
      <trkpt lat="47.16366" lon="4.9506">
        <ele>261</ele>
        <time>2017-10-13T09:44:53Z</time>
      </trkpt>
      <trkpt lat="47.16378" lon="4.95048">
        <ele>261</ele>
        <time>2017-10-13T09:46:53Z</time>
      </trkpt>
      <trkpt lat="47.16382" lon="4.95042">
        <ele>261</ele>
        <time>2017-10-13T09:48:53Z</time>
      </trkpt>
      <trkpt lat="47.16388" lon="4.9503">
        <ele>261</ele>
        <time>2017-10-13T09:50:53Z</time>
      </trkpt>
      <trkpt lat="47.16391" lon="4.95025">
        <ele>262</ele>
        <time>2017-10-13T09:52:53Z</time>
      </trkpt>
      <trkpt lat="47.16395" lon="4.95021">
        <ele>262</ele>
        <time>2017-10-13T09:54:53Z</time>
      </trkpt>
      <trkpt lat="47.16404" lon="4.95021">
        <ele>261</ele>
        <time>2017-10-13T09:56:53Z</time>
      </trkpt>
      <trkpt lat="47.16409" lon="4.95022">
        <ele>261</ele>
        <time>2017-10-13T09:58:53Z</time>
      </trkpt>
      <trkpt lat="47.16414" lon="4.95024">
        <ele>261</ele>
        <time>2017-10-13T10:00:53Z</time>
      </trkpt>
      <trkpt lat="47.16424" lon="4.95023">
        <ele>261</ele>
        <time>2017-10-13T10:02:53Z</time>
      </trkpt>
      <trkpt lat="47.16435" lon="4.95027">
        <ele>261</ele>
        <time>2017-10-13T10:04:53Z</time>
      </trkpt>
      <trkpt lat="47.16437" lon="4.95034">
        <ele>261</ele>
        <time>2017-10-13T10:06:53Z</time>
      </trkpt>
      <trkpt lat="47.16436" lon="4.95048">
        <ele>260</ele>
        <time>2017-10-13T10:08:53Z</time>
      </trkpt>
      <trkpt lat="47.16435" lon="4.95056">
        <ele>260</ele>
        <time>2017-10-13T10:10:53Z</time>
      </trkpt>
      <trkpt lat="47.16431" lon="4.95076">
        <ele>260</ele>
        <time>2017-10-13T10:12:53Z</time>
      </trkpt>
      <trkpt lat="47.16428" lon="4.95111">
        <ele>259</ele>
        <time>2017-10-13T10:14:53Z</time>
      </trkpt>
      <trkpt lat="47.16429" lon="4.95119">
        <ele>259</ele>
        <time>2017-10-13T10:16:53Z</time>
      </trkpt>
      <trkpt lat="47.16427" lon="4.95126">
        <ele>259</ele>
        <time>2017-10-13T10:18:53Z</time>
      </trkpt>
      <trkpt lat="47.16425" lon="4.95132">
        <ele>259</ele>
        <time>2017-10-13T10:20:53Z</time>
      </trkpt>
      <trkpt lat="47.16423" lon="4.95146">
        <ele>258</ele>
        <time>2017-10-13T10:22:53Z</time>
      </trkpt>
      <trkpt lat="47.16426" lon="4.95151">
        <ele>258</ele>
        <time>2017-10-13T10:24:53Z</time>
      </trkpt>
      <trkpt lat="47.16455" lon="4.95153">
        <ele>259</ele>
        <time>2017-10-13T10:26:53Z</time>
      </trkpt>
      <trkpt lat="47.16465" lon="4.95158">
        <ele>259</ele>
        <time>2017-10-13T10:28:53Z</time>
      </trkpt>
      <trkpt lat="47.16485" lon="4.95162">
        <ele>259</ele>
        <time>2017-10-13T10:30:53Z</time>
      </trkpt>
      <trkpt lat="47.16495" lon="4.95163">
        <ele>259</ele>
        <time>2017-10-13T10:32:53Z</time>
      </trkpt>
      <trkpt lat="47.165" lon="4.95162">
        <ele>259</ele>
        <time>2017-10-13T10:34:53Z</time>
      </trkpt>
      <trkpt lat="47.1651" lon="4.95161">
        <ele>259</ele>
        <time>2017-10-13T10:36:53Z</time>
      </trkpt>
      <trkpt lat="47.16534" lon="4.95169">
        <ele>259</ele>
        <time>2017-10-13T10:38:53Z</time>
      </trkpt>
      <trkpt lat="47.16554" lon="4.95172">
        <ele>260</ele>
        <time>2017-10-13T10:40:53Z</time>
      </trkpt>
      <trkpt lat="47.16594" lon="4.95168">
        <ele>260</ele>
        <time>2017-10-13T10:42:53Z</time>
      </trkpt>
      <trkpt lat="47.16598" lon="4.95166">
        <ele>260</ele>
        <time>2017-10-13T10:44:53Z</time>
      </trkpt>
      <trkpt lat="47.16608" lon="4.95166">
        <ele>260</ele>
        <time>2017-10-13T10:46:53Z</time>
      </trkpt>
      <trkpt lat="47.16618" lon="4.95165">
        <ele>260</ele>
        <time>2017-10-13T10:48:53Z</time>
      </trkpt>
      <trkpt lat="47.16624" lon="4.95163">
        <ele>260</ele>
        <time>2017-10-13T10:50:53Z</time>
      </trkpt>
      <trkpt lat="47.16638" lon="4.95161">
        <ele>260</ele>
        <time>2017-10-13T10:52:53Z</time>
      </trkpt>
      <trkpt lat="47.16648" lon="4.95165">
        <ele>260</ele>
        <time>2017-10-13T10:54:53Z</time>
      </trkpt>
      <trkpt lat="47.16663" lon="4.95165">
        <ele>260</ele>
        <time>2017-10-13T10:56:53Z</time>
      </trkpt>
      <trkpt lat="47.16677" lon="4.95169">
        <ele>260</ele>
        <time>2017-10-13T10:58:53Z</time>
      </trkpt>
      <trkpt lat="47.16682" lon="4.95167">
        <ele>260</ele>
        <time>2017-10-13T11:00:53Z</time>
      </trkpt>
      <trkpt lat="47.16697" lon="4.95166">
        <ele>260</ele>
        <time>2017-10-13T11:02:53Z</time>
      </trkpt>
      <trkpt lat="47.16704" lon="4.95168">
        <ele>260</ele>
        <time>2017-10-13T11:04:53Z</time>
      </trkpt>
      <trkpt lat="47.16709" lon="4.95169">
        <ele>259</ele>
        <time>2017-10-13T11:06:53Z</time>
      </trkpt>
      <trkpt lat="47.16714" lon="4.95169">
        <ele>259</ele>
        <time>2017-10-13T11:08:53Z</time>
      </trkpt>
      <trkpt lat="47.16728" lon="4.95172">
        <ele>259</ele>
        <time>2017-10-13T11:10:53Z</time>
      </trkpt>
      <trkpt lat="47.16743" lon="4.9517">
        <ele>259</ele>
        <time>2017-10-13T11:12:53Z</time>
      </trkpt>
      <trkpt lat="47.16763" lon="4.95177">
        <ele>258</ele>
        <time>2017-10-13T11:14:53Z</time>
      </trkpt>
      <trkpt lat="47.16773" lon="4.95174">
        <ele>258</ele>
        <time>2017-10-13T11:16:53Z</time>
      </trkpt>
      <trkpt lat="47.16778" lon="4.95176">
        <ele>258</ele>
        <time>2017-10-13T11:18:53Z</time>
      </trkpt>
      <trkpt lat="47.16784" lon="4.95174">
        <ele>258</ele>
        <time>2017-10-13T11:20:53Z</time>
      </trkpt>
      <trkpt lat="47.16814" lon="4.9518">
        <ele>257</ele>
        <time>2017-10-13T11:22:53Z</time>
      </trkpt>
      <trkpt lat="47.16819" lon="4.95183">
        <ele>257</ele>
        <time>2017-10-13T11:24:53Z</time>
      </trkpt>
      <trkpt lat="47.16829" lon="4.95187">
        <ele>257</ele>
        <time>2017-10-13T11:26:53Z</time>
      </trkpt>
      <trkpt lat="47.16834" lon="4.95186">
        <ele>257</ele>
        <time>2017-10-13T11:28:53Z</time>
      </trkpt>
      <trkpt lat="47.16843" lon="4.95188">
        <ele>257</ele>
        <time>2017-10-13T11:30:53Z</time>
      </trkpt>
      <trkpt lat="47.16858" lon="4.95196">
        <ele>257</ele>
        <time>2017-10-13T11:32:53Z</time>
      </trkpt>
      <trkpt lat="47.16863" lon="4.95196">
        <ele>257</ele>
        <time>2017-10-13T11:34:53Z</time>
      </trkpt>
      <trkpt lat="47.16878" lon="4.952">
        <ele>257</ele>
        <time>2017-10-13T11:36:53Z</time>
      </trkpt>
      <trkpt lat="47.16887" lon="4.95205">
        <ele>257</ele>
        <time>2017-10-13T11:38:53Z</time>
      </trkpt>
      <trkpt lat="47.16896" lon="4.95213">
        <ele>257</ele>
        <time>2017-10-13T11:40:53Z</time>
      </trkpt>
      <trkpt lat="47.16906" lon="4.95213">
        <ele>257</ele>
        <time>2017-10-13T11:42:53Z</time>
      </trkpt>
      <trkpt lat="47.16928" lon="4.95219">
        <ele>257</ele>
        <time>2017-10-13T11:44:53Z</time>
      </trkpt>
      <trkpt lat="47.16944" lon="4.95221">
        <ele>258</ele>
        <time>2017-10-13T11:46:53Z</time>
      </trkpt>
      <trkpt lat="47.16948" lon="4.95222">
        <ele>258</ele>
        <time>2017-10-13T11:48:53Z</time>
      </trkpt>
      <trkpt lat="47.16974" lon="4.95228">
        <ele>258</ele>
        <time>2017-10-13T11:50:53Z</time>
      </trkpt>
      <trkpt lat="47.16979" lon="4.95231">
        <ele>259</ele>
        <time>2017-10-13T11:52:53Z</time>
      </trkpt>
      <trkpt lat="47.16984" lon="4.95232">
        <ele>259</ele>
        <time>2017-10-13T11:54:53Z</time>
      </trkpt>
      <trkpt lat="47.16997" lon="4.95238">
        <ele>259</ele>
        <time>2017-10-13T11:56:53Z</time>
      </trkpt>
      <trkpt lat="47.17004" lon="4.95241">
        <ele>259</ele>
        <time>2017-10-13T11:58:53Z</time>
      </trkpt>
      <trkpt lat="47.17023" lon="4.95252">
        <ele>260</ele>
        <time>2017-10-13T12:00:53Z</time>
      </trkpt>
      <trkpt lat="47.17033" lon="4.95256">
        <ele>260</ele>
        <time>2017-10-13T12:02:53Z</time>
      </trkpt>
      <trkpt lat="47.17048" lon="4.9526">
        <ele>261</ele>
        <time>2017-10-13T12:04:53Z</time>
      </trkpt>
      <trkpt lat="47.17064" lon="4.95262">
        <ele>262</ele>
        <time>2017-10-13T12:06:53Z</time>
      </trkpt>
      <trkpt lat="47.17076" lon="4.95267">
        <ele>262</ele>
        <time>2017-10-13T12:08:53Z</time>
      </trkpt>
      <trkpt lat="47.17086" lon="4.95266">
        <ele>262</ele>
        <time>2017-10-13T12:10:53Z</time>
      </trkpt>
      <trkpt lat="47.17101" lon="4.95263">
        <ele>262</ele>
        <time>2017-10-13T12:12:53Z</time>
      </trkpt>
      <trkpt lat="47.17107" lon="4.95265">
        <ele>262</ele>
        <time>2017-10-13T12:14:53Z</time>
      </trkpt>
      <trkpt lat="47.17137" lon="4.95266">
        <ele>262</ele>
        <time>2017-10-13T12:16:53Z</time>
      </trkpt>
      <trkpt lat="47.17146" lon="4.95269">
        <ele>262</ele>
        <time>2017-10-13T12:18:53Z</time>
      </trkpt>
      <trkpt lat="47.17152" lon="4.95267">
        <ele>262</ele>
        <time>2017-10-13T12:20:53Z</time>
      </trkpt>
      <trkpt lat="47.17157" lon="4.95267">
        <ele>262</ele>
        <time>2017-10-13T12:22:53Z</time>
      </trkpt>
      <trkpt lat="47.17163" lon="4.95268">
        <ele>262</ele>
        <time>2017-10-13T12:24:53Z</time>
      </trkpt>
      <trkpt lat="47.17173" lon="4.95268">
        <ele>262</ele>
        <time>2017-10-13T12:26:53Z</time>
      </trkpt>
      <trkpt lat="47.17192" lon="4.95274">
        <ele>262</ele>
        <time>2017-10-13T12:28:53Z</time>
      </trkpt>
      <trkpt lat="47.17198" lon="4.95274">
        <ele>262</ele>
        <time>2017-10-13T12:30:53Z</time>
      </trkpt>
      <trkpt lat="47.17203" lon="4.95276">
        <ele>262</ele>
        <time>2017-10-13T12:32:53Z</time>
      </trkpt>
      <trkpt lat="47.17238" lon="4.95281">
        <ele>263</ele>
        <time>2017-10-13T12:34:53Z</time>
      </trkpt>
      <trkpt lat="47.17248" lon="4.95287">
        <ele>263</ele>
        <time>2017-10-13T12:36:53Z</time>
      </trkpt>
      <trkpt lat="47.17261" lon="4.95292">
        <ele>263</ele>
        <time>2017-10-13T12:38:53Z</time>
      </trkpt>
      <trkpt lat="47.17265" lon="4.95293">
        <ele>263</ele>
        <time>2017-10-13T12:40:53Z</time>
      </trkpt>
      <trkpt lat="47.17275" lon="4.95293">
        <ele>263</ele>
        <time>2017-10-13T12:42:53Z</time>
      </trkpt>
      <trkpt lat="47.17285" lon="4.95295">
        <ele>263</ele>
        <time>2017-10-13T12:44:53Z</time>
      </trkpt>
      <trkpt lat="47.17296" lon="4.95294">
        <ele>263</ele>
        <time>2017-10-13T12:46:53Z</time>
      </trkpt>
      <trkpt lat="47.17311" lon="4.953">
        <ele>264</ele>
        <time>2017-10-13T12:48:53Z</time>
      </trkpt>
      <trkpt lat="47.17316" lon="4.953">
        <ele>264</ele>
        <time>2017-10-13T12:50:53Z</time>
      </trkpt>
      <trkpt lat="47.1732" lon="4.95301">
        <ele>264</ele>
        <time>2017-10-13T12:52:53Z</time>
      </trkpt>
      <trkpt lat="47.17323" lon="4.95307">
        <ele>264</ele>
        <time>2017-10-13T12:54:53Z</time>
      </trkpt>
      <trkpt lat="47.17323" lon="4.95315">
        <ele>263</ele>
        <time>2017-10-13T12:56:53Z</time>
      </trkpt>
      <trkpt lat="47.17322" lon="4.95322">
        <ele>263</ele>
        <time>2017-10-13T12:58:53Z</time>
      </trkpt>
      <trkpt lat="47.1732" lon="4.95329">
        <ele>263</ele>
        <time>2017-10-13T13:00:53Z</time>
      </trkpt>
      <trkpt lat="47.17315" lon="4.95332">
        <ele>263</ele>
        <time>2017-10-13T13:02:53Z</time>
      </trkpt>
      <trkpt lat="47.17311" lon="4.95335">
        <ele>263</ele>
        <time>2017-10-13T13:04:53Z</time>
      </trkpt>
      <trkpt lat="47.17306" lon="4.95339">
        <ele>262</ele>
        <time>2017-10-13T13:06:53Z</time>
      </trkpt>
      <trkpt lat="47.17282" lon="4.95356">
        <ele>262</ele>
        <time>2017-10-13T13:08:53Z</time>
      </trkpt>
      <trkpt lat="47.17278" lon="4.95358">
        <ele>262</ele>
        <time>2017-10-13T13:10:53Z</time>
      </trkpt>
      <trkpt lat="47.17265" lon="4.95369">
        <ele>261</ele>
        <time>2017-10-13T13:12:53Z</time>
      </trkpt>
      <trkpt lat="47.17261" lon="4.95374">
        <ele>261</ele>
        <time>2017-10-13T13:14:53Z</time>
      </trkpt>
      <trkpt lat="47.1725" lon="4.95388">
        <ele>261</ele>
        <time>2017-10-13T13:16:53Z</time>
      </trkpt>
      <trkpt lat="47.17215" lon="4.9545">
        <ele>259</ele>
        <time>2017-10-13T13:18:53Z</time>
      </trkpt>
      <trkpt lat="47.17214" lon="4.95458">
        <ele>258</ele>
        <time>2017-10-13T13:20:53Z</time>
      </trkpt>
      <trkpt lat="47.17216" lon="4.95466">
        <ele>258</ele>
        <time>2017-10-13T13:22:53Z</time>
      </trkpt>
      <trkpt lat="47.17218" lon="4.95471">
        <ele>258</ele>
        <time>2017-10-13T13:24:53Z</time>
      </trkpt>
      <trkpt lat="47.17223" lon="4.95492">
        <ele>258</ele>
        <time>2017-10-13T13:26:53Z</time>
      </trkpt>
      <trkpt lat="47.17223" lon="4.95506">
        <ele>257</ele>
        <time>2017-10-13T13:28:53Z</time>
      </trkpt>
      <trkpt lat="47.17225" lon="4.95513">
        <ele>257</ele>
        <time>2017-10-13T13:30:53Z</time>
      </trkpt>
      <trkpt lat="47.17247" lon="4.95515">
        <ele>258</ele>
        <time>2017-10-13T13:32:53Z</time>
      </trkpt>
      <trkpt lat="47.17252" lon="4.95518">
        <ele>258</ele>
        <time>2017-10-13T13:34:53Z</time>
      </trkpt>
      <trkpt lat="47.17257" lon="4.95521">
        <ele>258</ele>
        <time>2017-10-13T13:36:53Z</time>
      </trkpt>
      <trkpt lat="47.17261" lon="4.95523">
        <ele>258</ele>
        <time>2017-10-13T13:38:53Z</time>
      </trkpt>
      <trkpt lat="47.17266" lon="4.95523">
        <ele>258</ele>
        <time>2017-10-13T13:40:53Z</time>
      </trkpt>
      <trkpt lat="47.17271" lon="4.95523">
        <ele>258</ele>
        <time>2017-10-13T13:42:53Z</time>
      </trkpt>
      <trkpt lat="47.1728" lon="4.95522">
        <ele>258</ele>
        <time>2017-10-13T13:44:53Z</time>
      </trkpt>
      <trkpt lat="47.17291" lon="4.95523">
        <ele>258</ele>
        <time>2017-10-13T13:46:53Z</time>
      </trkpt>
      <trkpt lat="47.17296" lon="4.95523">
        <ele>258</ele>
        <time>2017-10-13T13:48:53Z</time>
      </trkpt>
      <trkpt lat="47.173" lon="4.95524">
        <ele>258</ele>
        <time>2017-10-13T13:50:53Z</time>
      </trkpt>
      <trkpt lat="47.17305" lon="4.95527">
        <ele>258</ele>
        <time>2017-10-13T13:52:53Z</time>
      </trkpt>
      <trkpt lat="47.17309" lon="4.95532">
        <ele>258</ele>
        <time>2017-10-13T13:54:53Z</time>
      </trkpt>
      <trkpt lat="47.17313" lon="4.95535">
        <ele>258</ele>
        <time>2017-10-13T13:56:53Z</time>
      </trkpt>
      <trkpt lat="47.17319" lon="4.95534">
        <ele>258</ele>
        <time>2017-10-13T13:58:53Z</time>
      </trkpt>
      <trkpt lat="47.17324" lon="4.95535">
        <ele>258</ele>
        <time>2017-10-13T14:00:53Z</time>
      </trkpt>
      <trkpt lat="47.17329" lon="4.95535">
        <ele>258</ele>
        <time>2017-10-13T14:02:53Z</time>
      </trkpt>
      <trkpt lat="47.17334" lon="4.95539">
        <ele>258</ele>
        <time>2017-10-13T14:04:53Z</time>
      </trkpt>
      <trkpt lat="47.17349" lon="4.95542">
        <ele>257</ele>
        <time>2017-10-13T14:06:53Z</time>
      </trkpt>
      <trkpt lat="47.17354" lon="4.95542">
        <ele>257</ele>
        <time>2017-10-13T14:08:53Z</time>
      </trkpt>
      <trkpt lat="47.1736" lon="4.95542">
        <ele>257</ele>
        <time>2017-10-13T14:10:53Z</time>
      </trkpt>
      <trkpt lat="47.17366" lon="4.95544">
        <ele>257</ele>
        <time>2017-10-13T14:12:53Z</time>
      </trkpt>
      <trkpt lat="47.17372" lon="4.95543">
        <ele>257</ele>
        <time>2017-10-13T14:14:53Z</time>
      </trkpt>
      <trkpt lat="47.17376" lon="4.95543">
        <ele>256</ele>
        <time>2017-10-13T14:16:53Z</time>
      </trkpt>
      <trkpt lat="47.17382" lon="4.95544">
        <ele>256</ele>
        <time>2017-10-13T14:18:53Z</time>
      </trkpt>
      <trkpt lat="47.17387" lon="4.95543">
        <ele>256</ele>
        <time>2017-10-13T14:20:53Z</time>
      </trkpt>
      <trkpt lat="47.17402" lon="4.95545">
        <ele>256</ele>
        <time>2017-10-13T14:22:53Z</time>
      </trkpt>
      <trkpt lat="47.17411" lon="4.9555">
        <ele>256</ele>
        <time>2017-10-13T14:24:53Z</time>
      </trkpt>
      <trkpt lat="47.17416" lon="4.95551">
        <ele>255</ele>
        <time>2017-10-13T14:26:53Z</time>
      </trkpt>
      <trkpt lat="47.17431" lon="4.95557">
        <ele>255</ele>
        <time>2017-10-13T14:28:53Z</time>
      </trkpt>
      <trkpt lat="47.17435" lon="4.95561">
        <ele>255</ele>
        <time>2017-10-13T14:30:53Z</time>
      </trkpt>
      <trkpt lat="47.1744" lon="4.95563">
        <ele>255</ele>
        <time>2017-10-13T14:32:53Z</time>
      </trkpt>
      <trkpt lat="47.17444" lon="4.95565">
        <ele>254</ele>
        <time>2017-10-13T14:34:53Z</time>
      </trkpt>
      <trkpt lat="47.1745" lon="4.95563">
        <ele>254</ele>
        <time>2017-10-13T14:36:53Z</time>
      </trkpt>
      <trkpt lat="47.17455" lon="4.95564">
        <ele>254</ele>
        <time>2017-10-13T14:38:53Z</time>
      </trkpt>
      <trkpt lat="47.17459" lon="4.95567">
        <ele>254</ele>
        <time>2017-10-13T14:40:53Z</time>
      </trkpt>
      <trkpt lat="47.17474" lon="4.9557">
        <ele>253</ele>
        <time>2017-10-13T14:42:53Z</time>
      </trkpt>
      <trkpt lat="47.17479" lon="4.95568">
        <ele>253</ele>
        <time>2017-10-13T14:44:53Z</time>
      </trkpt>
      <trkpt lat="47.17484" lon="4.95569">
        <ele>253</ele>
        <time>2017-10-13T14:46:53Z</time>
      </trkpt>
      <trkpt lat="47.17489" lon="4.95572">
        <ele>253</ele>
        <time>2017-10-13T14:48:53Z</time>
      </trkpt>
      <trkpt lat="47.17498" lon="4.95576">
        <ele>252</ele>
        <time>2017-10-13T14:50:53Z</time>
      </trkpt>
      <trkpt lat="47.17504" lon="4.95576">
        <ele>252</ele>
        <time>2017-10-13T14:52:53Z</time>
      </trkpt>
      <trkpt lat="47.17508" lon="4.95574">
        <ele>253</ele>
        <time>2017-10-13T14:54:53Z</time>
      </trkpt>
      <trkpt lat="47.17512" lon="4.9557">
        <ele>253</ele>
        <time>2017-10-13T14:56:53Z</time>
      </trkpt>
      <trkpt lat="47.17515" lon="4.95563">
        <ele>253</ele>
        <time>2017-10-13T14:58:53Z</time>
      </trkpt>
      <trkpt lat="47.17514" lon="4.95556">
        <ele>254</ele>
        <time>2017-10-13T15:00:53Z</time>
      </trkpt>
      <trkpt lat="47.17511" lon="4.95539">
        <ele>254</ele>
        <time>2017-10-13T15:02:53Z</time>
      </trkpt>
      <trkpt lat="47.17513" lon="4.95531">
        <ele>255</ele>
        <time>2017-10-13T15:04:53Z</time>
      </trkpt>
      <trkpt lat="47.17516" lon="4.95526">
        <ele>255</ele>
        <time>2017-10-13T15:06:53Z</time>
      </trkpt>
      <trkpt lat="47.17513" lon="4.95526">
        <ele>255</ele>
        <time>2017-10-13T15:08:53Z</time>
      </trkpt>
      <trkpt lat="47.17511" lon="4.95533">
        <ele>255</ele>
        <time>2017-10-13T15:10:53Z</time>
      </trkpt>
      <trkpt lat="47.17507" lon="4.95537">
        <ele>254</ele>
        <time>2017-10-13T15:12:53Z</time>
      </trkpt>
      <trkpt lat="47.17502" lon="4.95535">
        <ele>254</ele>
        <time>2017-10-13T15:14:53Z</time>
      </trkpt>
      <trkpt lat="47.175" lon="4.9554">
        <ele>254</ele>
        <time>2017-10-13T15:16:53Z</time>
      </trkpt>
      <trkpt lat="47.17507" lon="4.95561">
        <ele>253</ele>
        <time>2017-10-13T15:18:53Z</time>
      </trkpt>
      <trkpt lat="47.17511" lon="4.95564">
        <ele>253</ele>
        <time>2017-10-13T15:20:53Z</time>
      </trkpt>
      <trkpt lat="47.17522" lon="4.95561">
        <ele>254</ele>
        <time>2017-10-13T15:22:53Z</time>
      </trkpt>
      <trkpt lat="47.17527" lon="4.95562">
        <ele>254</ele>
        <time>2017-10-13T15:24:53Z</time>
      </trkpt>
      <trkpt lat="47.17532" lon="4.95562">
        <ele>254</ele>
        <time>2017-10-13T15:26:53Z</time>
      </trkpt>
      <trkpt lat="47.17537" lon="4.95564">
        <ele>254</ele>
        <time>2017-10-13T15:28:53Z</time>
      </trkpt>
      <trkpt lat="47.17543" lon="4.95564">
        <ele>254</ele>
        <time>2017-10-13T15:30:53Z</time>
      </trkpt>
      <trkpt lat="47.17545" lon="4.95557">
        <ele>254</ele>
        <time>2017-10-13T15:32:53Z</time>
      </trkpt>
      <trkpt lat="47.17551" lon="4.95558">
        <ele>254</ele>
        <time>2017-10-13T15:34:53Z</time>
      </trkpt>
      <trkpt lat="47.17557" lon="4.9556">
        <ele>254</ele>
        <time>2017-10-13T15:36:53Z</time>
      </trkpt>
      <trkpt lat="47.17565" lon="4.95562">
        <ele>254</ele>
        <time>2017-10-13T15:38:53Z</time>
      </trkpt>
      <trkpt lat="47.17572" lon="4.95572">
        <ele>254</ele>
        <time>2017-10-13T15:40:53Z</time>
      </trkpt>
      <trkpt lat="47.17576" lon="4.95577">
        <ele>254</ele>
        <time>2017-10-13T15:42:53Z</time>
      </trkpt>
      <trkpt lat="47.1758" lon="4.9558">
        <ele>254</ele>
        <time>2017-10-13T15:44:53Z</time>
      </trkpt>
      <trkpt lat="47.17595" lon="4.956">
        <ele>254</ele>
        <time>2017-10-13T15:46:53Z</time>
      </trkpt>
      <trkpt lat="47.17604" lon="4.95605">
        <ele>254</ele>
        <time>2017-10-13T15:48:53Z</time>
      </trkpt>
      <trkpt lat="47.17623" lon="4.95624">
        <ele>254</ele>
        <time>2017-10-13T15:50:53Z</time>
      </trkpt>
      <trkpt lat="47.17628" lon="4.95626">
        <ele>254</ele>
        <time>2017-10-13T15:52:53Z</time>
      </trkpt>
      <trkpt lat="47.17633" lon="4.95626">
        <ele>254</ele>
        <time>2017-10-13T15:54:53Z</time>
      </trkpt>
      <trkpt lat="47.17637" lon="4.95629">
        <ele>254</ele>
        <time>2017-10-13T15:56:53Z</time>
      </trkpt>
      <trkpt lat="47.1764" lon="4.95619">
        <ele>255</ele>
        <time>2017-10-13T15:58:53Z</time>
      </trkpt>
      <trkpt lat="47.17643" lon="4.95582">
        <ele>257</ele>
        <time>2017-10-13T16:00:53Z</time>
      </trkpt>
      <trkpt lat="47.17637" lon="4.95532">
        <ele>259</ele>
        <time>2017-10-13T16:02:53Z</time>
      </trkpt>
      <trkpt lat="47.17633" lon="4.95511">
        <ele>260</ele>
        <time>2017-10-13T16:04:53Z</time>
      </trkpt>
      <trkpt lat="47.17632" lon="4.95505">
        <ele>260</ele>
        <time>2017-10-13T16:06:53Z</time>
      </trkpt>
      <trkpt lat="47.17632" lon="4.95498">
        <ele>260</ele>
        <time>2017-10-13T16:08:53Z</time>
      </trkpt>
      <trkpt lat="47.17636" lon="4.95494">
        <ele>261</ele>
        <time>2017-10-13T16:10:53Z</time>
      </trkpt>
      <trkpt lat="47.17645" lon="4.95489">
        <ele>261</ele>
        <time>2017-10-13T16:12:53Z</time>
      </trkpt>
      <trkpt lat="47.1765" lon="4.95485">
        <ele>262</ele>
        <time>2017-10-13T16:14:53Z</time>
      </trkpt>
      <trkpt lat="47.17655" lon="4.95485">
        <ele>262</ele>
        <time>2017-10-13T16:16:53Z</time>
      </trkpt>
      <trkpt lat="47.17661" lon="4.95487">
        <ele>262</ele>
        <time>2017-10-13T16:18:53Z</time>
      </trkpt>
      <trkpt lat="47.17667" lon="4.95487">
        <ele>263</ele>
        <time>2017-10-13T16:20:53Z</time>
      </trkpt>
      <trkpt lat="47.17674" lon="4.95485">
        <ele>263</ele>
        <time>2017-10-13T16:22:53Z</time>
      </trkpt>
      <trkpt lat="47.17679" lon="4.95485">
        <ele>264</ele>
        <time>2017-10-13T16:24:53Z</time>
      </trkpt>
      <trkpt lat="47.17683" lon="4.95486">
        <ele>264</ele>
        <time>2017-10-13T16:26:53Z</time>
      </trkpt>
      <trkpt lat="47.17692" lon="4.9549">
        <ele>264</ele>
        <time>2017-10-13T16:28:53Z</time>
      </trkpt>
      <trkpt lat="47.17697" lon="4.95493">
        <ele>264</ele>
        <time>2017-10-13T16:30:53Z</time>
      </trkpt>
      <trkpt lat="47.17701" lon="4.95498">
        <ele>264</ele>
        <time>2017-10-13T16:32:53Z</time>
      </trkpt>
      <trkpt lat="47.1771" lon="4.95508">
        <ele>264</ele>
        <time>2017-10-13T16:34:53Z</time>
      </trkpt>
      <trkpt lat="47.17728" lon="4.95523">
        <ele>263</ele>
        <time>2017-10-13T16:36:53Z</time>
      </trkpt>
      <trkpt lat="47.17733" lon="4.95522">
        <ele>264</ele>
        <time>2017-10-13T16:38:53Z</time>
      </trkpt>
      <trkpt lat="47.17739" lon="4.95521">
        <ele>264</ele>
        <time>2017-10-13T16:40:53Z</time>
      </trkpt>
      <trkpt lat="47.17754" lon="4.95527">
        <ele>264</ele>
        <time>2017-10-13T16:42:53Z</time>
      </trkpt>
      <trkpt lat="47.1777" lon="4.95537">
        <ele>264</ele>
        <time>2017-10-13T16:44:53Z</time>
      </trkpt>
      <trkpt lat="47.17775" lon="4.95538">
        <ele>264</ele>
        <time>2017-10-13T16:46:53Z</time>
      </trkpt>
      <trkpt lat="47.17784" lon="4.95545">
        <ele>264</ele>
        <time>2017-10-13T16:48:53Z</time>
      </trkpt>
      <trkpt lat="47.17819" lon="4.95557">
        <ele>265</ele>
        <time>2017-10-13T16:50:53Z</time>
      </trkpt>
      <trkpt lat="47.17828" lon="4.95563">
        <ele>264</ele>
        <time>2017-10-13T16:52:53Z</time>
      </trkpt>
      <trkpt lat="47.17859" lon="4.95588">
        <ele>265</ele>
        <time>2017-10-13T16:54:53Z</time>
      </trkpt>
      <trkpt lat="47.17864" lon="4.95591">
        <ele>265</ele>
        <time>2017-10-13T16:56:53Z</time>
      </trkpt>
      <trkpt lat="47.17869" lon="4.95594">
        <ele>266</ele>
        <time>2017-10-13T16:58:53Z</time>
      </trkpt>
      <trkpt lat="47.17874" lon="4.95593">
        <ele>266</ele>
        <time>2017-10-13T17:00:53Z</time>
      </trkpt>
      <trkpt lat="47.17878" lon="4.95593">
        <ele>267</ele>
        <time>2017-10-13T17:02:53Z</time>
      </trkpt>
      <trkpt lat="47.17881" lon="4.95599">
        <ele>267</ele>
        <time>2017-10-13T17:04:53Z</time>
      </trkpt>
      <trkpt lat="47.17886" lon="4.956">
        <ele>267</ele>
        <time>2017-10-13T17:06:53Z</time>
      </trkpt>
      <trkpt lat="47.17891" lon="4.95598">
        <ele>268</ele>
        <time>2017-10-13T17:08:53Z</time>
      </trkpt>
      <trkpt lat="47.17902" lon="4.95604">
        <ele>269</ele>
        <time>2017-10-13T17:10:53Z</time>
      </trkpt>
      <trkpt lat="47.17911" lon="4.95612">
        <ele>270</ele>
        <time>2017-10-13T17:12:53Z</time>
      </trkpt>
      <trkpt lat="47.17921" lon="4.95615">
        <ele>271</ele>
        <time>2017-10-13T17:14:53Z</time>
      </trkpt>
      <trkpt lat="47.17945" lon="4.95621">
        <ele>272</ele>
        <time>2017-10-13T17:16:53Z</time>
      </trkpt>
      <trkpt lat="47.1795" lon="4.95624">
        <ele>272</ele>
        <time>2017-10-13T17:18:53Z</time>
      </trkpt>
      <trkpt lat="47.17954" lon="4.95628">
        <ele>272</ele>
        <time>2017-10-13T17:20:53Z</time>
      </trkpt>
      <trkpt lat="47.17964" lon="4.9563">
        <ele>272</ele>
        <time>2017-10-13T17:22:53Z</time>
      </trkpt>
      <trkpt lat="47.17974" lon="4.95636">
        <ele>272</ele>
        <time>2017-10-13T17:24:53Z</time>
      </trkpt>
      <trkpt lat="47.17979" lon="4.95638">
        <ele>272</ele>
        <time>2017-10-13T17:26:53Z</time>
      </trkpt>
      <trkpt lat="47.17983" lon="4.95641">
        <ele>272</ele>
        <time>2017-10-13T17:28:53Z</time>
      </trkpt>
      <trkpt lat="47.17993" lon="4.95647">
        <ele>273</ele>
        <time>2017-10-13T17:30:53Z</time>
      </trkpt>
      <trkpt lat="47.17997" lon="4.9565">
        <ele>273</ele>
        <time>2017-10-13T17:32:53Z</time>
      </trkpt>
      <trkpt lat="47.18001" lon="4.95656">
        <ele>273</ele>
        <time>2017-10-13T17:34:53Z</time>
      </trkpt>
      <trkpt lat="47.18005" lon="4.95661">
        <ele>272</ele>
        <time>2017-10-13T17:36:53Z</time>
      </trkpt>
      <trkpt lat="47.18015" lon="4.95669">
        <ele>272</ele>
        <time>2017-10-13T17:38:53Z</time>
      </trkpt>
      <trkpt lat="47.18026" lon="4.95675">
        <ele>272</ele>
        <time>2017-10-13T17:40:53Z</time>
      </trkpt>
      <trkpt lat="47.18034" lon="4.95681">
        <ele>272</ele>
        <time>2017-10-13T17:42:53Z</time>
      </trkpt>
      <trkpt lat="47.18071" lon="4.95707">
        <ele>271</ele>
        <time>2017-10-13T17:44:53Z</time>
      </trkpt>
      <trkpt lat="47.18076" lon="4.95711">
        <ele>271</ele>
        <time>2017-10-13T17:46:53Z</time>
      </trkpt>
      <trkpt lat="47.18095" lon="4.95719">
        <ele>271</ele>
        <time>2017-10-13T17:48:53Z</time>
      </trkpt>
      <trkpt lat="47.18099" lon="4.95723">
        <ele>270</ele>
        <time>2017-10-13T17:50:53Z</time>
      </trkpt>
      <trkpt lat="47.18106" lon="4.9573">
        <ele>270</ele>
        <time>2017-10-13T17:52:53Z</time>
      </trkpt>
      <trkpt lat="47.18116" lon="4.95733">
        <ele>269</ele>
        <time>2017-10-13T17:54:53Z</time>
      </trkpt>
      <trkpt lat="47.18125" lon="4.9574">
        <ele>269</ele>
        <time>2017-10-13T17:56:53Z</time>
      </trkpt>
      <trkpt lat="47.1813" lon="4.95742">
        <ele>268</ele>
        <time>2017-10-13T17:58:53Z</time>
      </trkpt>
      <trkpt lat="47.18135" lon="4.95746">
        <ele>268</ele>
        <time>2017-10-13T18:00:53Z</time>
      </trkpt>
      <trkpt lat="47.18158" lon="4.95758">
        <ele>267</ele>
        <time>2017-10-13T18:02:53Z</time>
      </trkpt>
      <trkpt lat="47.1817" lon="4.9577">
        <ele>266</ele>
        <time>2017-10-13T18:04:53Z</time>
      </trkpt>
      <trkpt lat="47.18175" lon="4.95773">
        <ele>266</ele>
        <time>2017-10-13T18:06:53Z</time>
      </trkpt>
      <trkpt lat="47.18181" lon="4.95775">
        <ele>266</ele>
        <time>2017-10-13T18:08:53Z</time>
      </trkpt>
      <trkpt lat="47.18185" lon="4.95769">
        <ele>266</ele>
        <time>2017-10-13T18:10:53Z</time>
      </trkpt>
      <trkpt lat="47.1819" lon="4.95764">
        <ele>266</ele>
        <time>2017-10-13T18:12:53Z</time>
      </trkpt>
      <trkpt lat="47.18199" lon="4.95758">
        <ele>266</ele>
        <time>2017-10-13T18:14:53Z</time>
      </trkpt>
      <trkpt lat="47.18214" lon="4.95739">
        <ele>267</ele>
        <time>2017-10-13T18:16:53Z</time>
      </trkpt>
      <trkpt lat="47.18237" lon="4.95718">
        <ele>267</ele>
        <time>2017-10-13T18:18:53Z</time>
      </trkpt>
      <trkpt lat="47.18267" lon="4.95681">
        <ele>268</ele>
        <time>2017-10-13T18:20:53Z</time>
      </trkpt>
      <trkpt lat="47.1829" lon="4.95654">
        <ele>269</ele>
        <time>2017-10-13T18:22:53Z</time>
      </trkpt>
      <trkpt lat="47.18292" lon="4.95647">
        <ele>269</ele>
        <time>2017-10-13T18:24:53Z</time>
      </trkpt>
      <trkpt lat="47.18296" lon="4.9564">
        <ele>269</ele>
        <time>2017-10-13T18:26:53Z</time>
      </trkpt>
      <trkpt lat="47.183" lon="4.95637">
        <ele>269</ele>
        <time>2017-10-13T18:28:53Z</time>
      </trkpt>
      <trkpt lat="47.18304" lon="4.95634">
        <ele>269</ele>
        <time>2017-10-13T18:30:53Z</time>
      </trkpt>
      <trkpt lat="47.18309" lon="4.9563">
        <ele>269</ele>
        <time>2017-10-13T18:32:53Z</time>
      </trkpt>
      <trkpt lat="47.1832" lon="4.95615">
        <ele>269</ele>
        <time>2017-10-13T18:34:53Z</time>
      </trkpt>
      <trkpt lat="47.18349" lon="4.95575">
        <ele>269</ele>
        <time>2017-10-13T18:36:53Z</time>
      </trkpt>
      <trkpt lat="47.18359" lon="4.95557">
        <ele>269</ele>
        <time>2017-10-13T18:38:53Z</time>
      </trkpt>
      <trkpt lat="47.18368" lon="4.95541">
        <ele>269</ele>
        <time>2017-10-13T18:40:53Z</time>
      </trkpt>
      <trkpt lat="47.18384" lon="4.95505">
        <ele>270</ele>
        <time>2017-10-13T18:42:53Z</time>
      </trkpt>
      <trkpt lat="47.18399" lon="4.95475">
        <ele>271</ele>
        <time>2017-10-13T18:44:53Z</time>
      </trkpt>
      <trkpt lat="47.18403" lon="4.95469">
        <ele>271</ele>
        <time>2017-10-13T18:46:53Z</time>
      </trkpt>
      <trkpt lat="47.18406" lon="4.95463">
        <ele>271</ele>
        <time>2017-10-13T18:48:53Z</time>
      </trkpt>
      <trkpt lat="47.18423" lon="4.95436">
        <ele>272</ele>
        <time>2017-10-13T18:50:53Z</time>
      </trkpt>
      <trkpt lat="47.18431" lon="4.95427">
        <ele>273</ele>
        <time>2017-10-13T18:52:53Z</time>
      </trkpt>
      <trkpt lat="47.18436" lon="4.95413">
        <ele>274</ele>
        <time>2017-10-13T18:54:53Z</time>
      </trkpt>
      <trkpt lat="47.18443" lon="4.95403">
        <ele>274</ele>
        <time>2017-10-13T18:56:53Z</time>
      </trkpt>
      <trkpt lat="47.18464" lon="4.95351">
        <ele>276</ele>
        <time>2017-10-13T18:58:53Z</time>
      </trkpt>
      <trkpt lat="47.18471" lon="4.95331">
        <ele>277</ele>
        <time>2017-10-13T19:00:53Z</time>
      </trkpt>
      <trkpt lat="47.18472" lon="4.95323">
        <ele>277</ele>
        <time>2017-10-13T19:02:53Z</time>
      </trkpt>
      <trkpt lat="47.18489" lon="4.95298">
        <ele>278</ele>
        <time>2017-10-13T19:04:53Z</time>
      </trkpt>
      <trkpt lat="47.18491" lon="4.95292">
        <ele>278</ele>
        <time>2017-10-13T19:06:53Z</time>
      </trkpt>
      <trkpt lat="47.18493" lon="4.95285">
        <ele>278</ele>
        <time>2017-10-13T19:08:53Z</time>
      </trkpt>
      <trkpt lat="47.18494" lon="4.95278">
        <ele>278</ele>
        <time>2017-10-13T19:10:53Z</time>
      </trkpt>
      <trkpt lat="47.18496" lon="4.95265">
        <ele>279</ele>
        <time>2017-10-13T19:12:53Z</time>
      </trkpt>
      <trkpt lat="47.18501" lon="4.9521">
        <ele>280</ele>
        <time>2017-10-13T19:14:53Z</time>
      </trkpt>
      <trkpt lat="47.18502" lon="4.95179">
        <ele>281</ele>
        <time>2017-10-13T19:16:53Z</time>
      </trkpt>
      <trkpt lat="47.18505" lon="4.95164">
        <ele>281</ele>
        <time>2017-10-13T19:18:53Z</time>
      </trkpt>
      <trkpt lat="47.18503" lon="4.95179">
        <ele>281</ele>
        <time>2017-10-13T19:20:53Z</time>
      </trkpt>
      <trkpt lat="47.185" lon="4.95175">
        <ele>281</ele>
        <time>2017-10-13T19:22:53Z</time>
      </trkpt>
      <trkpt lat="47.185" lon="4.95167">
        <ele>281</ele>
        <time>2017-10-13T19:24:53Z</time>
      </trkpt>
      <trkpt lat="47.18503" lon="4.95161">
        <ele>281</ele>
        <time>2017-10-13T19:26:53Z</time>
      </trkpt>
      <trkpt lat="47.18504" lon="4.95152">
        <ele>281</ele>
        <time>2017-10-13T19:28:53Z</time>
      </trkpt>
      <trkpt lat="47.18506" lon="4.95146">
        <ele>282</ele>
        <time>2017-10-13T19:30:53Z</time>
      </trkpt>
      <trkpt lat="47.1851" lon="4.95125">
        <ele>282</ele>
        <time>2017-10-13T19:32:53Z</time>
      </trkpt>
      <trkpt lat="47.18508" lon="4.95106">
        <ele>283</ele>
        <time>2017-10-13T19:34:53Z</time>
      </trkpt>
      <trkpt lat="47.18511" lon="4.95091">
        <ele>283</ele>
        <time>2017-10-13T19:36:53Z</time>
      </trkpt>
      <trkpt lat="47.18516" lon="4.95075">
        <ele>284</ele>
        <time>2017-10-13T19:38:53Z</time>
      </trkpt>
      <trkpt lat="47.1852" lon="4.95062">
        <ele>284</ele>
        <time>2017-10-13T19:40:53Z</time>
      </trkpt>
      <trkpt lat="47.18522" lon="4.95049">
        <ele>285</ele>
        <time>2017-10-13T19:42:53Z</time>
      </trkpt>
      <trkpt lat="47.18535" lon="4.95038">
        <ele>285</ele>
        <time>2017-10-13T19:44:53Z</time>
      </trkpt>
      <trkpt lat="47.18544" lon="4.95033">
        <ele>285</ele>
        <time>2017-10-13T19:46:53Z</time>
      </trkpt>
      <trkpt lat="47.18568" lon="4.95028">
        <ele>284</ele>
        <time>2017-10-13T19:48:53Z</time>
      </trkpt>
      <trkpt lat="47.18573" lon="4.95025">
        <ele>284</ele>
        <time>2017-10-13T19:50:53Z</time>
      </trkpt>
      <trkpt lat="47.18578" lon="4.95022">
        <ele>283</ele>
        <time>2017-10-13T19:52:53Z</time>
      </trkpt>
      <trkpt lat="47.18583" lon="4.9502">
        <ele>283</ele>
        <time>2017-10-13T19:54:53Z</time>
      </trkpt>
      <trkpt lat="47.18588" lon="4.95021">
        <ele>284</ele>
        <time>2017-10-13T19:56:53Z</time>
      </trkpt>
      <trkpt lat="47.18594" lon="4.95021">
        <ele>285</ele>
        <time>2017-10-13T19:58:53Z</time>
      </trkpt>
      <trkpt lat="47.18608" lon="4.95009">
        <ele>288</ele>
        <time>2017-10-13T20:00:53Z</time>
      </trkpt>
      <trkpt lat="47.18612" lon="4.95004">
        <ele>289</ele>
        <time>2017-10-13T20:02:53Z</time>
      </trkpt>
      <trkpt lat="47.18613" lon="4.94997">
        <ele>289</ele>
        <time>2017-10-13T20:04:53Z</time>
      </trkpt>
      <trkpt lat="47.18612" lon="4.9499">
        <ele>289</ele>
        <time>2017-10-13T20:06:53Z</time>
      </trkpt>
      <trkpt lat="47.18616" lon="4.94974">
        <ele>290</ele>
        <time>2017-10-13T20:08:53Z</time>
      </trkpt>
      <trkpt lat="47.18622" lon="4.94962">
        <ele>290</ele>
        <time>2017-10-13T20:10:53Z</time>
      </trkpt>
      <trkpt lat="47.18625" lon="4.94956">
        <ele>290</ele>
        <time>2017-10-13T20:12:53Z</time>
      </trkpt>
      <trkpt lat="47.18628" lon="4.9495">
        <ele>290</ele>
        <time>2017-10-13T20:14:53Z</time>
      </trkpt>
      <trkpt lat="47.18644" lon="4.94923">
        <ele>290</ele>
        <time>2017-10-13T20:16:53Z</time>
      </trkpt>
      <trkpt lat="47.18644" lon="4.94915">
        <ele>289</ele>
        <time>2017-10-13T20:18:53Z</time>
      </trkpt>
      <trkpt lat="47.18649" lon="4.94903">
        <ele>290</ele>
        <time>2017-10-13T20:20:53Z</time>
      </trkpt>
      <trkpt lat="47.18663" lon="4.94884">
        <ele>289</ele>
        <time>2017-10-13T20:22:53Z</time>
      </trkpt>
      <trkpt lat="47.18675" lon="4.94862">
        <ele>291</ele>
        <time>2017-10-13T20:24:53Z</time>
      </trkpt>
      <trkpt lat="47.18691" lon="4.94818">
        <ele>297</ele>
        <time>2017-10-13T20:26:53Z</time>
      </trkpt>
      <trkpt lat="47.18697" lon="4.94807">
        <ele>299</ele>
        <time>2017-10-13T20:28:53Z</time>
      </trkpt>
      <trkpt lat="47.18708" lon="4.94791">
        <ele>302</ele>
        <time>2017-10-13T20:30:53Z</time>
      </trkpt>
      <trkpt lat="47.18715" lon="4.94772">
        <ele>304</ele>
        <time>2017-10-13T20:32:53Z</time>
      </trkpt>
      <trkpt lat="47.18717" lon="4.94764">
        <ele>304</ele>
        <time>2017-10-13T20:34:53Z</time>
      </trkpt>
      <trkpt lat="47.18718" lon="4.94757">
        <ele>304</ele>
        <time>2017-10-13T20:36:53Z</time>
      </trkpt>
      <trkpt lat="47.18717" lon="4.94742">
        <ele>304</ele>
        <time>2017-10-13T20:38:53Z</time>
      </trkpt>
      <trkpt lat="47.18715" lon="4.94736">
        <ele>304</ele>
        <time>2017-10-13T20:40:53Z</time>
      </trkpt>
      <trkpt lat="47.18702" lon="4.94717">
        <ele>305</ele>
        <time>2017-10-13T20:42:53Z</time>
      </trkpt>
      <trkpt lat="47.18703" lon="4.94703">
        <ele>306</ele>
        <time>2017-10-13T20:44:53Z</time>
      </trkpt>
      <trkpt lat="47.18719" lon="4.9465">
        <ele>308</ele>
        <time>2017-10-13T20:46:53Z</time>
      </trkpt>
      <trkpt lat="47.18726" lon="4.9464">
        <ele>307</ele>
        <time>2017-10-13T20:48:53Z</time>
      </trkpt>
      <trkpt lat="47.18729" lon="4.94627">
        <ele>308</ele>
        <time>2017-10-13T20:50:53Z</time>
      </trkpt>
      <trkpt lat="47.18731" lon="4.94614">
        <ele>308</ele>
        <time>2017-10-13T20:52:53Z</time>
      </trkpt>
      <trkpt lat="47.1873" lon="4.94601">
        <ele>309</ele>
        <time>2017-10-13T20:54:53Z</time>
      </trkpt>
      <trkpt lat="47.18734" lon="4.94589">
        <ele>309</ele>
        <time>2017-10-13T20:56:53Z</time>
      </trkpt>
      <trkpt lat="47.18735" lon="4.94575">
        <ele>309</ele>
        <time>2017-10-13T20:58:53Z</time>
      </trkpt>
      <trkpt lat="47.18731" lon="4.94561">
        <ele>311</ele>
        <time>2017-10-13T21:00:53Z</time>
      </trkpt>
      <trkpt lat="47.18738" lon="4.94551">
        <ele>309</ele>
        <time>2017-10-13T21:02:53Z</time>
      </trkpt>
      <trkpt lat="47.1874" lon="4.94537">
        <ele>310</ele>
        <time>2017-10-13T21:04:53Z</time>
      </trkpt>
      <trkpt lat="47.1875" lon="4.94506">
        <ele>308</ele>
        <time>2017-10-13T21:06:53Z</time>
      </trkpt>
      <trkpt lat="47.1876" lon="4.94482">
        <ele>311</ele>
        <time>2017-10-13T21:08:53Z</time>
      </trkpt>
      <trkpt lat="47.18762" lon="4.94467">
        <ele>313</ele>
        <time>2017-10-13T21:10:53Z</time>
      </trkpt>
      <trkpt lat="47.18767" lon="4.94454">
        <ele>314</ele>
        <time>2017-10-13T21:12:53Z</time>
      </trkpt>
      <trkpt lat="47.18772" lon="4.94442">
        <ele>315</ele>
        <time>2017-10-13T21:14:53Z</time>
      </trkpt>
      <trkpt lat="47.18776" lon="4.9443">
        <ele>316</ele>
        <time>2017-10-13T21:16:53Z</time>
      </trkpt>
      <trkpt lat="47.18782" lon="4.9442">
        <ele>317</ele>
        <time>2017-10-13T21:18:53Z</time>
      </trkpt>
      <trkpt lat="47.18787" lon="4.94408">
        <ele>318</ele>
        <time>2017-10-13T21:20:53Z</time>
      </trkpt>
      <trkpt lat="47.18811" lon="4.94363">
        <ele>318</ele>
        <time>2017-10-13T21:22:53Z</time>
      </trkpt>
      <trkpt lat="47.18824" lon="4.94327">
        <ele>315</ele>
        <time>2017-10-13T21:24:53Z</time>
      </trkpt>
      <trkpt lat="47.18834" lon="4.94289">
        <ele>315</ele>
        <time>2017-10-13T21:26:53Z</time>
      </trkpt>
      <trkpt lat="47.1885" lon="4.94255">
        <ele>319</ele>
        <time>2017-10-13T21:28:53Z</time>
      </trkpt>
      <trkpt lat="47.18853" lon="4.94241">
        <ele>319</ele>
        <time>2017-10-13T21:30:53Z</time>
      </trkpt>
      <trkpt lat="47.18862" lon="4.94227">
        <ele>321</ele>
        <time>2017-10-13T21:32:53Z</time>
      </trkpt>
      <trkpt lat="47.18867" lon="4.94214">
        <ele>321</ele>
        <time>2017-10-13T21:34:53Z</time>
      </trkpt>
      <trkpt lat="47.18871" lon="4.94201">
        <ele>321</ele>
        <time>2017-10-13T21:36:53Z</time>
      </trkpt>
      <trkpt lat="47.18871" lon="4.94187">
        <ele>320</ele>
        <time>2017-10-13T21:38:53Z</time>
      </trkpt>
      <trkpt lat="47.18873" lon="4.94186">
        <ele>320</ele>
        <time>2017-10-13T21:40:53Z</time>
      </trkpt>
      <trkpt lat="47.1887" lon="4.94173">
        <ele>319</ele>
        <time>2017-10-13T21:42:53Z</time>
      </trkpt>
      <trkpt lat="47.18889" lon="4.94166">
        <ele>318</ele>
        <time>2017-10-13T21:44:53Z</time>
      </trkpt>
      <trkpt lat="47.18897" lon="4.94183">
        <ele>320</ele>
        <time>2017-10-13T21:46:53Z</time>
      </trkpt>
      <trkpt lat="47.18888" lon="4.94188">
        <ele>320</ele>
        <time>2017-10-13T21:48:53Z</time>
      </trkpt>
      <trkpt lat="47.18861" lon="4.94181">
        <ele>320</ele>
        <time>2017-10-13T21:50:53Z</time>
      </trkpt>
      <trkpt lat="47.1887" lon="4.94185">
        <ele>320</ele>
        <time>2017-10-13T21:52:53Z</time>
      </trkpt>
      <trkpt lat="47.1889" lon="4.94189">
        <ele>320</ele>
        <time>2017-10-13T21:54:53Z</time>
      </trkpt>
      <trkpt lat="47.18916" lon="4.94175">
        <ele>319</ele>
        <time>2017-10-13T21:56:53Z</time>
      </trkpt>
      <trkpt lat="47.18926" lon="4.94167">
        <ele>320</ele>
        <time>2017-10-13T21:58:53Z</time>
      </trkpt>
      <trkpt lat="47.18935" lon="4.94164">
        <ele>323</ele>
        <time>2017-10-13T22:00:53Z</time>
      </trkpt>
      <trkpt lat="47.18944" lon="4.94159">
        <ele>326</ele>
        <time>2017-10-13T22:02:53Z</time>
      </trkpt>
      <trkpt lat="47.18959" lon="4.94144">
        <ele>330</ele>
        <time>2017-10-13T22:04:53Z</time>
      </trkpt>
      <trkpt lat="47.18972" lon="4.94122">
        <ele>332</ele>
        <time>2017-10-13T22:06:53Z</time>
      </trkpt>
      <trkpt lat="47.1898" lon="4.94095">
        <ele>331</ele>
        <time>2017-10-13T22:08:53Z</time>
      </trkpt>
      <trkpt lat="47.18983" lon="4.94067">
        <ele>332</ele>
        <time>2017-10-13T22:10:53Z</time>
      </trkpt>
      <trkpt lat="47.18986" lon="4.94054">
        <ele>332</ele>
        <time>2017-10-13T22:12:53Z</time>
      </trkpt>
      <trkpt lat="47.19" lon="4.94019">
        <ele>333</ele>
        <time>2017-10-13T22:14:53Z</time>
      </trkpt>
      <trkpt lat="47.18999" lon="4.94005">
        <ele>334</ele>
        <time>2017-10-13T22:16:53Z</time>
      </trkpt>
      <trkpt lat="47.19004" lon="4.93979">
        <ele>338</ele>
        <time>2017-10-13T22:18:53Z</time>
      </trkpt>
      <trkpt lat="47.19012" lon="4.93972">
        <ele>342</ele>
        <time>2017-10-13T22:20:53Z</time>
      </trkpt>
      <trkpt lat="47.19016" lon="4.93958">
        <ele>345</ele>
        <time>2017-10-13T22:22:53Z</time>
      </trkpt>
      <trkpt lat="47.19019" lon="4.93944">
        <ele>347</ele>
        <time>2017-10-13T22:24:53Z</time>
      </trkpt>
      <trkpt lat="47.19014" lon="4.93933">
        <ele>347</ele>
        <time>2017-10-13T22:26:53Z</time>
      </trkpt>
      <trkpt lat="47.1902" lon="4.93921">
        <ele>349</ele>
        <time>2017-10-13T22:28:53Z</time>
      </trkpt>
      <trkpt lat="47.19021" lon="4.93907">
        <ele>351</ele>
        <time>2017-10-13T22:30:53Z</time>
      </trkpt>
      <trkpt lat="47.1903" lon="4.93911">
        <ele>352</ele>
        <time>2017-10-13T22:32:53Z</time>
      </trkpt>
      <trkpt lat="47.19041" lon="4.93901">
        <ele>354</ele>
        <time>2017-10-13T22:34:53Z</time>
      </trkpt>
      <trkpt lat="47.19041" lon="4.93901">
        <ele>354</ele>
        <time>2017-10-13T22:36:53Z</time>
      </trkpt>
      <trkpt lat="47.19029" lon="4.93949">
        <ele>349</ele>
        <time>2017-10-13T22:38:53Z</time>
      </trkpt>
      <trkpt lat="47.19019" lon="4.93973">
        <ele>344</ele>
        <time>2017-10-13T22:40:53Z</time>
      </trkpt>
      <trkpt lat="47.19014" lon="4.93985">
        <ele>341</ele>
        <time>2017-10-13T22:42:53Z</time>
      </trkpt>
      <trkpt lat="47.19007" lon="4.93997">
        <ele>337</ele>
        <time>2017-10-13T22:44:53Z</time>
      </trkpt>
      <trkpt lat="47.19003" lon="4.9401">
        <ele>335</ele>
        <time>2017-10-13T22:46:53Z</time>
      </trkpt>
      <trkpt lat="47.19" lon="4.94031">
        <ele>333</ele>
        <time>2017-10-13T22:48:53Z</time>
      </trkpt>
      <trkpt lat="47.18993" lon="4.94087">
        <ele>331</ele>
        <time>2017-10-13T22:50:53Z</time>
      </trkpt>
      <trkpt lat="47.1899" lon="4.94108">
        <ele>333</ele>
        <time>2017-10-13T22:52:53Z</time>
      </trkpt>
      <trkpt lat="47.18982" lon="4.94118">
        <ele>333</ele>
        <time>2017-10-13T22:54:53Z</time>
      </trkpt>
      <trkpt lat="47.18954" lon="4.94153">
        <ele>328</ele>
        <time>2017-10-13T22:56:53Z</time>
      </trkpt>
      <trkpt lat="47.18907" lon="4.94203">
        <ele>323</ele>
        <time>2017-10-13T22:58:53Z</time>
      </trkpt>
      <trkpt lat="47.18906" lon="4.94196">
        <ele>322</ele>
        <time>2017-10-13T23:00:53Z</time>
      </trkpt>
      <trkpt lat="47.1889" lon="4.94202">
        <ele>322</ele>
        <time>2017-10-13T23:02:53Z</time>
      </trkpt>
      <trkpt lat="47.18886" lon="4.94186">
        <ele>320</ele>
        <time>2017-10-13T23:04:53Z</time>
      </trkpt>
      <trkpt lat="47.18882" lon="4.94179">
        <ele>320</ele>
        <time>2017-10-13T23:06:53Z</time>
      </trkpt>
      <trkpt lat="47.1888" lon="4.94165">
        <ele>319</ele>
        <time>2017-10-13T23:08:53Z</time>
      </trkpt>
      <trkpt lat="47.18872" lon="4.94157">
        <ele>320</ele>
        <time>2017-10-13T23:10:53Z</time>
      </trkpt>
      <trkpt lat="47.18872" lon="4.94143">
        <ele>322</ele>
        <time>2017-10-13T23:12:53Z</time>
      </trkpt>
      <trkpt lat="47.18874" lon="4.9413">
        <ele>323</ele>
        <time>2017-10-13T23:14:53Z</time>
      </trkpt>
      <trkpt lat="47.18872" lon="4.94116">
        <ele>325</ele>
        <time>2017-10-13T23:16:53Z</time>
      </trkpt>
      <trkpt lat="47.1887" lon="4.94103">
        <ele>327</ele>
        <time>2017-10-13T23:18:53Z</time>
      </trkpt>
      <trkpt lat="47.18872" lon="4.94089">
        <ele>328</ele>
        <time>2017-10-13T23:20:53Z</time>
      </trkpt>
      <trkpt lat="47.18859" lon="4.9407">
        <ele>331</ele>
        <time>2017-10-13T23:22:53Z</time>
      </trkpt>
      <trkpt lat="47.1886" lon="4.94055">
        <ele>333</ele>
        <time>2017-10-13T23:24:53Z</time>
      </trkpt>
      <trkpt lat="47.18856" lon="4.9404">
        <ele>334</ele>
        <time>2017-10-13T23:26:53Z</time>
      </trkpt>
      <trkpt lat="47.18851" lon="4.94011">
        <ele>336</ele>
        <time>2017-10-13T23:28:53Z</time>
      </trkpt>
      <trkpt lat="47.18846" lon="4.94001">
        <ele>337</ele>
        <time>2017-10-13T23:30:53Z</time>
      </trkpt>
      <trkpt lat="47.18844" lon="4.93988">
        <ele>339</ele>
        <time>2017-10-13T23:32:53Z</time>
      </trkpt>
      <trkpt lat="47.18843" lon="4.93961">
        <ele>343</ele>
        <time>2017-10-13T23:34:53Z</time>
      </trkpt>
      <trkpt lat="47.18846" lon="4.93948">
        <ele>346</ele>
        <time>2017-10-13T23:36:53Z</time>
      </trkpt>
      <trkpt lat="47.18844" lon="4.93934">
        <ele>348</ele>
        <time>2017-10-13T23:38:53Z</time>
      </trkpt>
      <trkpt lat="47.18858" lon="4.93916">
        <ele>353</ele>
        <time>2017-10-13T23:40:53Z</time>
      </trkpt>
      <trkpt lat="47.18861" lon="4.93903">
        <ele>355</ele>
        <time>2017-10-13T23:42:53Z</time>
      </trkpt>
      <trkpt lat="47.18865" lon="4.9389">
        <ele>358</ele>
        <time>2017-10-13T23:44:53Z</time>
      </trkpt>
      <trkpt lat="47.18862" lon="4.93878">
        <ele>360</ele>
        <time>2017-10-13T23:46:53Z</time>
      </trkpt>
      <trkpt lat="47.1887" lon="4.93868">
        <ele>362</ele>
        <time>2017-10-13T23:48:53Z</time>
      </trkpt>
      <trkpt lat="47.18874" lon="4.93857">
        <ele>364</ele>
        <time>2017-10-13T23:50:53Z</time>
      </trkpt>
      <trkpt lat="47.18874" lon="4.93841">
        <ele>367</ele>
        <time>2017-10-13T23:52:53Z</time>
      </trkpt>
      <trkpt lat="47.1887" lon="4.93828">
        <ele>369</ele>
        <time>2017-10-13T23:54:53Z</time>
      </trkpt>
      <trkpt lat="47.18868" lon="4.93801">
        <ele>372</ele>
        <time>2017-10-13T23:56:53Z</time>
      </trkpt>
      <trkpt lat="47.1886" lon="4.93773">
        <ele>375</ele>
        <time>2017-10-13T23:58:53Z</time>
      </trkpt>
      <trkpt lat="47.18866" lon="4.93762">
        <ele>377</ele>
        <time>2017-10-14T00:00:53Z</time>
      </trkpt>
      <trkpt lat="47.18861" lon="4.93748">
        <ele>378</ele>
        <time>2017-10-14T00:02:53Z</time>
      </trkpt>
      <trkpt lat="47.18861" lon="4.93735">
        <ele>379</ele>
        <time>2017-10-14T00:04:53Z</time>
      </trkpt>
      <trkpt lat="47.18862" lon="4.93721">
        <ele>380</ele>
        <time>2017-10-14T00:06:53Z</time>
      </trkpt>
      <trkpt lat="47.1886" lon="4.93708">
        <ele>381</ele>
        <time>2017-10-14T00:08:53Z</time>
      </trkpt>
      <trkpt lat="47.1887" lon="4.93705">
        <ele>381</ele>
        <time>2017-10-14T00:10:53Z</time>
      </trkpt>
      <trkpt lat="47.18873" lon="4.93689">
        <ele>381</ele>
        <time>2017-10-14T00:12:53Z</time>
      </trkpt>
      <trkpt lat="47.18875" lon="4.93674">
        <ele>382</ele>
        <time>2017-10-14T00:14:53Z</time>
      </trkpt>
      <trkpt lat="47.1888" lon="4.93663">
        <ele>382</ele>
        <time>2017-10-14T00:16:53Z</time>
      </trkpt>
      <trkpt lat="47.18888" lon="4.93656">
        <ele>382</ele>
        <time>2017-10-14T00:18:53Z</time>
      </trkpt>
      <trkpt lat="47.1889" lon="4.93642">
        <ele>383</ele>
        <time>2017-10-14T00:20:53Z</time>
      </trkpt>
      <trkpt lat="47.18897" lon="4.93632">
        <ele>382</ele>
        <time>2017-10-14T00:22:53Z</time>
      </trkpt>
      <trkpt lat="47.18902" lon="4.93619">
        <ele>382</ele>
        <time>2017-10-14T00:24:53Z</time>
      </trkpt>
      <trkpt lat="47.18907" lon="4.93592">
        <ele>383</ele>
        <time>2017-10-14T00:26:53Z</time>
      </trkpt>
      <trkpt lat="47.18912" lon="4.93581">
        <ele>382</ele>
        <time>2017-10-14T00:28:53Z</time>
      </trkpt>
      <trkpt lat="47.18921" lon="4.93575">
        <ele>382</ele>
        <time>2017-10-14T00:30:53Z</time>
      </trkpt>
      <trkpt lat="47.18924" lon="4.93563">
        <ele>384</ele>
        <time>2017-10-14T00:32:53Z</time>
      </trkpt>
      <trkpt lat="47.18932" lon="4.93555">
        <ele>385</ele>
        <time>2017-10-14T00:34:53Z</time>
      </trkpt>
      <trkpt lat="47.18945" lon="4.93537">
        <ele>387</ele>
        <time>2017-10-14T00:36:53Z</time>
      </trkpt>
      <trkpt lat="47.18954" lon="4.93534">
        <ele>387</ele>
        <time>2017-10-14T00:38:53Z</time>
      </trkpt>
      <trkpt lat="47.18981" lon="4.93517">
        <ele>387</ele>
        <time>2017-10-14T00:40:53Z</time>
      </trkpt>
      <trkpt lat="47.18987" lon="4.93507">
        <ele>386</ele>
        <time>2017-10-14T00:42:53Z</time>
      </trkpt>
      <trkpt lat="47.18991" lon="4.93493">
        <ele>386</ele>
        <time>2017-10-14T00:44:53Z</time>
      </trkpt>
      <trkpt lat="47.18998" lon="4.93484">
        <ele>386</ele>
        <time>2017-10-14T00:46:53Z</time>
      </trkpt>
      <trkpt lat="47.19012" lon="4.93459">
        <ele>387</ele>
        <time>2017-10-14T00:48:53Z</time>
      </trkpt>
      <trkpt lat="47.19029" lon="4.93409">
        <ele>390</ele>
        <time>2017-10-14T00:50:53Z</time>
      </trkpt>
      <trkpt lat="47.19032" lon="4.93396">
        <ele>391</ele>
        <time>2017-10-14T00:52:53Z</time>
      </trkpt>
      <trkpt lat="47.19048" lon="4.9336">
        <ele>393</ele>
        <time>2017-10-14T00:54:53Z</time>
      </trkpt>
      <trkpt lat="47.19048" lon="4.93346">
        <ele>394</ele>
        <time>2017-10-14T00:56:53Z</time>
      </trkpt>
      <trkpt lat="47.19051" lon="4.93333">
        <ele>395</ele>
        <time>2017-10-14T00:58:53Z</time>
      </trkpt>
      <trkpt lat="47.19056" lon="4.93321">
        <ele>395</ele>
        <time>2017-10-14T01:00:53Z</time>
      </trkpt>
      <trkpt lat="47.19061" lon="4.9331">
        <ele>395</ele>
        <time>2017-10-14T01:02:53Z</time>
      </trkpt>
      <trkpt lat="47.19063" lon="4.93297">
        <ele>396</ele>
        <time>2017-10-14T01:04:53Z</time>
      </trkpt>
      <trkpt lat="47.19067" lon="4.93284">
        <ele>396</ele>
        <time>2017-10-14T01:06:53Z</time>
      </trkpt>
      <trkpt lat="47.19068" lon="4.93271">
        <ele>397</ele>
        <time>2017-10-14T01:08:53Z</time>
      </trkpt>
      <trkpt lat="47.19066" lon="4.93257">
        <ele>397</ele>
        <time>2017-10-14T01:10:53Z</time>
      </trkpt>
      <trkpt lat="47.19067" lon="4.93244">
        <ele>398</ele>
        <time>2017-10-14T01:12:53Z</time>
      </trkpt>
      <trkpt lat="47.19065" lon="4.9323">
        <ele>399</ele>
        <time>2017-10-14T01:14:53Z</time>
      </trkpt>
      <trkpt lat="47.19061" lon="4.93218">
        <ele>400</ele>
        <time>2017-10-14T01:16:53Z</time>
      </trkpt>
      <trkpt lat="47.19053" lon="4.93211">
        <ele>400</ele>
        <time>2017-10-14T01:18:53Z</time>
      </trkpt>
      <trkpt lat="47.19048" lon="4.93185">
        <ele>402</ele>
        <time>2017-10-14T01:20:53Z</time>
      </trkpt>
      <trkpt lat="47.19051" lon="4.93158">
        <ele>403</ele>
        <time>2017-10-14T01:22:53Z</time>
      </trkpt>
      <trkpt lat="47.19051" lon="4.93143">
        <ele>404</ele>
        <time>2017-10-14T01:24:53Z</time>
      </trkpt>
      <trkpt lat="47.19046" lon="4.93131">
        <ele>404</ele>
        <time>2017-10-14T01:26:53Z</time>
      </trkpt>
      <trkpt lat="47.19037" lon="4.93125">
        <ele>404</ele>
        <time>2017-10-14T01:28:53Z</time>
      </trkpt>
      <trkpt lat="47.19026" lon="4.931">
        <ele>404</ele>
        <time>2017-10-14T01:30:53Z</time>
      </trkpt>
      <trkpt lat="47.19021" lon="4.93077">
        <ele>404</ele>
        <time>2017-10-14T01:32:53Z</time>
      </trkpt>
      <trkpt lat="47.19013" lon="4.93053">
        <ele>403</ele>
        <time>2017-10-14T01:34:53Z</time>
      </trkpt>
      <trkpt lat="47.19011" lon="4.9304">
        <ele>403</ele>
        <time>2017-10-14T01:36:53Z</time>
      </trkpt>
      <trkpt lat="47.19011" lon="4.93026">
        <ele>404</ele>
        <time>2017-10-14T01:38:53Z</time>
      </trkpt>
      <trkpt lat="47.19004" lon="4.93009">
        <ele>403</ele>
        <time>2017-10-14T01:40:53Z</time>
      </trkpt>
      <trkpt lat="47.19" lon="4.92996">
        <ele>403</ele>
        <time>2017-10-14T01:42:53Z</time>
      </trkpt>
      <trkpt lat="47.19005" lon="4.92983">
        <ele>404</ele>
        <time>2017-10-14T01:44:53Z</time>
      </trkpt>
      <trkpt lat="47.19" lon="4.92957">
        <ele>404</ele>
        <time>2017-10-14T01:46:53Z</time>
      </trkpt>
      <trkpt lat="47.19" lon="4.92943">
        <ele>404</ele>
        <time>2017-10-14T01:48:53Z</time>
      </trkpt>
      <trkpt lat="47.18996" lon="4.9293">
        <ele>405</ele>
        <time>2017-10-14T01:50:53Z</time>
      </trkpt>
      <trkpt lat="47.18996" lon="4.92917">
        <ele>405</ele>
        <time>2017-10-14T01:52:53Z</time>
      </trkpt>
      <trkpt lat="47.1899" lon="4.92906">
        <ele>406</ele>
        <time>2017-10-14T01:54:53Z</time>
      </trkpt>
      <trkpt lat="47.1899" lon="4.92891">
        <ele>406</ele>
        <time>2017-10-14T01:56:53Z</time>
      </trkpt>
      <trkpt lat="47.18989" lon="4.92877">
        <ele>407</ele>
        <time>2017-10-14T01:58:53Z</time>
      </trkpt>
      <trkpt lat="47.18992" lon="4.92864">
        <ele>406</ele>
        <time>2017-10-14T02:00:53Z</time>
      </trkpt>
      <trkpt lat="47.18991" lon="4.9285">
        <ele>407</ele>
        <time>2017-10-14T02:02:53Z</time>
      </trkpt>
      <trkpt lat="47.18982" lon="4.92844">
        <ele>408</ele>
        <time>2017-10-14T02:04:53Z</time>
      </trkpt>
      <trkpt lat="47.18973" lon="4.92843">
        <ele>409</ele>
        <time>2017-10-14T02:06:53Z</time>
      </trkpt>
      <trkpt lat="47.18964" lon="4.92841">
        <ele>409</ele>
        <time>2017-10-14T02:08:53Z</time>
      </trkpt>
      <trkpt lat="47.18957" lon="4.92831">
        <ele>410</ele>
        <time>2017-10-14T02:10:53Z</time>
      </trkpt>
      <trkpt lat="47.18952" lon="4.92819">
        <ele>411</ele>
        <time>2017-10-14T02:12:53Z</time>
      </trkpt>
      <trkpt lat="47.18952" lon="4.92806">
        <ele>412</ele>
        <time>2017-10-14T02:14:53Z</time>
      </trkpt>
      <trkpt lat="47.18949" lon="4.92793">
        <ele>413</ele>
        <time>2017-10-14T02:16:53Z</time>
      </trkpt>
      <trkpt lat="47.18952" lon="4.92779">
        <ele>413</ele>
        <time>2017-10-14T02:18:53Z</time>
      </trkpt>
      <trkpt lat="47.18949" lon="4.9275">
        <ele>414</ele>
        <time>2017-10-14T02:20:53Z</time>
      </trkpt>
      <trkpt lat="47.18944" lon="4.92738">
        <ele>415</ele>
        <time>2017-10-14T02:22:53Z</time>
      </trkpt>
      <trkpt lat="47.18947" lon="4.92725">
        <ele>416</ele>
        <time>2017-10-14T02:24:53Z</time>
      </trkpt>
      <trkpt lat="47.18937" lon="4.92702">
        <ele>417</ele>
        <time>2017-10-14T02:26:53Z</time>
      </trkpt>
      <trkpt lat="47.18942" lon="4.92645">
        <ele>419</ele>
        <time>2017-10-14T02:28:53Z</time>
      </trkpt>
      <trkpt lat="47.18947" lon="4.92631">
        <ele>420</ele>
        <time>2017-10-14T02:30:53Z</time>
      </trkpt>
      <trkpt lat="47.18947" lon="4.92618">
        <ele>420</ele>
        <time>2017-10-14T02:32:53Z</time>
      </trkpt>
      <trkpt lat="47.18946" lon="4.92603">
        <ele>421</ele>
        <time>2017-10-14T02:34:53Z</time>
      </trkpt>
      <trkpt lat="47.18951" lon="4.92577">
        <ele>422</ele>
        <time>2017-10-14T02:36:53Z</time>
      </trkpt>
      <trkpt lat="47.18952" lon="4.92562">
        <ele>423</ele>
        <time>2017-10-14T02:38:53Z</time>
      </trkpt>
      <trkpt lat="47.18951" lon="4.92548">
        <ele>423</ele>
        <time>2017-10-14T02:40:53Z</time>
      </trkpt>
      <trkpt lat="47.18953" lon="4.92534">
        <ele>423</ele>
        <time>2017-10-14T02:42:53Z</time>
      </trkpt>
      <trkpt lat="47.18958" lon="4.92478">
        <ele>425</ele>
        <time>2017-10-14T02:44:53Z</time>
      </trkpt>
      <trkpt lat="47.1896" lon="4.92464">
        <ele>426</ele>
        <time>2017-10-14T02:46:53Z</time>
      </trkpt>
      <trkpt lat="47.18956" lon="4.92422">
        <ele>427</ele>
        <time>2017-10-14T02:48:53Z</time>
      </trkpt>
      <trkpt lat="47.18957" lon="4.92391">
        <ele>427</ele>
        <time>2017-10-14T02:50:53Z</time>
      </trkpt>
      <trkpt lat="47.18955" lon="4.92377">
        <ele>427</ele>
        <time>2017-10-14T02:52:53Z</time>
      </trkpt>
      <trkpt lat="47.18958" lon="4.9232">
        <ele>428</ele>
        <time>2017-10-14T02:54:53Z</time>
      </trkpt>
      <trkpt lat="47.18964" lon="4.92309">
        <ele>428</ele>
        <time>2017-10-14T02:56:53Z</time>
      </trkpt>
      <trkpt lat="47.18968" lon="4.92297">
        <ele>428</ele>
        <time>2017-10-14T02:58:53Z</time>
      </trkpt>
      <trkpt lat="47.18973" lon="4.92283">
        <ele>428</ele>
        <time>2017-10-14T03:00:53Z</time>
      </trkpt>
      <trkpt lat="47.18975" lon="4.92255">
        <ele>428</ele>
        <time>2017-10-14T03:02:53Z</time>
      </trkpt>
      <trkpt lat="47.1898" lon="4.92226">
        <ele>428</ele>
        <time>2017-10-14T03:04:53Z</time>
      </trkpt>
      <trkpt lat="47.18979" lon="4.92205">
        <ele>428</ele>
        <time>2017-10-14T03:06:53Z</time>
      </trkpt>
      <trkpt lat="47.18967" lon="4.92181">
        <ele>428</ele>
        <time>2017-10-14T03:08:53Z</time>
      </trkpt>
      <trkpt lat="47.18966" lon="4.92168">
        <ele>428</ele>
        <time>2017-10-14T03:10:53Z</time>
      </trkpt>
      <trkpt lat="47.18956" lon="4.92146">
        <ele>427</ele>
        <time>2017-10-14T03:12:53Z</time>
      </trkpt>
      <trkpt lat="47.18968" lon="4.92137">
        <ele>427</ele>
        <time>2017-10-14T03:14:53Z</time>
      </trkpt>
      <trkpt lat="47.18986" lon="4.92128">
        <ele>427</ele>
        <time>2017-10-14T03:16:53Z</time>
      </trkpt>
      <trkpt lat="47.1898" lon="4.92123">
        <ele>427</ele>
        <time>2017-10-14T03:18:53Z</time>
      </trkpt>
      <trkpt lat="47.18954" lon="4.92139">
        <ele>427</ele>
        <time>2017-10-14T03:20:53Z</time>
      </trkpt>
      <trkpt lat="47.18945" lon="4.92141">
        <ele>426</ele>
        <time>2017-10-14T03:22:53Z</time>
      </trkpt>
      <trkpt lat="47.18935" lon="4.92144">
        <ele>426</ele>
        <time>2017-10-14T03:24:53Z</time>
      </trkpt>
      <trkpt lat="47.1891" lon="4.92165">
        <ele>426</ele>
        <time>2017-10-14T03:26:53Z</time>
      </trkpt>
      <trkpt lat="47.18896" lon="4.9217">
        <ele>426</ele>
        <time>2017-10-14T03:28:53Z</time>
      </trkpt>
      <trkpt lat="47.18889" lon="4.92181">
        <ele>426</ele>
        <time>2017-10-14T03:30:53Z</time>
      </trkpt>
      <trkpt lat="47.1888" lon="4.92188">
        <ele>425</ele>
        <time>2017-10-14T03:32:53Z</time>
      </trkpt>
      <trkpt lat="47.18866" lon="4.92206">
        <ele>425</ele>
        <time>2017-10-14T03:34:53Z</time>
      </trkpt>
      <trkpt lat="47.18847" lon="4.92238">
        <ele>425</ele>
        <time>2017-10-14T03:36:53Z</time>
      </trkpt>
      <trkpt lat="47.18841" lon="4.92249">
        <ele>425</ele>
        <time>2017-10-14T03:38:53Z</time>
      </trkpt>
      <trkpt lat="47.18832" lon="4.92257">
        <ele>425</ele>
        <time>2017-10-14T03:40:53Z</time>
      </trkpt>
      <trkpt lat="47.18822" lon="4.92279">
        <ele>426</ele>
        <time>2017-10-14T03:42:53Z</time>
      </trkpt>
      <trkpt lat="47.18816" lon="4.9229">
        <ele>426</ele>
        <time>2017-10-14T03:44:53Z</time>
      </trkpt>
      <trkpt lat="47.18808" lon="4.92296">
        <ele>426</ele>
        <time>2017-10-14T03:46:53Z</time>
      </trkpt>
      <trkpt lat="47.188" lon="4.92306">
        <ele>426</ele>
        <time>2017-10-14T03:48:53Z</time>
      </trkpt>
      <trkpt lat="47.18793" lon="4.92314">
        <ele>426</ele>
        <time>2017-10-14T03:50:53Z</time>
      </trkpt>
      <trkpt lat="47.18787" lon="4.92325">
        <ele>426</ele>
        <time>2017-10-14T03:52:53Z</time>
      </trkpt>
      <trkpt lat="47.18782" lon="4.92337">
        <ele>426</ele>
        <time>2017-10-14T03:54:53Z</time>
      </trkpt>
      <trkpt lat="47.18765" lon="4.92351">
        <ele>426</ele>
        <time>2017-10-14T03:56:53Z</time>
      </trkpt>
      <trkpt lat="47.18759" lon="4.92361">
        <ele>426</ele>
        <time>2017-10-14T03:58:53Z</time>
      </trkpt>
      <trkpt lat="47.18744" lon="4.92377">
        <ele>426</ele>
        <time>2017-10-14T04:00:53Z</time>
      </trkpt>
      <trkpt lat="47.18728" lon="4.92394">
        <ele>426</ele>
        <time>2017-10-14T04:02:53Z</time>
      </trkpt>
      <trkpt lat="47.18698" lon="4.92428">
        <ele>426</ele>
        <time>2017-10-14T04:04:53Z</time>
      </trkpt>
      <trkpt lat="47.18672" lon="4.92445">
        <ele>426</ele>
        <time>2017-10-14T04:06:53Z</time>
      </trkpt>
      <trkpt lat="47.18665" lon="4.92453">
        <ele>426</ele>
        <time>2017-10-14T04:08:53Z</time>
      </trkpt>
      <trkpt lat="47.18646" lon="4.92463">
        <ele>425</ele>
        <time>2017-10-14T04:10:53Z</time>
      </trkpt>
      <trkpt lat="47.18636" lon="4.92465">
        <ele>424</ele>
        <time>2017-10-14T04:12:53Z</time>
      </trkpt>
      <trkpt lat="47.18626" lon="4.92465">
        <ele>424</ele>
        <time>2017-10-14T04:14:53Z</time>
      </trkpt>
      <trkpt lat="47.18579" lon="4.92476">
        <ele>421</ele>
        <time>2017-10-14T04:16:53Z</time>
      </trkpt>
      <trkpt lat="47.18561" lon="4.92484">
        <ele>421</ele>
        <time>2017-10-14T04:18:53Z</time>
      </trkpt>
      <trkpt lat="47.18542" lon="4.92489">
        <ele>420</ele>
        <time>2017-10-14T04:20:53Z</time>
      </trkpt>
      <trkpt lat="47.18533" lon="4.92494">
        <ele>420</ele>
        <time>2017-10-14T04:22:53Z</time>
      </trkpt>
      <trkpt lat="47.18528" lon="4.92494">
        <ele>419</ele>
        <time>2017-10-14T04:24:53Z</time>
      </trkpt>
      <trkpt lat="47.18524" lon="4.92496">
        <ele>419</ele>
        <time>2017-10-14T04:26:53Z</time>
      </trkpt>
      <trkpt lat="47.18519" lon="4.92496">
        <ele>419</ele>
        <time>2017-10-14T04:28:53Z</time>
      </trkpt>
      <trkpt lat="47.18514" lon="4.92497">
        <ele>419</ele>
        <time>2017-10-14T04:30:53Z</time>
      </trkpt>
      <trkpt lat="47.185" lon="4.92506">
        <ele>418</ele>
        <time>2017-10-14T04:32:53Z</time>
      </trkpt>
      <trkpt lat="47.18486" lon="4.92512">
        <ele>418</ele>
        <time>2017-10-14T04:34:53Z</time>
      </trkpt>
      <trkpt lat="47.18481" lon="4.92514">
        <ele>417</ele>
        <time>2017-10-14T04:36:53Z</time>
      </trkpt>
      <trkpt lat="47.18461" lon="4.92519">
        <ele>417</ele>
        <time>2017-10-14T04:38:53Z</time>
      </trkpt>
      <trkpt lat="47.18452" lon="4.92519">
        <ele>416</ele>
        <time>2017-10-14T04:40:53Z</time>
      </trkpt>
      <trkpt lat="47.18447" lon="4.92517">
        <ele>416</ele>
        <time>2017-10-14T04:42:53Z</time>
      </trkpt>
      <trkpt lat="47.18419" lon="4.92514">
        <ele>415</ele>
        <time>2017-10-14T04:44:53Z</time>
      </trkpt>
      <trkpt lat="47.18391" lon="4.92521">
        <ele>414</ele>
        <time>2017-10-14T04:46:53Z</time>
      </trkpt>
      <trkpt lat="47.18364" lon="4.92534">
        <ele>413</ele>
        <time>2017-10-14T04:48:53Z</time>
      </trkpt>
      <trkpt lat="47.18349" lon="4.92537">
        <ele>413</ele>
        <time>2017-10-14T04:50:53Z</time>
      </trkpt>
      <trkpt lat="47.18344" lon="4.92539">
        <ele>412</ele>
        <time>2017-10-14T04:52:53Z</time>
      </trkpt>
      <trkpt lat="47.18334" lon="4.92545">
        <ele>412</ele>
        <time>2017-10-14T04:54:53Z</time>
      </trkpt>
      <trkpt lat="47.18325" lon="4.92551">
        <ele>412</ele>
        <time>2017-10-14T04:56:53Z</time>
      </trkpt>
      <trkpt lat="47.18319" lon="4.92553">
        <ele>412</ele>
        <time>2017-10-14T04:58:53Z</time>
      </trkpt>
      <trkpt lat="47.1831" lon="4.9256">
        <ele>412</ele>
        <time>2017-10-14T05:00:53Z</time>
      </trkpt>
      <trkpt lat="47.18305" lon="4.92562">
        <ele>412</ele>
        <time>2017-10-14T05:02:53Z</time>
      </trkpt>
      <trkpt lat="47.18299" lon="4.92563">
        <ele>411</ele>
        <time>2017-10-14T05:04:53Z</time>
      </trkpt>
      <trkpt lat="47.18263" lon="4.92558">
        <ele>410</ele>
        <time>2017-10-14T05:06:53Z</time>
      </trkpt>
      <trkpt lat="47.18252" lon="4.92559">
        <ele>410</ele>
        <time>2017-10-14T05:08:53Z</time>
      </trkpt>
      <trkpt lat="47.18233" lon="4.92564">
        <ele>409</ele>
        <time>2017-10-14T05:10:53Z</time>
      </trkpt>
      <trkpt lat="47.18223" lon="4.92564">
        <ele>408</ele>
        <time>2017-10-14T05:12:53Z</time>
      </trkpt>
      <trkpt lat="47.18214" lon="4.92564">
        <ele>408</ele>
        <time>2017-10-14T05:14:53Z</time>
      </trkpt>
      <trkpt lat="47.18186" lon="4.92555">
        <ele>407</ele>
        <time>2017-10-14T05:16:53Z</time>
      </trkpt>
      <trkpt lat="47.18167" lon="4.92551">
        <ele>406</ele>
        <time>2017-10-14T05:18:53Z</time>
      </trkpt>
      <trkpt lat="47.18129" lon="4.92561">
        <ele>405</ele>
        <time>2017-10-14T05:20:53Z</time>
      </trkpt>
      <trkpt lat="47.18119" lon="4.92561">
        <ele>405</ele>
        <time>2017-10-14T05:22:53Z</time>
      </trkpt>
      <trkpt lat="47.18109" lon="4.92559">
        <ele>405</ele>
        <time>2017-10-14T05:24:53Z</time>
      </trkpt>
      <trkpt lat="47.18104" lon="4.92544">
        <ele>404</ele>
        <time>2017-10-14T05:26:53Z</time>
      </trkpt>
      <trkpt lat="47.18102" lon="4.9253">
        <ele>404</ele>
        <time>2017-10-14T05:28:53Z</time>
      </trkpt>
      <trkpt lat="47.18095" lon="4.92511">
        <ele>404</ele>
        <time>2017-10-14T05:30:53Z</time>
      </trkpt>
      <trkpt lat="47.18091" lon="4.92497">
        <ele>404</ele>
        <time>2017-10-14T05:32:53Z</time>
      </trkpt>
      <trkpt lat="47.18089" lon="4.92489">
        <ele>404</ele>
        <time>2017-10-14T05:34:53Z</time>
      </trkpt>
      <trkpt lat="47.1808" lon="4.92464">
        <ele>405</ele>
        <time>2017-10-14T05:36:53Z</time>
      </trkpt>
      <trkpt lat="47.18077" lon="4.92449">
        <ele>405</ele>
        <time>2017-10-14T05:38:53Z</time>
      </trkpt>
      <trkpt lat="47.18075" lon="4.92443">
        <ele>405</ele>
        <time>2017-10-14T05:40:53Z</time>
      </trkpt>
      <trkpt lat="47.18073" lon="4.92436">
        <ele>405</ele>
        <time>2017-10-14T05:42:53Z</time>
      </trkpt>
      <trkpt lat="47.18067" lon="4.92415">
        <ele>405</ele>
        <time>2017-10-14T05:44:53Z</time>
      </trkpt>
      <trkpt lat="47.18066" lon="4.92407">
        <ele>405</ele>
        <time>2017-10-14T05:46:53Z</time>
      </trkpt>
      <trkpt lat="47.18065" lon="4.924">
        <ele>405</ele>
        <time>2017-10-14T05:48:53Z</time>
      </trkpt>
      <trkpt lat="47.18064" lon="4.92372">
        <ele>405</ele>
        <time>2017-10-14T05:50:53Z</time>
      </trkpt>
      <trkpt lat="47.18064" lon="4.92364">
        <ele>405</ele>
        <time>2017-10-14T05:52:53Z</time>
      </trkpt>
      <trkpt lat="47.18064" lon="4.92343">
        <ele>405</ele>
        <time>2017-10-14T05:54:53Z</time>
      </trkpt>
      <trkpt lat="47.18065" lon="4.92336">
        <ele>405</ele>
        <time>2017-10-14T05:56:53Z</time>
      </trkpt>
      <trkpt lat="47.18065" lon="4.92328">
        <ele>405</ele>
        <time>2017-10-14T05:58:53Z</time>
      </trkpt>
      <trkpt lat="47.18068" lon="4.92285">
        <ele>406</ele>
        <time>2017-10-14T06:00:53Z</time>
      </trkpt>
      <trkpt lat="47.18071" lon="4.92265">
        <ele>406</ele>
        <time>2017-10-14T06:02:53Z</time>
      </trkpt>
      <trkpt lat="47.18071" lon="4.92258">
        <ele>406</ele>
        <time>2017-10-14T06:04:53Z</time>
      </trkpt>
      <trkpt lat="47.18073" lon="4.92237">
        <ele>407</ele>
        <time>2017-10-14T06:06:53Z</time>
      </trkpt>
      <trkpt lat="47.18071" lon="4.92227">
        <ele>407</ele>
        <time>2017-10-14T06:08:53Z</time>
      </trkpt>
      <trkpt lat="47.18073" lon="4.9222">
        <ele>407</ele>
        <time>2017-10-14T06:10:53Z</time>
      </trkpt>
      <trkpt lat="47.18074" lon="4.92212">
        <ele>407</ele>
        <time>2017-10-14T06:12:53Z</time>
      </trkpt>
      <trkpt lat="47.18075" lon="4.92197">
        <ele>407</ele>
        <time>2017-10-14T06:14:53Z</time>
      </trkpt>
      <trkpt lat="47.18076" lon="4.9219">
        <ele>408</ele>
        <time>2017-10-14T06:16:53Z</time>
      </trkpt>
      <trkpt lat="47.18075" lon="4.92183">
        <ele>408</ele>
        <time>2017-10-14T06:18:53Z</time>
      </trkpt>
      <trkpt lat="47.18077" lon="4.92169">
        <ele>408</ele>
        <time>2017-10-14T06:20:53Z</time>
      </trkpt>
      <trkpt lat="47.18081" lon="4.92148">
        <ele>408</ele>
        <time>2017-10-14T06:22:53Z</time>
      </trkpt>
      <trkpt lat="47.1808" lon="4.92134">
        <ele>409</ele>
        <time>2017-10-14T06:24:53Z</time>
      </trkpt>
      <trkpt lat="47.18083" lon="4.92119">
        <ele>409</ele>
        <time>2017-10-14T06:26:53Z</time>
      </trkpt>
      <trkpt lat="47.18088" lon="4.92099">
        <ele>410</ele>
        <time>2017-10-14T06:28:53Z</time>
      </trkpt>
      <trkpt lat="47.1809" lon="4.92091">
        <ele>410</ele>
        <time>2017-10-14T06:30:53Z</time>
      </trkpt>
      <trkpt lat="47.18093" lon="4.92086">
        <ele>410</ele>
        <time>2017-10-14T06:32:53Z</time>
      </trkpt>
      <trkpt lat="47.18103" lon="4.9206">
        <ele>412</ele>
        <time>2017-10-14T06:34:53Z</time>
      </trkpt>
      <trkpt lat="47.18106" lon="4.92045">
        <ele>413</ele>
        <time>2017-10-14T06:36:53Z</time>
      </trkpt>
      <trkpt lat="47.18112" lon="4.92026">
        <ele>414</ele>
        <time>2017-10-14T06:38:53Z</time>
      </trkpt>
      <trkpt lat="47.18117" lon="4.92014">
        <ele>415</ele>
        <time>2017-10-14T06:40:53Z</time>
      </trkpt>
      <trkpt lat="47.18121" lon="4.9201">
        <ele>415</ele>
        <time>2017-10-14T06:42:53Z</time>
      </trkpt>
      <trkpt lat="47.18122" lon="4.92003">
        <ele>415</ele>
        <time>2017-10-14T06:44:53Z</time>
      </trkpt>
      <trkpt lat="47.18122" lon="4.91994">
        <ele>416</ele>
        <time>2017-10-14T06:46:53Z</time>
      </trkpt>
      <trkpt lat="47.18122" lon="4.91986">
        <ele>417</ele>
        <time>2017-10-14T06:48:53Z</time>
      </trkpt>
      <trkpt lat="47.18123" lon="4.91979">
        <ele>418</ele>
        <time>2017-10-14T06:50:53Z</time>
      </trkpt>
      <trkpt lat="47.18119" lon="4.91976">
        <ele>419</ele>
        <time>2017-10-14T06:52:53Z</time>
      </trkpt>
      <trkpt lat="47.18121" lon="4.91981">
        <ele>418</ele>
        <time>2017-10-14T06:54:53Z</time>
      </trkpt>
      <trkpt lat="47.18117" lon="4.92002">
        <ele>415</ele>
        <time>2017-10-14T06:56:53Z</time>
      </trkpt>
      <trkpt lat="47.18116" lon="4.92009">
        <ele>415</ele>
        <time>2017-10-14T06:58:53Z</time>
      </trkpt>
      <trkpt lat="47.18116" lon="4.92015">
        <ele>415</ele>
        <time>2017-10-14T07:00:53Z</time>
      </trkpt>
      <trkpt lat="47.18111" lon="4.92018">
        <ele>414</ele>
        <time>2017-10-14T07:02:53Z</time>
      </trkpt>
      <trkpt lat="47.18107" lon="4.92015">
        <ele>414</ele>
        <time>2017-10-14T07:04:53Z</time>
      </trkpt>
      <trkpt lat="47.18133" lon="4.91995">
        <ele>416</ele>
        <time>2017-10-14T07:06:53Z</time>
      </trkpt>
      <trkpt lat="47.18133" lon="4.91982">
        <ele>418</ele>
        <time>2017-10-14T07:08:53Z</time>
      </trkpt>
      <trkpt lat="47.18124" lon="4.9198">
        <ele>418</ele>
        <time>2017-10-14T07:10:53Z</time>
      </trkpt>
      <trkpt lat="47.18126" lon="4.91951">
        <ele>422</ele>
        <time>2017-10-14T07:12:53Z</time>
      </trkpt>
      <trkpt lat="47.18128" lon="4.91938">
        <ele>424</ele>
        <time>2017-10-14T07:14:53Z</time>
      </trkpt>
      <trkpt lat="47.18136" lon="4.91931">
        <ele>426</ele>
        <time>2017-10-14T07:16:53Z</time>
      </trkpt>
      <trkpt lat="47.18132" lon="4.91914">
        <ele>428</ele>
        <time>2017-10-14T07:18:53Z</time>
      </trkpt>
      <trkpt lat="47.18128" lon="4.91896">
        <ele>431</ele>
        <time>2017-10-14T07:20:53Z</time>
      </trkpt>
      <trkpt lat="47.18117" lon="4.91893">
        <ele>432</ele>
        <time>2017-10-14T07:22:53Z</time>
      </trkpt>
      <trkpt lat="47.18108" lon="4.91884">
        <ele>433</ele>
        <time>2017-10-14T07:24:53Z</time>
      </trkpt>
      <trkpt lat="47.181" lon="4.91878">
        <ele>434</ele>
        <time>2017-10-14T07:26:53Z</time>
      </trkpt>
      <trkpt lat="47.18091" lon="4.91879">
        <ele>433</ele>
        <time>2017-10-14T07:28:53Z</time>
      </trkpt>
      <trkpt lat="47.18081" lon="4.91876">
        <ele>433</ele>
        <time>2017-10-14T07:30:53Z</time>
      </trkpt>
      <trkpt lat="47.18073" lon="4.91868">
        <ele>436</ele>
        <time>2017-10-14T07:32:53Z</time>
      </trkpt>
      <trkpt lat="47.18064" lon="4.91873">
        <ele>435</ele>
        <time>2017-10-14T07:34:53Z</time>
      </trkpt>
      <trkpt lat="47.18054" lon="4.91875">
        <ele>436</ele>
        <time>2017-10-14T07:36:53Z</time>
      </trkpt>
      <trkpt lat="47.18045" lon="4.91873">
        <ele>437</ele>
        <time>2017-10-14T07:38:53Z</time>
      </trkpt>
      <trkpt lat="47.18032" lon="4.91877">
        <ele>437</ele>
        <time>2017-10-14T07:40:53Z</time>
      </trkpt>
      <trkpt lat="47.18003" lon="4.91885">
        <ele>437</ele>
        <time>2017-10-14T07:42:53Z</time>
      </trkpt>
      <trkpt lat="47.17994" lon="4.91882">
        <ele>439</ele>
        <time>2017-10-14T07:44:53Z</time>
      </trkpt>
      <trkpt lat="47.17985" lon="4.91876">
        <ele>441</ele>
        <time>2017-10-14T07:46:53Z</time>
      </trkpt>
      <trkpt lat="47.17977" lon="4.91885">
        <ele>440</ele>
        <time>2017-10-14T07:48:53Z</time>
      </trkpt>
      <trkpt lat="47.17967" lon="4.91887">
        <ele>440</ele>
        <time>2017-10-14T07:50:53Z</time>
      </trkpt>
      <trkpt lat="47.17958" lon="4.91882">
        <ele>442</ele>
        <time>2017-10-14T07:52:53Z</time>
      </trkpt>
      <trkpt lat="47.17948" lon="4.91883">
        <ele>443</ele>
        <time>2017-10-14T07:54:53Z</time>
      </trkpt>
      <trkpt lat="47.17939" lon="4.91888">
        <ele>443</ele>
        <time>2017-10-14T07:56:53Z</time>
      </trkpt>
      <trkpt lat="47.1793" lon="4.9189">
        <ele>443</ele>
        <time>2017-10-14T07:58:53Z</time>
      </trkpt>
      <trkpt lat="47.17933" lon="4.91906">
        <ele>440</ele>
        <time>2017-10-14T08:00:53Z</time>
      </trkpt>
      <trkpt lat="47.17914" lon="4.91899">
        <ele>443</ele>
        <time>2017-10-14T08:02:53Z</time>
      </trkpt>
      <trkpt lat="47.17905" lon="4.91902">
        <ele>443</ele>
        <time>2017-10-14T08:04:53Z</time>
      </trkpt>
      <trkpt lat="47.17886" lon="4.919">
        <ele>445</ele>
        <time>2017-10-14T08:06:53Z</time>
      </trkpt>
      <trkpt lat="47.17876" lon="4.91905">
        <ele>445</ele>
        <time>2017-10-14T08:08:53Z</time>
      </trkpt>
      <trkpt lat="47.17857" lon="4.91903">
        <ele>447</ele>
        <time>2017-10-14T08:10:53Z</time>
      </trkpt>
      <trkpt lat="47.17848" lon="4.91911">
        <ele>446</ele>
        <time>2017-10-14T08:12:53Z</time>
      </trkpt>
      <trkpt lat="47.17842" lon="4.91921">
        <ele>445</ele>
        <time>2017-10-14T08:14:53Z</time>
      </trkpt>
      <trkpt lat="47.17833" lon="4.9192">
        <ele>446</ele>
        <time>2017-10-14T08:16:53Z</time>
      </trkpt>
      <trkpt lat="47.17824" lon="4.91925">
        <ele>446</ele>
        <time>2017-10-14T08:18:53Z</time>
      </trkpt>
      <trkpt lat="47.17816" lon="4.91933">
        <ele>445</ele>
        <time>2017-10-14T08:20:53Z</time>
      </trkpt>
      <trkpt lat="47.17798" lon="4.91941">
        <ele>446</ele>
        <time>2017-10-14T08:22:53Z</time>
      </trkpt>
      <trkpt lat="47.17789" lon="4.91939">
        <ele>446</ele>
        <time>2017-10-14T08:24:53Z</time>
      </trkpt>
      <trkpt lat="47.1778" lon="4.91942">
        <ele>447</ele>
        <time>2017-10-14T08:26:53Z</time>
      </trkpt>
      <trkpt lat="47.17772" lon="4.91951">
        <ele>446</ele>
        <time>2017-10-14T08:28:53Z</time>
      </trkpt>
      <trkpt lat="47.17763" lon="4.91952">
        <ele>447</ele>
        <time>2017-10-14T08:30:53Z</time>
      </trkpt>
      <trkpt lat="47.17754" lon="4.91956">
        <ele>447</ele>
        <time>2017-10-14T08:32:53Z</time>
      </trkpt>
      <trkpt lat="47.1774" lon="4.91965">
        <ele>445</ele>
        <time>2017-10-14T08:34:53Z</time>
      </trkpt>
      <trkpt lat="47.1773" lon="4.91965">
        <ele>444</ele>
        <time>2017-10-14T08:36:53Z</time>
      </trkpt>
      <trkpt lat="47.17721" lon="4.91968">
        <ele>444</ele>
        <time>2017-10-14T08:38:53Z</time>
      </trkpt>
      <trkpt lat="47.17713" lon="4.91976">
        <ele>442</ele>
        <time>2017-10-14T08:40:53Z</time>
      </trkpt>
      <trkpt lat="47.17704" lon="4.91973">
        <ele>442</ele>
        <time>2017-10-14T08:42:53Z</time>
      </trkpt>
      <trkpt lat="47.1769" lon="4.91972">
        <ele>441</ele>
        <time>2017-10-14T08:44:53Z</time>
      </trkpt>
      <trkpt lat="47.17684" lon="4.91963">
        <ele>443</ele>
        <time>2017-10-14T08:46:53Z</time>
      </trkpt>
      <trkpt lat="47.17678" lon="4.91947">
        <ele>445</ele>
        <time>2017-10-14T08:48:53Z</time>
      </trkpt>
      <trkpt lat="47.17667" lon="4.91952">
        <ele>444</ele>
        <time>2017-10-14T08:50:53Z</time>
      </trkpt>
      <trkpt lat="47.17666" lon="4.91949">
        <ele>444</ele>
        <time>2017-10-14T08:52:53Z</time>
      </trkpt>
      <trkpt lat="47.17623" lon="4.9194">
        <ele>446</ele>
        <time>2017-10-14T08:54:53Z</time>
      </trkpt>
      <trkpt lat="47.17613" lon="4.91943">
        <ele>445</ele>
        <time>2017-10-14T08:56:53Z</time>
      </trkpt>
      <trkpt lat="47.17577" lon="4.91954">
        <ele>444</ele>
        <time>2017-10-14T08:58:53Z</time>
      </trkpt>
      <trkpt lat="47.17572" lon="4.91955">
        <ele>444</ele>
        <time>2017-10-14T09:00:53Z</time>
      </trkpt>
      <trkpt lat="47.17565" lon="4.91967">
        <ele>442</ele>
        <time>2017-10-14T09:02:53Z</time>
      </trkpt>
      <trkpt lat="47.17561" lon="4.91971">
        <ele>442</ele>
        <time>2017-10-14T09:04:53Z</time>
      </trkpt>
      <trkpt lat="47.17552" lon="4.91978">
        <ele>442</ele>
        <time>2017-10-14T09:06:53Z</time>
      </trkpt>
      <trkpt lat="47.17541" lon="4.91991">
        <ele>440</ele>
        <time>2017-10-14T09:08:53Z</time>
      </trkpt>
      <trkpt lat="47.17533" lon="4.91998">
        <ele>440</ele>
        <time>2017-10-14T09:10:53Z</time>
      </trkpt>
      <trkpt lat="47.17526" lon="4.92009">
        <ele>439</ele>
        <time>2017-10-14T09:12:53Z</time>
      </trkpt>
      <trkpt lat="47.17501" lon="4.92031">
        <ele>440</ele>
        <time>2017-10-14T09:14:53Z</time>
      </trkpt>
      <trkpt lat="47.17472" lon="4.92038">
        <ele>440</ele>
        <time>2017-10-14T09:16:53Z</time>
      </trkpt>
      <trkpt lat="47.17462" lon="4.9204">
        <ele>441</ele>
        <time>2017-10-14T09:18:53Z</time>
      </trkpt>
      <trkpt lat="47.17453" lon="4.92042">
        <ele>441</ele>
        <time>2017-10-14T09:20:53Z</time>
      </trkpt>
      <trkpt lat="47.17449" lon="4.92038">
        <ele>441</ele>
        <time>2017-10-14T09:22:53Z</time>
      </trkpt>
      <trkpt lat="47.17443" lon="4.92038">
        <ele>442</ele>
        <time>2017-10-14T09:24:53Z</time>
      </trkpt>
      <trkpt lat="47.17413" lon="4.9203">
        <ele>444</ele>
        <time>2017-10-14T09:26:53Z</time>
      </trkpt>
      <trkpt lat="47.17408" lon="4.92031">
        <ele>444</ele>
        <time>2017-10-14T09:28:53Z</time>
      </trkpt>
      <trkpt lat="47.17403" lon="4.92034">
        <ele>443</ele>
        <time>2017-10-14T09:30:53Z</time>
      </trkpt>
      <trkpt lat="47.17393" lon="4.92035">
        <ele>442</ele>
        <time>2017-10-14T09:32:53Z</time>
      </trkpt>
      <trkpt lat="47.17384" lon="4.9204">
        <ele>441</ele>
        <time>2017-10-14T09:34:53Z</time>
      </trkpt>
      <trkpt lat="47.17368" lon="4.92044">
        <ele>439</ele>
        <time>2017-10-14T09:36:53Z</time>
      </trkpt>
      <trkpt lat="47.17354" lon="4.92045">
        <ele>438</ele>
        <time>2017-10-14T09:38:53Z</time>
      </trkpt>
      <trkpt lat="47.17344" lon="4.92044">
        <ele>437</ele>
        <time>2017-10-14T09:40:53Z</time>
      </trkpt>
      <trkpt lat="47.1734" lon="4.92043">
        <ele>437</ele>
        <time>2017-10-14T09:42:53Z</time>
      </trkpt>
      <trkpt lat="47.1733" lon="4.92044">
        <ele>437</ele>
        <time>2017-10-14T09:44:53Z</time>
      </trkpt>
      <trkpt lat="47.17321" lon="4.92044">
        <ele>436</ele>
        <time>2017-10-14T09:46:53Z</time>
      </trkpt>
      <trkpt lat="47.17316" lon="4.9204">
        <ele>436</ele>
        <time>2017-10-14T09:48:53Z</time>
      </trkpt>
      <trkpt lat="47.17298" lon="4.92035">
        <ele>436</ele>
        <time>2017-10-14T09:50:53Z</time>
      </trkpt>
      <trkpt lat="47.17281" lon="4.92022">
        <ele>437</ele>
        <time>2017-10-14T09:52:53Z</time>
      </trkpt>
      <trkpt lat="47.17255" lon="4.92005">
        <ele>438</ele>
        <time>2017-10-14T09:54:53Z</time>
      </trkpt>
      <trkpt lat="47.17227" lon="4.91995">
        <ele>436</ele>
        <time>2017-10-14T09:56:53Z</time>
      </trkpt>
      <trkpt lat="47.17218" lon="4.91989">
        <ele>436</ele>
        <time>2017-10-14T09:58:53Z</time>
      </trkpt>
      <trkpt lat="47.172" lon="4.91979">
        <ele>434</ele>
        <time>2017-10-14T10:00:53Z</time>
      </trkpt>
      <trkpt lat="47.17195" lon="4.91968">
        <ele>435</ele>
        <time>2017-10-14T10:02:53Z</time>
      </trkpt>
      <trkpt lat="47.17167" lon="4.9193">
        <ele>435</ele>
        <time>2017-10-14T10:04:53Z</time>
      </trkpt>
      <trkpt lat="47.17157" lon="4.91926">
        <ele>433</ele>
        <time>2017-10-14T10:06:53Z</time>
      </trkpt>
      <trkpt lat="47.17142" lon="4.9189">
        <ele>435</ele>
        <time>2017-10-14T10:08:53Z</time>
      </trkpt>
      <trkpt lat="47.17133" lon="4.91884">
        <ele>433</ele>
        <time>2017-10-14T10:10:53Z</time>
      </trkpt>
      <trkpt lat="47.17104" lon="4.91846">
        <ele>429</ele>
        <time>2017-10-14T10:12:53Z</time>
      </trkpt>
      <trkpt lat="47.17077" lon="4.91829">
        <ele>423</ele>
        <time>2017-10-14T10:14:53Z</time>
      </trkpt>
      <trkpt lat="47.17068" lon="4.91826">
        <ele>423</ele>
        <time>2017-10-14T10:16:53Z</time>
      </trkpt>
      <trkpt lat="47.17058" lon="4.9183">
        <ele>421</ele>
        <time>2017-10-14T10:18:53Z</time>
      </trkpt>
      <trkpt lat="47.17041" lon="4.9183">
        <ele>419</ele>
        <time>2017-10-14T10:20:53Z</time>
      </trkpt>
      <trkpt lat="47.17018" lon="4.91843">
        <ele>415</ele>
        <time>2017-10-14T10:22:53Z</time>
      </trkpt>
      <trkpt lat="47.17006" lon="4.91847">
        <ele>414</ele>
        <time>2017-10-14T10:24:53Z</time>
      </trkpt>
      <trkpt lat="47.16984" lon="4.91864">
        <ele>410</ele>
        <time>2017-10-14T10:26:53Z</time>
      </trkpt>
      <trkpt lat="47.16974" lon="4.91865">
        <ele>409</ele>
        <time>2017-10-14T10:28:53Z</time>
      </trkpt>
      <trkpt lat="47.1697" lon="4.91862">
        <ele>409</ele>
        <time>2017-10-14T10:30:53Z</time>
      </trkpt>
      <trkpt lat="47.16964" lon="4.91861">
        <ele>408</ele>
        <time>2017-10-14T10:32:53Z</time>
      </trkpt>
      <trkpt lat="47.1696" lon="4.91858">
        <ele>408</ele>
        <time>2017-10-14T10:34:53Z</time>
      </trkpt>
      <trkpt lat="47.16939" lon="4.91835">
        <ele>407</ele>
        <time>2017-10-14T10:36:53Z</time>
      </trkpt>
      <trkpt lat="47.16921" lon="4.91824">
        <ele>408</ele>
        <time>2017-10-14T10:38:53Z</time>
      </trkpt>
      <trkpt lat="47.16918" lon="4.91818">
        <ele>409</ele>
        <time>2017-10-14T10:40:53Z</time>
      </trkpt>
      <trkpt lat="47.16912" lon="4.91817">
        <ele>409</ele>
        <time>2017-10-14T10:42:53Z</time>
      </trkpt>
      <trkpt lat="47.16898" lon="4.91822">
        <ele>408</ele>
        <time>2017-10-14T10:44:53Z</time>
      </trkpt>
      <trkpt lat="47.16887" lon="4.91822">
        <ele>409</ele>
        <time>2017-10-14T10:46:53Z</time>
      </trkpt>
      <trkpt lat="47.16882" lon="4.91824">
        <ele>408</ele>
        <time>2017-10-14T10:48:53Z</time>
      </trkpt>
      <trkpt lat="47.16872" lon="4.91825">
        <ele>408</ele>
        <time>2017-10-14T10:50:53Z</time>
      </trkpt>
      <trkpt lat="47.16853" lon="4.91822">
        <ele>410</ele>
        <time>2017-10-14T10:52:53Z</time>
      </trkpt>
      <trkpt lat="47.16834" lon="4.91825">
        <ele>410</ele>
        <time>2017-10-14T10:54:53Z</time>
      </trkpt>
      <trkpt lat="47.16824" lon="4.91823">
        <ele>411</ele>
        <time>2017-10-14T10:56:53Z</time>
      </trkpt>
      <trkpt lat="47.16815" lon="4.91823">
        <ele>411</ele>
        <time>2017-10-14T10:58:53Z</time>
      </trkpt>
      <trkpt lat="47.16806" lon="4.91821">
        <ele>412</ele>
        <time>2017-10-14T11:00:53Z</time>
      </trkpt>
      <trkpt lat="47.16797" lon="4.91827">
        <ele>411</ele>
        <time>2017-10-14T11:02:53Z</time>
      </trkpt>
      <trkpt lat="47.16792" lon="4.91829">
        <ele>411</ele>
        <time>2017-10-14T11:04:53Z</time>
      </trkpt>
      <trkpt lat="47.16787" lon="4.9183">
        <ele>411</ele>
        <time>2017-10-14T11:06:53Z</time>
      </trkpt>
      <trkpt lat="47.16742" lon="4.91849">
        <ele>411</ele>
        <time>2017-10-14T11:08:53Z</time>
      </trkpt>
      <trkpt lat="47.16733" lon="4.91855">
        <ele>412</ele>
        <time>2017-10-14T11:10:53Z</time>
      </trkpt>
      <trkpt lat="47.16718" lon="4.9186">
        <ele>413</ele>
        <time>2017-10-14T11:12:53Z</time>
      </trkpt>
      <trkpt lat="47.16708" lon="4.91862">
        <ele>413</ele>
        <time>2017-10-14T11:14:53Z</time>
      </trkpt>
      <trkpt lat="47.16699" lon="4.91867">
        <ele>414</ele>
        <time>2017-10-14T11:16:53Z</time>
      </trkpt>
      <trkpt lat="47.16689" lon="4.91871">
        <ele>414</ele>
        <time>2017-10-14T11:18:53Z</time>
      </trkpt>
      <trkpt lat="47.16685" lon="4.91874">
        <ele>414</ele>
        <time>2017-10-14T11:20:53Z</time>
      </trkpt>
      <trkpt lat="47.1666" lon="4.91885">
        <ele>414</ele>
        <time>2017-10-14T11:22:53Z</time>
      </trkpt>
      <trkpt lat="47.16654" lon="4.91886">
        <ele>415</ele>
        <time>2017-10-14T11:24:53Z</time>
      </trkpt>
      <trkpt lat="47.16645" lon="4.9189">
        <ele>415</ele>
        <time>2017-10-14T11:26:53Z</time>
      </trkpt>
      <trkpt lat="47.16641" lon="4.91895">
        <ele>415</ele>
        <time>2017-10-14T11:28:53Z</time>
      </trkpt>
      <trkpt lat="47.16637" lon="4.91897">
        <ele>415</ele>
        <time>2017-10-14T11:30:53Z</time>
      </trkpt>
      <trkpt lat="47.16632" lon="4.91897">
        <ele>416</ele>
        <time>2017-10-14T11:32:53Z</time>
      </trkpt>
      <trkpt lat="47.16628" lon="4.91903">
        <ele>415</ele>
        <time>2017-10-14T11:34:53Z</time>
      </trkpt>
      <trkpt lat="47.16623" lon="4.91905">
        <ele>415</ele>
        <time>2017-10-14T11:36:53Z</time>
      </trkpt>
      <trkpt lat="47.16616" lon="4.91914">
        <ele>414</ele>
        <time>2017-10-14T11:38:53Z</time>
      </trkpt>
      <trkpt lat="47.16604" lon="4.91925">
        <ele>414</ele>
        <time>2017-10-14T11:40:53Z</time>
      </trkpt>
      <trkpt lat="47.16594" lon="4.91931">
        <ele>415</ele>
        <time>2017-10-14T11:42:53Z</time>
      </trkpt>
      <trkpt lat="47.16585" lon="4.91932">
        <ele>416</ele>
        <time>2017-10-14T11:44:53Z</time>
      </trkpt>
      <trkpt lat="47.16568" lon="4.91947">
        <ele>413</ele>
        <time>2017-10-14T11:46:53Z</time>
      </trkpt>
      <trkpt lat="47.16555" lon="4.91951">
        <ele>412</ele>
        <time>2017-10-14T11:48:53Z</time>
      </trkpt>
      <trkpt lat="47.1655" lon="4.9195">
        <ele>412</ele>
        <time>2017-10-14T11:50:53Z</time>
      </trkpt>
      <trkpt lat="47.1654" lon="4.91947">
        <ele>412</ele>
        <time>2017-10-14T11:52:53Z</time>
      </trkpt>
      <trkpt lat="47.16505" lon="4.91949">
        <ele>411</ele>
        <time>2017-10-14T11:54:53Z</time>
      </trkpt>
      <trkpt lat="47.16494" lon="4.91946">
        <ele>410</ele>
        <time>2017-10-14T11:56:53Z</time>
      </trkpt>
      <trkpt lat="47.16488" lon="4.91946">
        <ele>410</ele>
        <time>2017-10-14T11:58:53Z</time>
      </trkpt>
      <trkpt lat="47.16474" lon="4.91941">
        <ele>409</ele>
        <time>2017-10-14T12:00:53Z</time>
      </trkpt>
      <trkpt lat="47.16459" lon="4.91946">
        <ele>407</ele>
        <time>2017-10-14T12:02:53Z</time>
      </trkpt>
      <trkpt lat="47.1645" lon="4.91947">
        <ele>406</ele>
        <time>2017-10-14T12:04:53Z</time>
      </trkpt>
      <trkpt lat="47.16446" lon="4.91951">
        <ele>405</ele>
        <time>2017-10-14T12:06:53Z</time>
      </trkpt>
      <trkpt lat="47.16442" lon="4.91963">
        <ele>403</ele>
        <time>2017-10-14T12:08:53Z</time>
      </trkpt>
      <trkpt lat="47.1644" lon="4.91958">
        <ele>403</ele>
        <time>2017-10-14T12:10:53Z</time>
      </trkpt>
      <trkpt lat="47.16444" lon="4.91953">
        <ele>404</ele>
        <time>2017-10-14T12:12:53Z</time>
      </trkpt>
      <trkpt lat="47.1645" lon="4.9195">
        <ele>405</ele>
        <time>2017-10-14T12:14:53Z</time>
      </trkpt>
      <trkpt lat="47.16455" lon="4.9195">
        <ele>406</ele>
        <time>2017-10-14T12:16:53Z</time>
      </trkpt>
      <trkpt lat="47.16459" lon="4.91946">
        <ele>407</ele>
        <time>2017-10-14T12:18:53Z</time>
      </trkpt>
      <trkpt lat="47.16469" lon="4.91947">
        <ele>408</ele>
        <time>2017-10-14T12:20:53Z</time>
      </trkpt>
      <trkpt lat="47.16474" lon="4.91949">
        <ele>408</ele>
        <time>2017-10-14T12:22:53Z</time>
      </trkpt>
      <trkpt lat="47.16493" lon="4.91956">
        <ele>409</ele>
        <time>2017-10-14T12:24:53Z</time>
      </trkpt>
      <trkpt lat="47.16503" lon="4.91959">
        <ele>409</ele>
        <time>2017-10-14T12:26:53Z</time>
      </trkpt>
      <trkpt lat="47.16507" lon="4.91957">
        <ele>409</ele>
        <time>2017-10-14T12:28:53Z</time>
      </trkpt>
      <trkpt lat="47.16513" lon="4.9196">
        <ele>409</ele>
        <time>2017-10-14T12:30:53Z</time>
      </trkpt>
      <trkpt lat="47.16519" lon="4.91961">
        <ele>409</ele>
        <time>2017-10-14T12:32:53Z</time>
      </trkpt>
      <trkpt lat="47.16523" lon="4.91963">
        <ele>409</ele>
        <time>2017-10-14T12:34:53Z</time>
      </trkpt>
      <trkpt lat="47.16497" lon="4.91943">
        <ele>411</ele>
        <time>2017-10-14T12:36:53Z</time>
      </trkpt>
      <trkpt lat="47.16488" lon="4.91944">
        <ele>410</ele>
        <time>2017-10-14T12:38:53Z</time>
      </trkpt>
      <trkpt lat="47.16469" lon="4.91947">
        <ele>408</ele>
        <time>2017-10-14T12:40:53Z</time>
      </trkpt>
      <trkpt lat="47.16456" lon="4.91951">
        <ele>406</ele>
        <time>2017-10-14T12:42:53Z</time>
      </trkpt>
      <trkpt lat="47.16447" lon="4.91955">
        <ele>404</ele>
        <time>2017-10-14T12:44:53Z</time>
      </trkpt>
      <trkpt lat="47.16428" lon="4.9196">
        <ele>402</ele>
        <time>2017-10-14T12:46:53Z</time>
      </trkpt>
      <trkpt lat="47.16418" lon="4.91962">
        <ele>401</ele>
        <time>2017-10-14T12:48:53Z</time>
      </trkpt>
      <trkpt lat="47.16409" lon="4.9196">
        <ele>400</ele>
        <time>2017-10-14T12:50:53Z</time>
      </trkpt>
      <trkpt lat="47.16403" lon="4.91959">
        <ele>400</ele>
        <time>2017-10-14T12:52:53Z</time>
      </trkpt>
      <trkpt lat="47.16398" lon="4.9196">
        <ele>399</ele>
        <time>2017-10-14T12:54:53Z</time>
      </trkpt>
      <trkpt lat="47.16376" lon="4.91949">
        <ele>398</ele>
        <time>2017-10-14T12:56:53Z</time>
      </trkpt>
      <trkpt lat="47.16374" lon="4.91943">
        <ele>398</ele>
        <time>2017-10-14T12:58:53Z</time>
      </trkpt>
      <trkpt lat="47.1637" lon="4.91941">
        <ele>398</ele>
        <time>2017-10-14T13:00:53Z</time>
      </trkpt>
      <trkpt lat="47.16366" lon="4.91935">
        <ele>398</ele>
        <time>2017-10-14T13:02:53Z</time>
      </trkpt>
      <trkpt lat="47.16363" lon="4.91929">
        <ele>398</ele>
        <time>2017-10-14T13:04:53Z</time>
      </trkpt>
      <trkpt lat="47.16357" lon="4.91927">
        <ele>397</ele>
        <time>2017-10-14T13:06:53Z</time>
      </trkpt>
      <trkpt lat="47.16355" lon="4.9192">
        <ele>397</ele>
        <time>2017-10-14T13:08:53Z</time>
      </trkpt>
      <trkpt lat="47.16356" lon="4.91913">
        <ele>398</ele>
        <time>2017-10-14T13:10:53Z</time>
      </trkpt>
      <trkpt lat="47.16358" lon="4.91907">
        <ele>399</ele>
        <time>2017-10-14T13:12:53Z</time>
      </trkpt>
      <trkpt lat="47.16358" lon="4.919">
        <ele>400</ele>
        <time>2017-10-14T13:14:53Z</time>
      </trkpt>
      <trkpt lat="47.16352" lon="4.91888">
        <ele>401</ele>
        <time>2017-10-14T13:16:53Z</time>
      </trkpt>
      <trkpt lat="47.16344" lon="4.91864">
        <ele>402</ele>
        <time>2017-10-14T13:18:53Z</time>
      </trkpt>
      <trkpt lat="47.16341" lon="4.91833">
        <ele>405</ele>
        <time>2017-10-14T13:20:53Z</time>
      </trkpt>
      <trkpt lat="47.16329" lon="4.91811">
        <ele>405</ele>
        <time>2017-10-14T13:22:53Z</time>
      </trkpt>
      <trkpt lat="47.16327" lon="4.91796">
        <ele>407</ele>
        <time>2017-10-14T13:24:53Z</time>
      </trkpt>
      <trkpt lat="47.16319" lon="4.91788">
        <ele>406</ele>
        <time>2017-10-14T13:26:53Z</time>
      </trkpt>
      <trkpt lat="47.16314" lon="4.91776">
        <ele>407</ele>
        <time>2017-10-14T13:28:53Z</time>
      </trkpt>
      <trkpt lat="47.1631" lon="4.91771">
        <ele>406</ele>
        <time>2017-10-14T13:30:53Z</time>
      </trkpt>
      <trkpt lat="47.16304" lon="4.91759">
        <ele>406</ele>
        <time>2017-10-14T13:32:53Z</time>
      </trkpt>
      <trkpt lat="47.16302" lon="4.91752">
        <ele>406</ele>
        <time>2017-10-14T13:34:53Z</time>
      </trkpt>
      <trkpt lat="47.16299" lon="4.91738">
        <ele>407</ele>
        <time>2017-10-14T13:36:53Z</time>
      </trkpt>
      <trkpt lat="47.16296" lon="4.91725">
        <ele>408</ele>
        <time>2017-10-14T13:38:53Z</time>
      </trkpt>
      <trkpt lat="47.16291" lon="4.91705">
        <ele>408</ele>
        <time>2017-10-14T13:40:53Z</time>
      </trkpt>
      <trkpt lat="47.16282" lon="4.91679">
        <ele>408</ele>
        <time>2017-10-14T13:42:53Z</time>
      </trkpt>
      <trkpt lat="47.1628" lon="4.91673">
        <ele>408</ele>
        <time>2017-10-14T13:44:53Z</time>
      </trkpt>
      <trkpt lat="47.16272" lon="4.91666">
        <ele>406</ele>
        <time>2017-10-14T13:46:53Z</time>
      </trkpt>
      <trkpt lat="47.16269" lon="4.9166">
        <ele>406</ele>
        <time>2017-10-14T13:48:53Z</time>
      </trkpt>
      <trkpt lat="47.16267" lon="4.91654">
        <ele>406</ele>
        <time>2017-10-14T13:50:53Z</time>
      </trkpt>
      <trkpt lat="47.16264" lon="4.91646">
        <ele>406</ele>
        <time>2017-10-14T13:52:53Z</time>
      </trkpt>
      <trkpt lat="47.16256" lon="4.91638">
        <ele>405</ele>
        <time>2017-10-14T13:54:53Z</time>
      </trkpt>
      <trkpt lat="47.16253" lon="4.91633">
        <ele>405</ele>
        <time>2017-10-14T13:56:53Z</time>
      </trkpt>
      <trkpt lat="47.16246" lon="4.91623">
        <ele>405</ele>
        <time>2017-10-14T13:58:53Z</time>
      </trkpt>
      <trkpt lat="47.16243" lon="4.91616">
        <ele>406</ele>
        <time>2017-10-14T14:00:53Z</time>
      </trkpt>
      <trkpt lat="47.1624" lon="4.91612">
        <ele>406</ele>
        <time>2017-10-14T14:02:53Z</time>
      </trkpt>
      <trkpt lat="47.16235" lon="4.91608">
        <ele>407</ele>
        <time>2017-10-14T14:04:53Z</time>
      </trkpt>
      <trkpt lat="47.1623" lon="4.91606">
        <ele>407</ele>
        <time>2017-10-14T14:06:53Z</time>
      </trkpt>
      <trkpt lat="47.16225" lon="4.91605">
        <ele>406</ele>
        <time>2017-10-14T14:08:53Z</time>
      </trkpt>
      <trkpt lat="47.1622" lon="4.91605">
        <ele>406</ele>
        <time>2017-10-14T14:10:53Z</time>
      </trkpt>
      <trkpt lat="47.16215" lon="4.91603">
        <ele>406</ele>
        <time>2017-10-14T14:12:53Z</time>
      </trkpt>
      <trkpt lat="47.1621" lon="4.91604">
        <ele>406</ele>
        <time>2017-10-14T14:14:53Z</time>
      </trkpt>
      <trkpt lat="47.16205" lon="4.91602">
        <ele>406</ele>
        <time>2017-10-14T14:16:53Z</time>
      </trkpt>
      <trkpt lat="47.16199" lon="4.91601">
        <ele>406</ele>
        <time>2017-10-14T14:18:53Z</time>
      </trkpt>
      <trkpt lat="47.16183" lon="4.91602">
        <ele>405</ele>
        <time>2017-10-14T14:20:53Z</time>
      </trkpt>
      <trkpt lat="47.16173" lon="4.91602">
        <ele>404</ele>
        <time>2017-10-14T14:22:53Z</time>
      </trkpt>
      <trkpt lat="47.16163" lon="4.91604">
        <ele>403</ele>
        <time>2017-10-14T14:24:53Z</time>
      </trkpt>
      <trkpt lat="47.16154" lon="4.91607">
        <ele>401</ele>
        <time>2017-10-14T14:26:53Z</time>
      </trkpt>
      <trkpt lat="47.16144" lon="4.91605">
        <ele>400</ele>
        <time>2017-10-14T14:28:53Z</time>
      </trkpt>
      <trkpt lat="47.16135" lon="4.91597">
        <ele>400</ele>
        <time>2017-10-14T14:30:53Z</time>
      </trkpt>
      <trkpt lat="47.16126" lon="4.91591">
        <ele>400</ele>
        <time>2017-10-14T14:32:53Z</time>
      </trkpt>
      <trkpt lat="47.16117" lon="4.91584">
        <ele>400</ele>
        <time>2017-10-14T14:34:53Z</time>
      </trkpt>
      <trkpt lat="47.16109" lon="4.91574">
        <ele>401</ele>
        <time>2017-10-14T14:36:53Z</time>
      </trkpt>
      <trkpt lat="47.16082" lon="4.91544">
        <ele>401</ele>
        <time>2017-10-14T14:38:53Z</time>
      </trkpt>
      <trkpt lat="47.16075" lon="4.91533">
        <ele>401</ele>
        <time>2017-10-14T14:40:53Z</time>
      </trkpt>
      <trkpt lat="47.1607" lon="4.91519">
        <ele>401</ele>
        <time>2017-10-14T14:42:53Z</time>
      </trkpt>
      <trkpt lat="47.16066" lon="4.91514">
        <ele>401</ele>
        <time>2017-10-14T14:44:53Z</time>
      </trkpt>
      <trkpt lat="47.16062" lon="4.91508">
        <ele>401</ele>
        <time>2017-10-14T14:46:53Z</time>
      </trkpt>
      <trkpt lat="47.16059" lon="4.91502">
        <ele>400</ele>
        <time>2017-10-14T14:48:53Z</time>
      </trkpt>
      <trkpt lat="47.16055" lon="4.91496">
        <ele>400</ele>
        <time>2017-10-14T14:50:53Z</time>
      </trkpt>
      <trkpt lat="47.16056" lon="4.91489">
        <ele>401</ele>
        <time>2017-10-14T14:52:53Z</time>
      </trkpt>
      <trkpt lat="47.16051" lon="4.91485">
        <ele>400</ele>
        <time>2017-10-14T14:54:53Z</time>
      </trkpt>
      <trkpt lat="47.16045" lon="4.91473">
        <ele>400</ele>
        <time>2017-10-14T14:56:53Z</time>
      </trkpt>
      <trkpt lat="47.1604" lon="4.91461">
        <ele>400</ele>
        <time>2017-10-14T14:58:53Z</time>
      </trkpt>
      <trkpt lat="47.16029" lon="4.91439">
        <ele>399</ele>
        <time>2017-10-14T15:00:53Z</time>
      </trkpt>
      <trkpt lat="47.16025" lon="4.91425">
        <ele>399</ele>
        <time>2017-10-14T15:02:53Z</time>
      </trkpt>
      <trkpt lat="47.16018" lon="4.91417">
        <ele>398</ele>
        <time>2017-10-14T15:04:53Z</time>
      </trkpt>
      <trkpt lat="47.16014" lon="4.91404">
        <ele>398</ele>
        <time>2017-10-14T15:06:53Z</time>
      </trkpt>
      <trkpt lat="47.16008" lon="4.91395">
        <ele>397</ele>
        <time>2017-10-14T15:08:53Z</time>
      </trkpt>
      <trkpt lat="47.15999" lon="4.91389">
        <ele>395</ele>
        <time>2017-10-14T15:10:53Z</time>
      </trkpt>
      <trkpt lat="47.15994" lon="4.91376">
        <ele>395</ele>
        <time>2017-10-14T15:12:53Z</time>
      </trkpt>
      <trkpt lat="47.15987" lon="4.91367">
        <ele>394</ele>
        <time>2017-10-14T15:14:53Z</time>
      </trkpt>
      <trkpt lat="47.15982" lon="4.91353">
        <ele>394</ele>
        <time>2017-10-14T15:16:53Z</time>
      </trkpt>
      <trkpt lat="47.1598" lon="4.91338">
        <ele>395</ele>
        <time>2017-10-14T15:18:53Z</time>
      </trkpt>
      <trkpt lat="47.15972" lon="4.91329">
        <ele>394</ele>
        <time>2017-10-14T15:20:53Z</time>
      </trkpt>
      <trkpt lat="47.15968" lon="4.91329">
        <ele>392</ele>
        <time>2017-10-14T15:22:53Z</time>
      </trkpt>
      <trkpt lat="47.15969" lon="4.91309">
        <ele>394</ele>
        <time>2017-10-14T15:24:53Z</time>
      </trkpt>
      <trkpt lat="47.15958" lon="4.91305">
        <ele>391</ele>
        <time>2017-10-14T15:26:53Z</time>
      </trkpt>
      <trkpt lat="47.15955" lon="4.91297">
        <ele>390</ele>
        <time>2017-10-14T15:28:53Z</time>
      </trkpt>
      <trkpt lat="47.15951" lon="4.91287">
        <ele>390</ele>
        <time>2017-10-14T15:30:53Z</time>
      </trkpt>
      <trkpt lat="47.15943" lon="4.91277">
        <ele>388</ele>
        <time>2017-10-14T15:32:53Z</time>
      </trkpt>
      <trkpt lat="47.15923" lon="4.91272">
        <ele>381</ele>
        <time>2017-10-14T15:34:53Z</time>
      </trkpt>
      <trkpt lat="47.15914" lon="4.91266">
        <ele>379</ele>
        <time>2017-10-14T15:36:53Z</time>
      </trkpt>
      <trkpt lat="47.15906" lon="4.91257">
        <ele>379</ele>
        <time>2017-10-14T15:38:53Z</time>
      </trkpt>
      <trkpt lat="47.159" lon="4.91247">
        <ele>379</ele>
        <time>2017-10-14T15:40:53Z</time>
      </trkpt>
      <trkpt lat="47.15892" lon="4.91241">
        <ele>378</ele>
        <time>2017-10-14T15:42:53Z</time>
      </trkpt>
      <trkpt lat="47.15883" lon="4.91247">
        <ele>377</ele>
        <time>2017-10-14T15:44:53Z</time>
      </trkpt>
      <trkpt lat="47.15877" lon="4.91258">
        <ele>376</ele>
        <time>2017-10-14T15:46:53Z</time>
      </trkpt>
      <trkpt lat="47.15869" lon="4.91282">
        <ele>372</ele>
        <time>2017-10-14T15:48:53Z</time>
      </trkpt>
      <trkpt lat="47.1587" lon="4.91296">
        <ele>371</ele>
        <time>2017-10-14T15:50:53Z</time>
      </trkpt>
      <trkpt lat="47.15871" lon="4.91317">
        <ele>369</ele>
        <time>2017-10-14T15:52:53Z</time>
      </trkpt>
      <trkpt lat="47.15869" lon="4.91336">
        <ele>368</ele>
        <time>2017-10-14T15:54:53Z</time>
      </trkpt>
      <trkpt lat="47.15866" lon="4.91353">
        <ele>366</ele>
        <time>2017-10-14T15:56:53Z</time>
      </trkpt>
      <trkpt lat="47.15864" lon="4.91368">
        <ele>365</ele>
        <time>2017-10-14T15:58:53Z</time>
      </trkpt>
      <trkpt lat="47.15858" lon="4.91401">
        <ele>363</ele>
        <time>2017-10-14T16:00:53Z</time>
      </trkpt>
      <trkpt lat="47.15853" lon="4.9141">
        <ele>362</ele>
        <time>2017-10-14T16:02:53Z</time>
      </trkpt>
      <trkpt lat="47.15851" lon="4.91416">
        <ele>362</ele>
        <time>2017-10-14T16:04:53Z</time>
      </trkpt>
      <trkpt lat="47.15845" lon="4.91429">
        <ele>361</ele>
        <time>2017-10-14T16:06:53Z</time>
      </trkpt>
      <trkpt lat="47.1584" lon="4.91443">
        <ele>360</ele>
        <time>2017-10-14T16:08:53Z</time>
      </trkpt>
      <trkpt lat="47.15835" lon="4.91457">
        <ele>359</ele>
        <time>2017-10-14T16:10:53Z</time>
      </trkpt>
      <trkpt lat="47.15833" lon="4.91463">
        <ele>359</ele>
        <time>2017-10-14T16:12:53Z</time>
      </trkpt>
      <trkpt lat="47.15831" lon="4.91469">
        <ele>359</ele>
        <time>2017-10-14T16:14:53Z</time>
      </trkpt>
      <trkpt lat="47.1582" lon="4.91493">
        <ele>358</ele>
        <time>2017-10-14T16:16:53Z</time>
      </trkpt>
      <trkpt lat="47.15796" lon="4.91532">
        <ele>356</ele>
        <time>2017-10-14T16:18:53Z</time>
      </trkpt>
      <trkpt lat="47.15789" lon="4.91541">
        <ele>356</ele>
        <time>2017-10-14T16:20:53Z</time>
      </trkpt>
      <trkpt lat="47.15752" lon="4.9159">
        <ele>353</ele>
        <time>2017-10-14T16:22:53Z</time>
      </trkpt>
      <trkpt lat="47.1575" lon="4.91596">
        <ele>353</ele>
        <time>2017-10-14T16:24:53Z</time>
      </trkpt>
      <trkpt lat="47.15745" lon="4.91609">
        <ele>352</ele>
        <time>2017-10-14T16:26:53Z</time>
      </trkpt>
      <trkpt lat="47.1572" lon="4.91654">
        <ele>350</ele>
        <time>2017-10-14T16:28:53Z</time>
      </trkpt>
      <trkpt lat="47.15697" lon="4.91695">
        <ele>349</ele>
        <time>2017-10-14T16:30:53Z</time>
      </trkpt>
      <trkpt lat="47.15677" lon="4.91733">
        <ele>348</ele>
        <time>2017-10-14T16:32:53Z</time>
      </trkpt>
      <trkpt lat="47.15657" lon="4.91755">
        <ele>347</ele>
        <time>2017-10-14T16:34:53Z</time>
      </trkpt>
      <trkpt lat="47.15644" lon="4.91766">
        <ele>347</ele>
        <time>2017-10-14T16:36:53Z</time>
      </trkpt>
      <trkpt lat="47.15641" lon="4.91771">
        <ele>347</ele>
        <time>2017-10-14T16:38:53Z</time>
      </trkpt>
      <trkpt lat="47.15636" lon="4.91771">
        <ele>347</ele>
        <time>2017-10-14T16:40:53Z</time>
      </trkpt>
      <trkpt lat="47.15631" lon="4.91774">
        <ele>347</ele>
        <time>2017-10-14T16:42:53Z</time>
      </trkpt>
      <trkpt lat="47.15627" lon="4.91779">
        <ele>347</ele>
        <time>2017-10-14T16:44:53Z</time>
      </trkpt>
      <trkpt lat="47.15622" lon="4.91792">
        <ele>348</ele>
        <time>2017-10-14T16:46:53Z</time>
      </trkpt>
      <trkpt lat="47.15619" lon="4.91798">
        <ele>348</ele>
        <time>2017-10-14T16:48:53Z</time>
      </trkpt>
      <trkpt lat="47.15613" lon="4.918">
        <ele>348</ele>
        <time>2017-10-14T16:50:53Z</time>
      </trkpt>
      <trkpt lat="47.15604" lon="4.91808">
        <ele>348</ele>
        <time>2017-10-14T16:52:53Z</time>
      </trkpt>
      <trkpt lat="47.15594" lon="4.91825">
        <ele>348</ele>
        <time>2017-10-14T16:54:53Z</time>
      </trkpt>
      <trkpt lat="47.15561" lon="4.91861">
        <ele>346</ele>
        <time>2017-10-14T16:56:53Z</time>
      </trkpt>
      <trkpt lat="47.15557" lon="4.91873">
        <ele>346</ele>
        <time>2017-10-14T16:58:53Z</time>
      </trkpt>
      <trkpt lat="47.15551" lon="4.91884">
        <ele>345</ele>
        <time>2017-10-14T17:00:53Z</time>
      </trkpt>
      <trkpt lat="47.15541" lon="4.91909">
        <ele>344</ele>
        <time>2017-10-14T17:02:53Z</time>
      </trkpt>
      <trkpt lat="47.15545" lon="4.91937">
        <ele>346</ele>
        <time>2017-10-14T17:04:53Z</time>
      </trkpt>
      <trkpt lat="47.15545" lon="4.91951">
        <ele>347</ele>
        <time>2017-10-14T17:06:53Z</time>
      </trkpt>
      <trkpt lat="47.15552" lon="4.91965">
        <ele>348</ele>
        <time>2017-10-14T17:08:53Z</time>
      </trkpt>
      <trkpt lat="47.15554" lon="4.91979">
        <ele>349</ele>
        <time>2017-10-14T17:10:53Z</time>
      </trkpt>
      <trkpt lat="47.15557" lon="4.91992">
        <ele>350</ele>
        <time>2017-10-14T17:12:53Z</time>
      </trkpt>
      <trkpt lat="47.15549" lon="4.92002">
        <ele>350</ele>
        <time>2017-10-14T17:14:53Z</time>
      </trkpt>
      <trkpt lat="47.15541" lon="4.9201">
        <ele>351</ele>
        <time>2017-10-14T17:16:53Z</time>
      </trkpt>
      <trkpt lat="47.1554" lon="4.92024">
        <ele>352</ele>
        <time>2017-10-14T17:18:53Z</time>
      </trkpt>
      <trkpt lat="47.15536" lon="4.92039">
        <ele>353</ele>
        <time>2017-10-14T17:20:53Z</time>
      </trkpt>
      <trkpt lat="47.15536" lon="4.92054">
        <ele>355</ele>
        <time>2017-10-14T17:22:53Z</time>
      </trkpt>
      <trkpt lat="47.15536" lon="4.9208">
        <ele>357</ele>
        <time>2017-10-14T17:24:53Z</time>
      </trkpt>
      <trkpt lat="47.1554" lon="4.92093">
        <ele>357</ele>
        <time>2017-10-14T17:26:53Z</time>
      </trkpt>
      <trkpt lat="47.1554" lon="4.92107">
        <ele>358</ele>
        <time>2017-10-14T17:28:53Z</time>
      </trkpt>
      <trkpt lat="47.15547" lon="4.92146">
        <ele>360</ele>
        <time>2017-10-14T17:30:53Z</time>
      </trkpt>
      <trkpt lat="47.15548" lon="4.92162">
        <ele>361</ele>
        <time>2017-10-14T17:32:53Z</time>
      </trkpt>
      <trkpt lat="47.15551" lon="4.92175">
        <ele>362</ele>
        <time>2017-10-14T17:34:53Z</time>
      </trkpt>
      <trkpt lat="47.15554" lon="4.92205">
        <ele>365</ele>
        <time>2017-10-14T17:36:53Z</time>
      </trkpt>
      <trkpt lat="47.15554" lon="4.92219">
        <ele>366</ele>
        <time>2017-10-14T17:38:53Z</time>
      </trkpt>
      <trkpt lat="47.15551" lon="4.92231">
        <ele>368</ele>
        <time>2017-10-14T17:40:53Z</time>
      </trkpt>
      <trkpt lat="47.1556" lon="4.92256">
        <ele>370</ele>
        <time>2017-10-14T17:42:53Z</time>
      </trkpt>
      <trkpt lat="47.15566" lon="4.92281">
        <ele>371</ele>
        <time>2017-10-14T17:44:53Z</time>
      </trkpt>
      <trkpt lat="47.15566" lon="4.92296">
        <ele>373</ele>
        <time>2017-10-14T17:46:53Z</time>
      </trkpt>
      <trkpt lat="47.15564" lon="4.92309">
        <ele>374</ele>
        <time>2017-10-14T17:48:53Z</time>
      </trkpt>
      <trkpt lat="47.15555" lon="4.92313">
        <ele>375</ele>
        <time>2017-10-14T17:50:53Z</time>
      </trkpt>
      <trkpt lat="47.15558" lon="4.92327">
        <ele>376</ele>
        <time>2017-10-14T17:52:53Z</time>
      </trkpt>
      <trkpt lat="47.15558" lon="4.92341">
        <ele>377</ele>
        <time>2017-10-14T17:54:53Z</time>
      </trkpt>
      <trkpt lat="47.15564" lon="4.92381">
        <ele>379</ele>
        <time>2017-10-14T17:56:53Z</time>
      </trkpt>
      <trkpt lat="47.15567" lon="4.92394">
        <ele>380</ele>
        <time>2017-10-14T17:58:53Z</time>
      </trkpt>
      <trkpt lat="47.15573" lon="4.92404">
        <ele>380</ele>
        <time>2017-10-14T18:00:53Z</time>
      </trkpt>
      <trkpt lat="47.15579" lon="4.92431">
        <ele>381</ele>
        <time>2017-10-14T18:02:53Z</time>
      </trkpt>
      <trkpt lat="47.15585" lon="4.9244">
        <ele>381</ele>
        <time>2017-10-14T18:04:53Z</time>
      </trkpt>
      <trkpt lat="47.15591" lon="4.92451">
        <ele>382</ele>
        <time>2017-10-14T18:06:53Z</time>
      </trkpt>
      <trkpt lat="47.15599" lon="4.92487">
        <ele>384</ele>
        <time>2017-10-14T18:08:53Z</time>
      </trkpt>
      <trkpt lat="47.15604" lon="4.92499">
        <ele>385</ele>
        <time>2017-10-14T18:10:53Z</time>
      </trkpt>
      <trkpt lat="47.15604" lon="4.92513">
        <ele>386</ele>
        <time>2017-10-14T18:12:53Z</time>
      </trkpt>
      <trkpt lat="47.15605" lon="4.92528">
        <ele>386</ele>
        <time>2017-10-14T18:14:53Z</time>
      </trkpt>
      <trkpt lat="47.15619" lon="4.92566">
        <ele>388</ele>
        <time>2017-10-14T18:16:53Z</time>
      </trkpt>
      <trkpt lat="47.15621" lon="4.92579">
        <ele>388</ele>
        <time>2017-10-14T18:18:53Z</time>
      </trkpt>
      <trkpt lat="47.15633" lon="4.92601">
        <ele>389</ele>
        <time>2017-10-14T18:20:53Z</time>
      </trkpt>
      <trkpt lat="47.15635" lon="4.92614">
        <ele>389</ele>
        <time>2017-10-14T18:22:53Z</time>
      </trkpt>
      <trkpt lat="47.15634" lon="4.92628">
        <ele>389</ele>
        <time>2017-10-14T18:24:53Z</time>
      </trkpt>
      <trkpt lat="47.15636" lon="4.92646">
        <ele>389</ele>
        <time>2017-10-14T18:26:53Z</time>
      </trkpt>
      <trkpt lat="47.1564" lon="4.92665">
        <ele>390</ele>
        <time>2017-10-14T18:28:53Z</time>
      </trkpt>
      <trkpt lat="47.15641" lon="4.92679">
        <ele>390</ele>
        <time>2017-10-14T18:30:53Z</time>
      </trkpt>
      <trkpt lat="47.15644" lon="4.92685">
        <ele>390</ele>
        <time>2017-10-14T18:32:53Z</time>
      </trkpt>
      <trkpt lat="47.15645" lon="4.92692">
        <ele>390</ele>
        <time>2017-10-14T18:34:53Z</time>
      </trkpt>
      <trkpt lat="47.15647" lon="4.92699">
        <ele>390</ele>
        <time>2017-10-14T18:36:53Z</time>
      </trkpt>
      <trkpt lat="47.15653" lon="4.92711">
        <ele>390</ele>
        <time>2017-10-14T18:38:53Z</time>
      </trkpt>
      <trkpt lat="47.15655" lon="4.92717">
        <ele>390</ele>
        <time>2017-10-14T18:40:53Z</time>
      </trkpt>
      <trkpt lat="47.15663" lon="4.92738">
        <ele>390</ele>
        <time>2017-10-14T18:42:53Z</time>
      </trkpt>
      <trkpt lat="47.15665" lon="4.92745">
        <ele>390</ele>
        <time>2017-10-14T18:44:53Z</time>
      </trkpt>
      <trkpt lat="47.15664" lon="4.92753">
        <ele>390</ele>
        <time>2017-10-14T18:46:53Z</time>
      </trkpt>
      <trkpt lat="47.15665" lon="4.92761">
        <ele>390</ele>
        <time>2017-10-14T18:48:53Z</time>
      </trkpt>
      <trkpt lat="47.15669" lon="4.92773">
        <ele>391</ele>
        <time>2017-10-14T18:50:53Z</time>
      </trkpt>
      <trkpt lat="47.15672" lon="4.92788">
        <ele>391</ele>
        <time>2017-10-14T18:52:53Z</time>
      </trkpt>
      <trkpt lat="47.15674" lon="4.92795">
        <ele>391</ele>
        <time>2017-10-14T18:54:53Z</time>
      </trkpt>
      <trkpt lat="47.1568" lon="4.92809">
        <ele>391</ele>
        <time>2017-10-14T18:56:53Z</time>
      </trkpt>
      <trkpt lat="47.15687" lon="4.9282">
        <ele>392</ele>
        <time>2017-10-14T18:58:53Z</time>
      </trkpt>
      <trkpt lat="47.15694" lon="4.92838">
        <ele>392</ele>
        <time>2017-10-14T19:00:53Z</time>
      </trkpt>
      <trkpt lat="47.15706" lon="4.92863">
        <ele>393</ele>
        <time>2017-10-14T19:02:53Z</time>
      </trkpt>
      <trkpt lat="47.15716" lon="4.92878">
        <ele>393</ele>
        <time>2017-10-14T19:04:53Z</time>
      </trkpt>
      <trkpt lat="47.15722" lon="4.92889">
        <ele>393</ele>
        <time>2017-10-14T19:06:53Z</time>
      </trkpt>
      <trkpt lat="47.15737" lon="4.92919">
        <ele>393</ele>
        <time>2017-10-14T19:08:53Z</time>
      </trkpt>
      <trkpt lat="47.1574" lon="4.92926">
        <ele>393</ele>
        <time>2017-10-14T19:10:53Z</time>
      </trkpt>
      <trkpt lat="47.15744" lon="4.92931">
        <ele>393</ele>
        <time>2017-10-14T19:12:53Z</time>
      </trkpt>
      <trkpt lat="47.15748" lon="4.92934">
        <ele>393</ele>
        <time>2017-10-14T19:14:53Z</time>
      </trkpt>
      <trkpt lat="47.15755" lon="4.92944">
        <ele>393</ele>
        <time>2017-10-14T19:16:53Z</time>
      </trkpt>
      <trkpt lat="47.15763" lon="4.92951">
        <ele>394</ele>
        <time>2017-10-14T19:18:53Z</time>
      </trkpt>
      <trkpt lat="47.15772" lon="4.92957">
        <ele>394</ele>
        <time>2017-10-14T19:20:53Z</time>
      </trkpt>
      <trkpt lat="47.15791" lon="4.92968">
        <ele>395</ele>
        <time>2017-10-14T19:22:53Z</time>
      </trkpt>
      <trkpt lat="47.158" lon="4.92972">
        <ele>395</ele>
        <time>2017-10-14T19:24:53Z</time>
      </trkpt>
      <trkpt lat="47.15808" lon="4.92979">
        <ele>396</ele>
        <time>2017-10-14T19:26:53Z</time>
      </trkpt>
      <trkpt lat="47.15843" lon="4.93004">
        <ele>397</ele>
        <time>2017-10-14T19:28:53Z</time>
      </trkpt>
      <trkpt lat="47.15861" lon="4.93019">
        <ele>397</ele>
        <time>2017-10-14T19:30:53Z</time>
      </trkpt>
      <trkpt lat="47.15874" lon="4.93029">
        <ele>398</ele>
        <time>2017-10-14T19:32:53Z</time>
      </trkpt>
      <trkpt lat="47.1591" lon="4.93053">
        <ele>398</ele>
        <time>2017-10-14T19:34:53Z</time>
      </trkpt>
      <trkpt lat="47.15928" lon="4.93063">
        <ele>398</ele>
        <time>2017-10-14T19:36:53Z</time>
      </trkpt>
      <trkpt lat="47.15932" lon="4.93066">
        <ele>397</ele>
        <time>2017-10-14T19:38:53Z</time>
      </trkpt>
      <trkpt lat="47.15936" lon="4.9307">
        <ele>397</ele>
        <time>2017-10-14T19:40:53Z</time>
      </trkpt>
      <trkpt lat="47.15949" lon="4.93081">
        <ele>397</ele>
        <time>2017-10-14T19:42:53Z</time>
      </trkpt>
      <trkpt lat="47.15957" lon="4.93088">
        <ele>397</ele>
        <time>2017-10-14T19:44:53Z</time>
      </trkpt>
      <trkpt lat="47.15967" lon="4.93093">
        <ele>397</ele>
        <time>2017-10-14T19:46:53Z</time>
      </trkpt>
      <trkpt lat="47.15976" lon="4.93098">
        <ele>397</ele>
        <time>2017-10-14T19:48:53Z</time>
      </trkpt>
      <trkpt lat="47.16006" lon="4.93119">
        <ele>397</ele>
        <time>2017-10-14T19:50:53Z</time>
      </trkpt>
      <trkpt lat="47.16015" lon="4.93127">
        <ele>397</ele>
        <time>2017-10-14T19:52:53Z</time>
      </trkpt>
      <trkpt lat="47.16018" lon="4.93134">
        <ele>397</ele>
        <time>2017-10-14T19:54:53Z</time>
      </trkpt>
      <trkpt lat="47.16015" lon="4.93143">
        <ele>397</ele>
        <time>2017-10-14T19:56:53Z</time>
      </trkpt>
      <trkpt lat="47.16015" lon="4.93151">
        <ele>398</ele>
        <time>2017-10-14T19:58:53Z</time>
      </trkpt>
      <trkpt lat="47.16008" lon="4.93171">
        <ele>398</ele>
        <time>2017-10-14T20:00:53Z</time>
      </trkpt>
      <trkpt lat="47.16004" lon="4.93176">
        <ele>398</ele>
        <time>2017-10-14T20:02:53Z</time>
      </trkpt>
      <trkpt lat="47.15998" lon="4.9318">
        <ele>399</ele>
        <time>2017-10-14T20:04:53Z</time>
      </trkpt>
      <trkpt lat="47.1599" lon="4.93189">
        <ele>399</ele>
        <time>2017-10-14T20:06:53Z</time>
      </trkpt>
      <trkpt lat="47.15981" lon="4.93205">
        <ele>400</ele>
        <time>2017-10-14T20:08:53Z</time>
      </trkpt>
      <trkpt lat="47.15978" lon="4.93211">
        <ele>400</ele>
        <time>2017-10-14T20:10:53Z</time>
      </trkpt>
      <trkpt lat="47.15975" lon="4.93215">
        <ele>400</ele>
        <time>2017-10-14T20:12:53Z</time>
      </trkpt>
      <trkpt lat="47.15971" lon="4.9322">
        <ele>400</ele>
        <time>2017-10-14T20:14:53Z</time>
      </trkpt>
      <trkpt lat="47.15969" lon="4.93226">
        <ele>401</ele>
        <time>2017-10-14T20:16:53Z</time>
      </trkpt>
      <trkpt lat="47.15966" lon="4.93232">
        <ele>401</ele>
        <time>2017-10-14T20:18:53Z</time>
      </trkpt>
      <trkpt lat="47.15962" lon="4.93246">
        <ele>401</ele>
        <time>2017-10-14T20:20:53Z</time>
      </trkpt>
      <trkpt lat="47.1596" lon="4.9326">
        <ele>402</ele>
        <time>2017-10-14T20:22:53Z</time>
      </trkpt>
      <trkpt lat="47.15959" lon="4.93282">
        <ele>402</ele>
        <time>2017-10-14T20:24:53Z</time>
      </trkpt>
      <trkpt lat="47.15959" lon="4.93289">
        <ele>402</ele>
        <time>2017-10-14T20:26:53Z</time>
      </trkpt>
      <trkpt lat="47.15956" lon="4.93312">
        <ele>403</ele>
        <time>2017-10-14T20:28:53Z</time>
      </trkpt>
      <trkpt lat="47.15951" lon="4.93348">
        <ele>404</ele>
        <time>2017-10-14T20:30:53Z</time>
      </trkpt>
      <trkpt lat="47.15949" lon="4.9337">
        <ele>404</ele>
        <time>2017-10-14T20:32:53Z</time>
      </trkpt>
      <trkpt lat="47.15948" lon="4.93402">
        <ele>405</ele>
        <time>2017-10-14T20:34:53Z</time>
      </trkpt>
      <trkpt lat="47.15945" lon="4.9343">
        <ele>405</ele>
        <time>2017-10-14T20:36:53Z</time>
      </trkpt>
      <trkpt lat="47.15944" lon="4.93488">
        <ele>405</ele>
        <time>2017-10-14T20:38:53Z</time>
      </trkpt>
      <trkpt lat="47.15939" lon="4.93533">
        <ele>405</ele>
        <time>2017-10-14T20:40:53Z</time>
      </trkpt>
      <trkpt lat="47.15937" lon="4.93548">
        <ele>405</ele>
        <time>2017-10-14T20:42:53Z</time>
      </trkpt>
      <trkpt lat="47.15935" lon="4.9357">
        <ele>405</ele>
        <time>2017-10-14T20:44:53Z</time>
      </trkpt>
      <trkpt lat="47.15933" lon="4.93584">
        <ele>405</ele>
        <time>2017-10-14T20:46:53Z</time>
      </trkpt>
      <trkpt lat="47.15932" lon="4.9359">
        <ele>405</ele>
        <time>2017-10-14T20:48:53Z</time>
      </trkpt>
      <trkpt lat="47.15931" lon="4.93604">
        <ele>405</ele>
        <time>2017-10-14T20:50:53Z</time>
      </trkpt>
      <trkpt lat="47.15925" lon="4.93632">
        <ele>404</ele>
        <time>2017-10-14T20:52:53Z</time>
      </trkpt>
      <trkpt lat="47.1592" lon="4.93693">
        <ele>402</ele>
        <time>2017-10-14T20:54:53Z</time>
      </trkpt>
      <trkpt lat="47.15917" lon="4.93715">
        <ele>402</ele>
        <time>2017-10-14T20:56:53Z</time>
      </trkpt>
      <trkpt lat="47.15916" lon="4.9373">
        <ele>401</ele>
        <time>2017-10-14T20:58:53Z</time>
      </trkpt>
      <trkpt lat="47.15916" lon="4.93745">
        <ele>401</ele>
        <time>2017-10-14T21:00:53Z</time>
      </trkpt>
      <trkpt lat="47.15916" lon="4.93753">
        <ele>401</ele>
        <time>2017-10-14T21:02:53Z</time>
      </trkpt>
      <trkpt lat="47.15911" lon="4.93788">
        <ele>400</ele>
        <time>2017-10-14T21:04:53Z</time>
      </trkpt>
      <trkpt lat="47.15907" lon="4.93793">
        <ele>399</ele>
        <time>2017-10-14T21:06:53Z</time>
      </trkpt>
      <trkpt lat="47.15902" lon="4.93844">
        <ele>397</ele>
        <time>2017-10-14T21:08:53Z</time>
      </trkpt>
      <trkpt lat="47.15901" lon="4.93851">
        <ele>396</ele>
        <time>2017-10-14T21:10:53Z</time>
      </trkpt>
      <trkpt lat="47.15899" lon="4.93867">
        <ele>394</ele>
        <time>2017-10-14T21:12:53Z</time>
      </trkpt>
      <trkpt lat="47.15898" lon="4.93882">
        <ele>393</ele>
        <time>2017-10-14T21:14:53Z</time>
      </trkpt>
      <trkpt lat="47.159" lon="4.93889">
        <ele>392</ele>
        <time>2017-10-14T21:16:53Z</time>
      </trkpt>
      <trkpt lat="47.15904" lon="4.93891">
        <ele>392</ele>
        <time>2017-10-14T21:18:53Z</time>
      </trkpt>
      <trkpt lat="47.15902" lon="4.939">
        <ele>391</ele>
        <time>2017-10-14T21:20:53Z</time>
      </trkpt>
      <trkpt lat="47.15898" lon="4.93905">
        <ele>391</ele>
        <time>2017-10-14T21:22:53Z</time>
      </trkpt>
      <trkpt lat="47.15896" lon="4.93911">
        <ele>390</ele>
        <time>2017-10-14T21:24:53Z</time>
      </trkpt>
      <trkpt lat="47.15896" lon="4.93918">
        <ele>389</ele>
        <time>2017-10-14T21:26:53Z</time>
      </trkpt>
      <trkpt lat="47.15896" lon="4.93925">
        <ele>389</ele>
        <time>2017-10-14T21:28:53Z</time>
      </trkpt>
      <trkpt lat="47.15894" lon="4.93933">
        <ele>389</ele>
        <time>2017-10-14T21:30:53Z</time>
      </trkpt>
      <trkpt lat="47.15894" lon="4.9394">
        <ele>388</ele>
        <time>2017-10-14T21:32:53Z</time>
      </trkpt>
      <trkpt lat="47.15893" lon="4.93955">
        <ele>388</ele>
        <time>2017-10-14T21:34:53Z</time>
      </trkpt>
      <trkpt lat="47.15889" lon="4.93968">
        <ele>387</ele>
        <time>2017-10-14T21:36:53Z</time>
      </trkpt>
      <trkpt lat="47.15887" lon="4.93983">
        <ele>386</ele>
        <time>2017-10-14T21:38:53Z</time>
      </trkpt>
      <trkpt lat="47.15885" lon="4.9399">
        <ele>386</ele>
        <time>2017-10-14T21:40:53Z</time>
      </trkpt>
      <trkpt lat="47.15883" lon="4.93996">
        <ele>386</ele>
        <time>2017-10-14T21:42:53Z</time>
      </trkpt>
      <trkpt lat="47.15878" lon="4.93994">
        <ele>386</ele>
        <time>2017-10-14T21:44:53Z</time>
      </trkpt>
      <trkpt lat="47.15874" lon="4.94002">
        <ele>385</ele>
        <time>2017-10-14T21:46:53Z</time>
      </trkpt>
      <trkpt lat="47.15872" lon="4.94009">
        <ele>385</ele>
        <time>2017-10-14T21:48:53Z</time>
      </trkpt>
      <trkpt lat="47.15869" lon="4.94014">
        <ele>384</ele>
        <time>2017-10-14T21:50:53Z</time>
      </trkpt>
      <trkpt lat="47.15865" lon="4.94017">
        <ele>384</ele>
        <time>2017-10-14T21:52:53Z</time>
      </trkpt>
      <trkpt lat="47.15862" lon="4.94022">
        <ele>384</ele>
        <time>2017-10-14T21:54:53Z</time>
      </trkpt>
      <trkpt lat="47.15853" lon="4.9403">
        <ele>383</ele>
        <time>2017-10-14T21:56:53Z</time>
      </trkpt>
      <trkpt lat="47.1585" lon="4.94035">
        <ele>383</ele>
        <time>2017-10-14T21:58:53Z</time>
      </trkpt>
      <trkpt lat="47.15841" lon="4.94043">
        <ele>382</ele>
        <time>2017-10-14T22:00:53Z</time>
      </trkpt>
      <trkpt lat="47.15838" lon="4.94048">
        <ele>382</ele>
        <time>2017-10-14T22:02:53Z</time>
      </trkpt>
      <trkpt lat="47.15836" lon="4.94054">
        <ele>381</ele>
        <time>2017-10-14T22:04:53Z</time>
      </trkpt>
      <trkpt lat="47.15832" lon="4.94067">
        <ele>380</ele>
        <time>2017-10-14T22:06:53Z</time>
      </trkpt>
      <trkpt lat="47.15838" lon="4.94094">
        <ele>378</ele>
        <time>2017-10-14T22:08:53Z</time>
      </trkpt>
      <trkpt lat="47.15842" lon="4.94105">
        <ele>376</ele>
        <time>2017-10-14T22:10:53Z</time>
      </trkpt>
      <trkpt lat="47.15849" lon="4.94116">
        <ele>375</ele>
        <time>2017-10-14T22:12:53Z</time>
      </trkpt>
      <trkpt lat="47.15863" lon="4.94133">
        <ele>373</ele>
        <time>2017-10-14T22:14:53Z</time>
      </trkpt>
      <trkpt lat="47.15871" lon="4.9414">
        <ele>372</ele>
        <time>2017-10-14T22:16:53Z</time>
      </trkpt>
      <trkpt lat="47.15874" lon="4.94134">
        <ele>373</ele>
        <time>2017-10-14T22:18:53Z</time>
      </trkpt>
      <trkpt lat="47.15878" lon="4.94141">
        <ele>372</ele>
        <time>2017-10-14T22:20:53Z</time>
      </trkpt>
      <trkpt lat="47.15879" lon="4.94148">
        <ele>371</ele>
        <time>2017-10-14T22:22:53Z</time>
      </trkpt>
      <trkpt lat="47.15886" lon="4.94151">
        <ele>371</ele>
        <time>2017-10-14T22:24:53Z</time>
      </trkpt>
      <trkpt lat="47.1589" lon="4.94153">
        <ele>371</ele>
        <time>2017-10-14T22:26:53Z</time>
      </trkpt>
      <trkpt lat="47.15897" lon="4.94163">
        <ele>369</ele>
        <time>2017-10-14T22:28:53Z</time>
      </trkpt>
      <trkpt lat="47.15906" lon="4.94171">
        <ele>369</ele>
        <time>2017-10-14T22:30:53Z</time>
      </trkpt>
      <trkpt lat="47.1591" lon="4.94173">
        <ele>368</ele>
        <time>2017-10-14T22:32:53Z</time>
      </trkpt>
      <trkpt lat="47.15914" lon="4.94177">
        <ele>368</ele>
        <time>2017-10-14T22:34:53Z</time>
      </trkpt>
      <trkpt lat="47.15923" lon="4.94185">
        <ele>367</ele>
        <time>2017-10-14T22:36:53Z</time>
      </trkpt>
      <trkpt lat="47.15928" lon="4.94188">
        <ele>367</ele>
        <time>2017-10-14T22:38:53Z</time>
      </trkpt>
      <trkpt lat="47.15933" lon="4.94192">
        <ele>367</ele>
        <time>2017-10-14T22:40:53Z</time>
      </trkpt>
      <trkpt lat="47.15937" lon="4.94196">
        <ele>366</ele>
        <time>2017-10-14T22:42:53Z</time>
      </trkpt>
      <trkpt lat="47.15941" lon="4.94201">
        <ele>366</ele>
        <time>2017-10-14T22:44:53Z</time>
      </trkpt>
      <trkpt lat="47.15952" lon="4.94216">
        <ele>365</ele>
        <time>2017-10-14T22:46:53Z</time>
      </trkpt>
      <trkpt lat="47.15955" lon="4.94223">
        <ele>364</ele>
        <time>2017-10-14T22:48:53Z</time>
      </trkpt>
      <trkpt lat="47.15962" lon="4.94234">
        <ele>363</ele>
        <time>2017-10-14T22:50:53Z</time>
      </trkpt>
      <trkpt lat="47.15969" lon="4.94243">
        <ele>362</ele>
        <time>2017-10-14T22:52:53Z</time>
      </trkpt>
      <trkpt lat="47.15972" lon="4.94249">
        <ele>361</ele>
        <time>2017-10-14T22:54:53Z</time>
      </trkpt>
      <trkpt lat="47.15977" lon="4.94262">
        <ele>360</ele>
        <time>2017-10-14T22:56:53Z</time>
      </trkpt>
      <trkpt lat="47.15983" lon="4.94292">
        <ele>356</ele>
        <time>2017-10-14T22:58:53Z</time>
      </trkpt>
      <trkpt lat="47.15984" lon="4.94299">
        <ele>355</ele>
        <time>2017-10-14T23:00:53Z</time>
      </trkpt>
      <trkpt lat="47.15989" lon="4.94328">
        <ele>352</ele>
        <time>2017-10-14T23:02:53Z</time>
      </trkpt>
      <trkpt lat="47.15986" lon="4.94371">
        <ele>345</ele>
        <time>2017-10-14T23:04:53Z</time>
      </trkpt>
      <trkpt lat="47.15984" lon="4.94378">
        <ele>344</ele>
        <time>2017-10-14T23:06:53Z</time>
      </trkpt>
      <trkpt lat="47.15983" lon="4.94385">
        <ele>343</ele>
        <time>2017-10-14T23:08:53Z</time>
      </trkpt>
      <trkpt lat="47.15983" lon="4.94392">
        <ele>342</ele>
        <time>2017-10-14T23:10:53Z</time>
      </trkpt>
      <trkpt lat="47.15993" lon="4.94415">
        <ele>339</ele>
        <time>2017-10-14T23:12:53Z</time>
      </trkpt>
      <trkpt lat="47.16005" lon="4.94429">
        <ele>337</ele>
        <time>2017-10-14T23:14:53Z</time>
      </trkpt>
      <trkpt lat="47.16008" lon="4.94434">
        <ele>336</ele>
        <time>2017-10-14T23:16:53Z</time>
      </trkpt>
      <trkpt lat="47.16016" lon="4.94441">
        <ele>335</ele>
        <time>2017-10-14T23:18:53Z</time>
      </trkpt>
      <trkpt lat="47.16021" lon="4.94462">
        <ele>332</ele>
        <time>2017-10-14T23:20:53Z</time>
      </trkpt>
      <trkpt lat="47.16018" lon="4.94468">
        <ele>331</ele>
        <time>2017-10-14T23:22:53Z</time>
      </trkpt>
      <trkpt lat="47.16015" lon="4.94477">
        <ele>330</ele>
        <time>2017-10-14T23:24:53Z</time>
      </trkpt>
      <trkpt lat="47.16011" lon="4.9448">
        <ele>329</ele>
        <time>2017-10-14T23:26:53Z</time>
      </trkpt>
      <trkpt lat="47.16006" lon="4.94478">
        <ele>329</ele>
        <time>2017-10-14T23:28:53Z</time>
      </trkpt>
      <trkpt lat="47.16001" lon="4.94482">
        <ele>329</ele>
        <time>2017-10-14T23:30:53Z</time>
      </trkpt>
      <trkpt lat="47.15983" lon="4.94485">
        <ele>328</ele>
        <time>2017-10-14T23:32:53Z</time>
      </trkpt>
      <trkpt lat="47.15978" lon="4.94487">
        <ele>327</ele>
        <time>2017-10-14T23:34:53Z</time>
      </trkpt>
      <trkpt lat="47.15974" lon="4.94491">
        <ele>326</ele>
        <time>2017-10-14T23:36:53Z</time>
      </trkpt>
      <trkpt lat="47.15964" lon="4.9449">
        <ele>326</ele>
        <time>2017-10-14T23:38:53Z</time>
      </trkpt>
      <trkpt lat="47.15956" lon="4.94496">
        <ele>325</ele>
        <time>2017-10-14T23:40:53Z</time>
      </trkpt>
      <trkpt lat="47.15941" lon="4.94516">
        <ele>320</ele>
        <time>2017-10-14T23:42:53Z</time>
      </trkpt>
      <trkpt lat="47.15939" lon="4.94524">
        <ele>319</ele>
        <time>2017-10-14T23:44:53Z</time>
      </trkpt>
      <trkpt lat="47.15933" lon="4.94535">
        <ele>316</ele>
        <time>2017-10-14T23:46:53Z</time>
      </trkpt>
      <trkpt lat="47.15926" lon="4.94544">
        <ele>314</ele>
        <time>2017-10-14T23:48:53Z</time>
      </trkpt>
      <trkpt lat="47.15918" lon="4.94552">
        <ele>313</ele>
        <time>2017-10-14T23:50:53Z</time>
      </trkpt>
      <trkpt lat="47.15915" lon="4.94557">
        <ele>312</ele>
        <time>2017-10-14T23:52:53Z</time>
      </trkpt>
      <trkpt lat="47.15914" lon="4.94572">
        <ele>309</ele>
        <time>2017-10-14T23:54:53Z</time>
      </trkpt>
      <trkpt lat="47.15916" lon="4.94579">
        <ele>308</ele>
        <time>2017-10-14T23:56:53Z</time>
      </trkpt>
      <trkpt lat="47.15929" lon="4.9459">
        <ele>306</ele>
        <time>2017-10-14T23:58:53Z</time>
      </trkpt>
      <trkpt lat="47.15931" lon="4.94596">
        <ele>305</ele>
        <time>2017-10-15T00:00:53Z</time>
      </trkpt>
      <trkpt lat="47.15939" lon="4.94595">
        <ele>306</ele>
        <time>2017-10-15T00:02:53Z</time>
      </trkpt>
      <trkpt lat="47.15955" lon="4.94612">
        <ele>303</ele>
        <time>2017-10-15T00:04:53Z</time>
      </trkpt>
      <trkpt lat="47.15958" lon="4.94619">
        <ele>302</ele>
        <time>2017-10-15T00:06:53Z</time>
      </trkpt>
      <trkpt lat="47.15981" lon="4.94649">
        <ele>296</ele>
        <time>2017-10-15T00:08:53Z</time>
      </trkpt>
      <trkpt lat="47.15989" lon="4.94659">
        <ele>295</ele>
        <time>2017-10-15T00:10:53Z</time>
      </trkpt>
      <trkpt lat="47.15995" lon="4.94679">
        <ele>291</ele>
        <time>2017-10-15T00:12:53Z</time>
      </trkpt>
      <trkpt lat="47.15997" lon="4.94676">
        <ele>292</ele>
        <time>2017-10-15T00:14:53Z</time>
      </trkpt>
      <trkpt lat="47.15994" lon="4.94675">
        <ele>292</ele>
        <time>2017-10-15T00:16:53Z</time>
      </trkpt>
      <trkpt lat="47.15992" lon="4.94681">
        <ele>291</ele>
        <time>2017-10-15T00:18:53Z</time>
      </trkpt>
      <trkpt lat="47.15997" lon="4.94692">
        <ele>289</ele>
        <time>2017-10-15T00:20:53Z</time>
      </trkpt>
      <trkpt lat="47.16004" lon="4.94702">
        <ele>288</ele>
        <time>2017-10-15T00:22:53Z</time>
      </trkpt>
      <trkpt lat="47.16056" lon="4.94724">
        <ele>285</ele>
        <time>2017-10-15T00:24:53Z</time>
      </trkpt>
      <trkpt lat="47.16069" lon="4.94734">
        <ele>283</ele>
        <time>2017-10-15T00:26:53Z</time>
      </trkpt>
      <trkpt lat="47.16082" lon="4.94744">
        <ele>282</ele>
        <time>2017-10-15T00:28:53Z</time>
      </trkpt>
      <trkpt lat="47.1609" lon="4.94751">
        <ele>281</ele>
        <time>2017-10-15T00:30:53Z</time>
      </trkpt>
      <trkpt lat="47.16099" lon="4.94758">
        <ele>280</ele>
        <time>2017-10-15T00:32:53Z</time>
      </trkpt>
      <trkpt lat="47.16104" lon="4.94771">
        <ele>279</ele>
        <time>2017-10-15T00:34:53Z</time>
      </trkpt>
      <trkpt lat="47.16105" lon="4.94778">
        <ele>278</ele>
        <time>2017-10-15T00:36:53Z</time>
      </trkpt>
      <trkpt lat="47.16104" lon="4.94807">
        <ele>275</ele>
        <time>2017-10-15T00:38:53Z</time>
      </trkpt>
      <trkpt lat="47.16099" lon="4.94836">
        <ele>271</ele>
        <time>2017-10-15T00:40:53Z</time>
      </trkpt>
      <trkpt lat="47.16098" lon="4.94888">
        <ele>267</ele>
        <time>2017-10-15T00:42:53Z</time>
      </trkpt>
      <trkpt lat="47.161" lon="4.94903">
        <ele>265</ele>
        <time>2017-10-15T00:44:53Z</time>
      </trkpt>
      <trkpt lat="47.16098" lon="4.94925">
        <ele>264</ele>
        <time>2017-10-15T00:46:53Z</time>
      </trkpt>
      <trkpt lat="47.16098" lon="4.94947">
        <ele>263</ele>
        <time>2017-10-15T00:48:53Z</time>
      </trkpt>
      <trkpt lat="47.16099" lon="4.94999">
        <ele>260</ele>
        <time>2017-10-15T00:50:53Z</time>
      </trkpt>
      <trkpt lat="47.16095" lon="4.95052">
        <ele>258</ele>
        <time>2017-10-15T00:52:53Z</time>
      </trkpt>
      <trkpt lat="47.16094" lon="4.95066">
        <ele>257</ele>
        <time>2017-10-15T00:54:53Z</time>
      </trkpt>
      <trkpt lat="47.16093" lon="4.95073">
        <ele>257</ele>
        <time>2017-10-15T00:56:53Z</time>
      </trkpt>
      <trkpt lat="47.16092" lon="4.9508">
        <ele>256</ele>
        <time>2017-10-15T00:58:53Z</time>
      </trkpt>
      <trkpt lat="47.16082" lon="4.95112">
        <ele>255</ele>
        <time>2017-10-15T01:00:53Z</time>
      </trkpt>
      <trkpt lat="47.16075" lon="4.95141">
        <ele>253</ele>
        <time>2017-10-15T01:02:53Z</time>
      </trkpt>
      <trkpt lat="47.16066" lon="4.95159">
        <ele>252</ele>
        <time>2017-10-15T01:04:53Z</time>
      </trkpt>
      <trkpt lat="47.16062" lon="4.95164">
        <ele>251</ele>
        <time>2017-10-15T01:06:53Z</time>
      </trkpt>
      <trkpt lat="47.16059" lon="4.95171">
        <ele>251</ele>
        <time>2017-10-15T01:08:53Z</time>
      </trkpt>
      <trkpt lat="47.16055" lon="4.95175">
        <ele>250</ele>
        <time>2017-10-15T01:10:53Z</time>
      </trkpt>
      <trkpt lat="47.16049" lon="4.95188">
        <ele>250</ele>
        <time>2017-10-15T01:12:53Z</time>
      </trkpt>
      <trkpt lat="47.16047" lon="4.95196">
        <ele>250</ele>
        <time>2017-10-15T01:14:53Z</time>
      </trkpt>
      <trkpt lat="47.16045" lon="4.95203">
        <ele>249</ele>
        <time>2017-10-15T01:16:53Z</time>
      </trkpt>
      <trkpt lat="47.16041" lon="4.95218">
        <ele>249</ele>
        <time>2017-10-15T01:18:53Z</time>
      </trkpt>
      <trkpt lat="47.16041" lon="4.9523">
        <ele>248</ele>
        <time>2017-10-15T01:20:53Z</time>
      </trkpt>
      <trkpt lat="47.16037" lon="4.95244">
        <ele>248</ele>
        <time>2017-10-15T01:22:53Z</time>
      </trkpt>
      <trkpt lat="47.16032" lon="4.95273">
        <ele>247</ele>
        <time>2017-10-15T01:24:53Z</time>
      </trkpt>
      <trkpt lat="47.16031" lon="4.9528">
        <ele>247</ele>
        <time>2017-10-15T01:26:53Z</time>
      </trkpt>
      <trkpt lat="47.16032" lon="4.95294">
        <ele>247</ele>
        <time>2017-10-15T01:28:53Z</time>
      </trkpt>
      <trkpt lat="47.16036" lon="4.95307">
        <ele>246</ele>
        <time>2017-10-15T01:30:53Z</time>
      </trkpt>
      <trkpt lat="47.16049" lon="4.95336">
        <ele>246</ele>
        <time>2017-10-15T01:32:53Z</time>
      </trkpt>
      <trkpt lat="47.1605" lon="4.9535">
        <ele>246</ele>
        <time>2017-10-15T01:34:53Z</time>
      </trkpt>
      <trkpt lat="47.16052" lon="4.95364">
        <ele>246</ele>
        <time>2017-10-15T01:36:53Z</time>
      </trkpt>
      <trkpt lat="47.16053" lon="4.95387">
        <ele>246</ele>
        <time>2017-10-15T01:38:53Z</time>
      </trkpt>
      <trkpt lat="47.16053" lon="4.95394">
        <ele>246</ele>
        <time>2017-10-15T01:40:53Z</time>
      </trkpt>
      <trkpt lat="47.16046" lon="4.95415">
        <ele>246</ele>
        <time>2017-10-15T01:42:53Z</time>
      </trkpt>
      <trkpt lat="47.16042" lon="4.95418">
        <ele>245</ele>
        <time>2017-10-15T01:44:53Z</time>
      </trkpt>
      <trkpt lat="47.1603" lon="4.95433">
        <ele>245</ele>
        <time>2017-10-15T01:46:53Z</time>
      </trkpt>
      <trkpt lat="47.16034" lon="4.95436">
        <ele>245</ele>
        <time>2017-10-15T01:48:53Z</time>
      </trkpt>
      <trkpt lat="47.1604" lon="4.95434">
        <ele>245</ele>
        <time>2017-10-15T01:50:53Z</time>
      </trkpt>
      <trkpt lat="47.16048" lon="4.95438">
        <ele>245</ele>
        <time>2017-10-15T01:52:53Z</time>
      </trkpt>
      <trkpt lat="47.16057" lon="4.95445">
        <ele>245</ele>
        <time>2017-10-15T01:54:53Z</time>
      </trkpt>
      <trkpt lat="47.16062" lon="4.95448">
        <ele>246</ele>
        <time>2017-10-15T01:56:53Z</time>
      </trkpt>
      <trkpt lat="47.16066" lon="4.95443">
        <ele>246</ele>
        <time>2017-10-15T01:58:53Z</time>
      </trkpt>
      <trkpt lat="47.16071" lon="4.95446">
        <ele>246</ele>
        <time>2017-10-15T02:00:53Z</time>
      </trkpt>
      <trkpt lat="47.16079" lon="4.95456">
        <ele>246</ele>
        <time>2017-10-15T02:02:53Z</time>
      </trkpt>
      <trkpt lat="47.16083" lon="4.9546">
        <ele>246</ele>
        <time>2017-10-15T02:04:53Z</time>
      </trkpt>
      <trkpt lat="47.16087" lon="4.95464">
        <ele>246</ele>
        <time>2017-10-15T02:06:53Z</time>
      </trkpt>
      <trkpt lat="47.16089" lon="4.95471">
        <ele>246</ele>
        <time>2017-10-15T02:08:53Z</time>
      </trkpt>
      <trkpt lat="47.16087" lon="4.95478">
        <ele>246</ele>
        <time>2017-10-15T02:10:53Z</time>
      </trkpt>
      <trkpt lat="47.16096" lon="4.95475">
        <ele>246</ele>
        <time>2017-10-15T02:12:53Z</time>
      </trkpt>
      <trkpt lat="47.16106" lon="4.95481">
        <ele>247</ele>
        <time>2017-10-15T02:14:53Z</time>
      </trkpt>
      <trkpt lat="47.16111" lon="4.95487">
        <ele>247</ele>
        <time>2017-10-15T02:16:53Z</time>
      </trkpt>
      <trkpt lat="47.16119" lon="4.95513">
        <ele>246</ele>
        <time>2017-10-15T02:18:53Z</time>
      </trkpt>
      <trkpt lat="47.16122" lon="4.95525">
        <ele>246</ele>
        <time>2017-10-15T02:20:53Z</time>
      </trkpt>
      <trkpt lat="47.16126" lon="4.95529">
        <ele>246</ele>
        <time>2017-10-15T02:22:53Z</time>
      </trkpt>
      <trkpt lat="47.1613" lon="4.95532">
        <ele>246</ele>
        <time>2017-10-15T02:24:53Z</time>
      </trkpt>
      <trkpt lat="47.16134" lon="4.95527">
        <ele>246</ele>
        <time>2017-10-15T02:26:53Z</time>
      </trkpt>
      <trkpt lat="47.16137" lon="4.95535">
        <ele>246</ele>
        <time>2017-10-15T02:28:53Z</time>
      </trkpt>
      <trkpt lat="47.16141" lon="4.9554">
        <ele>246</ele>
        <time>2017-10-15T02:30:53Z</time>
      </trkpt>
      <trkpt lat="47.16145" lon="4.95544">
        <ele>246</ele>
        <time>2017-10-15T02:32:53Z</time>
      </trkpt>
      <trkpt lat="47.16147" lon="4.95551">
        <ele>246</ele>
        <time>2017-10-15T02:34:53Z</time>
      </trkpt>
      <trkpt lat="47.16146" lon="4.95566">
        <ele>245</ele>
        <time>2017-10-15T02:36:53Z</time>
      </trkpt>
      <trkpt lat="47.1615" lon="4.95571">
        <ele>245</ele>
        <time>2017-10-15T02:38:53Z</time>
      </trkpt>
      <trkpt lat="47.1614" lon="4.95569">
        <ele>245</ele>
        <time>2017-10-15T02:40:53Z</time>
      </trkpt>
      <trkpt lat="47.16141" lon="4.95563">
        <ele>245</ele>
        <time>2017-10-15T02:42:53Z</time>
      </trkpt>
      <trkpt lat="47.16146" lon="4.95562">
        <ele>245</ele>
        <time>2017-10-15T02:44:53Z</time>
      </trkpt>
      <trkpt lat="47.1615" lon="4.95557">
        <ele>246</ele>
        <time>2017-10-15T02:46:53Z</time>
      </trkpt>
      <trkpt lat="47.16152" lon="4.95549">
        <ele>246</ele>
        <time>2017-10-15T02:48:53Z</time>
      </trkpt>
      <trkpt lat="47.16153" lon="4.95541">
        <ele>246</ele>
        <time>2017-10-15T02:50:53Z</time>
      </trkpt>
      <trkpt lat="47.16155" lon="4.95535">
        <ele>247</ele>
        <time>2017-10-15T02:52:53Z</time>
      </trkpt>
      <trkpt lat="47.1616" lon="4.9553">
        <ele>247</ele>
        <time>2017-10-15T02:54:53Z</time>
      </trkpt>
      <trkpt lat="47.16163" lon="4.95518">
        <ele>247</ele>
        <time>2017-10-15T02:56:53Z</time>
      </trkpt>
      <trkpt lat="47.16162" lon="4.9551">
        <ele>248</ele>
        <time>2017-10-15T02:58:53Z</time>
      </trkpt>
      <trkpt lat="47.16163" lon="4.95495">
        <ele>248</ele>
        <time>2017-10-15T03:00:53Z</time>
      </trkpt>
      <trkpt lat="47.16158" lon="4.95495">
        <ele>248</ele>
        <time>2017-10-15T03:02:53Z</time>
      </trkpt>
      <trkpt lat="47.1616" lon="4.95505">
        <ele>248</ele>
        <time>2017-10-15T03:04:53Z</time>
      </trkpt>
      <trkpt lat="47.16158" lon="4.95511">
        <ele>247</ele>
        <time>2017-10-15T03:06:53Z</time>
      </trkpt>
      <trkpt lat="47.16148" lon="4.9552">
        <ele>247</ele>
        <time>2017-10-15T03:08:53Z</time>
      </trkpt>
      <trkpt lat="47.16142" lon="4.9553">
        <ele>246</ele>
        <time>2017-10-15T03:10:53Z</time>
      </trkpt>
      <trkpt lat="47.16142" lon="4.95537">
        <ele>246</ele>
        <time>2017-10-15T03:12:53Z</time>
      </trkpt>
      <trkpt lat="47.16144" lon="4.95534">
        <ele>246</ele>
        <time>2017-10-15T03:14:53Z</time>
      </trkpt>
      <trkpt lat="47.16137" lon="4.95538">
        <ele>246</ele>
        <time>2017-10-15T03:16:53Z</time>
      </trkpt>
      <trkpt lat="47.16127" lon="4.95542">
        <ele>246</ele>
        <time>2017-10-15T03:18:53Z</time>
      </trkpt>
      <trkpt lat="47.16122" lon="4.95542">
        <ele>246</ele>
        <time>2017-10-15T03:20:53Z</time>
      </trkpt>
      <trkpt lat="47.16119" lon="4.95532">
        <ele>246</ele>
        <time>2017-10-15T03:22:53Z</time>
      </trkpt>
      <trkpt lat="47.16113" lon="4.95533">
        <ele>246</ele>
        <time>2017-10-15T03:24:53Z</time>
      </trkpt>
      <trkpt lat="47.16108" lon="4.95535">
        <ele>246</ele>
        <time>2017-10-15T03:26:53Z</time>
      </trkpt>
      <trkpt lat="47.16099" lon="4.95532">
        <ele>246</ele>
        <time>2017-10-15T03:28:53Z</time>
      </trkpt>
      <trkpt lat="47.1609" lon="4.95529">
        <ele>245</ele>
        <time>2017-10-15T03:30:53Z</time>
      </trkpt>
      <trkpt lat="47.1608" lon="4.95527">
        <ele>245</ele>
        <time>2017-10-15T03:32:53Z</time>
      </trkpt>
      <trkpt lat="47.16071" lon="4.95528">
        <ele>245</ele>
        <time>2017-10-15T03:34:53Z</time>
      </trkpt>
      <trkpt lat="47.16061" lon="4.95527">
        <ele>244</ele>
        <time>2017-10-15T03:36:53Z</time>
      </trkpt>
      <trkpt lat="47.16052" lon="4.95531">
        <ele>244</ele>
        <time>2017-10-15T03:38:53Z</time>
      </trkpt>
      <trkpt lat="47.16034" lon="4.95529">
        <ele>243</ele>
        <time>2017-10-15T03:40:53Z</time>
      </trkpt>
      <trkpt lat="47.16014" lon="4.95522">
        <ele>243</ele>
        <time>2017-10-15T03:42:53Z</time>
      </trkpt>
      <trkpt lat="47.16005" lon="4.95522">
        <ele>242</ele>
        <time>2017-10-15T03:44:53Z</time>
      </trkpt>
      <trkpt lat="47.15996" lon="4.95518">
        <ele>242</ele>
        <time>2017-10-15T03:46:53Z</time>
      </trkpt>
      <trkpt lat="47.15983" lon="4.95509">
        <ele>243</ele>
        <time>2017-10-15T03:48:53Z</time>
      </trkpt>
      <trkpt lat="47.15979" lon="4.95507">
        <ele>243</ele>
        <time>2017-10-15T03:50:53Z</time>
      </trkpt>
      <trkpt lat="47.15974" lon="4.95508">
        <ele>243</ele>
        <time>2017-10-15T03:52:53Z</time>
      </trkpt>
      <trkpt lat="47.15969" lon="4.9551">
        <ele>243</ele>
        <time>2017-10-15T03:54:53Z</time>
      </trkpt>
      <trkpt lat="47.15965" lon="4.95512">
        <ele>243</ele>
        <time>2017-10-15T03:56:53Z</time>
      </trkpt>
      <trkpt lat="47.1596" lon="4.95511">
        <ele>243</ele>
        <time>2017-10-15T03:58:53Z</time>
      </trkpt>
      <trkpt lat="47.15954" lon="4.95512">
        <ele>243</ele>
        <time>2017-10-15T04:00:53Z</time>
      </trkpt>
      <trkpt lat="47.1593" lon="4.95504">
        <ele>243</ele>
        <time>2017-10-15T04:02:53Z</time>
      </trkpt>
      <trkpt lat="47.15921" lon="4.955">
        <ele>243</ele>
        <time>2017-10-15T04:04:53Z</time>
      </trkpt>
      <trkpt lat="47.15916" lon="4.95501">
        <ele>243</ele>
        <time>2017-10-15T04:06:53Z</time>
      </trkpt>
      <trkpt lat="47.15911" lon="4.95501">
        <ele>243</ele>
        <time>2017-10-15T04:08:53Z</time>
      </trkpt>
      <trkpt lat="47.15906" lon="4.95499">
        <ele>243</ele>
        <time>2017-10-15T04:10:53Z</time>
      </trkpt>
      <trkpt lat="47.15902" lon="4.95496">
        <ele>243</ele>
        <time>2017-10-15T04:12:53Z</time>
      </trkpt>
      <trkpt lat="47.15897" lon="4.95494">
        <ele>243</ele>
        <time>2017-10-15T04:14:53Z</time>
      </trkpt>
      <trkpt lat="47.15893" lon="4.95495">
        <ele>244</ele>
        <time>2017-10-15T04:16:53Z</time>
      </trkpt>
      <trkpt lat="47.15888" lon="4.95497">
        <ele>244</ele>
        <time>2017-10-15T04:18:53Z</time>
      </trkpt>
      <trkpt lat="47.15884" lon="4.95497">
        <ele>244</ele>
        <time>2017-10-15T04:20:53Z</time>
      </trkpt>
      <trkpt lat="47.15878" lon="4.95496">
        <ele>244</ele>
        <time>2017-10-15T04:22:53Z</time>
      </trkpt>
      <trkpt lat="47.15868" lon="4.95495">
        <ele>244</ele>
        <time>2017-10-15T04:24:53Z</time>
      </trkpt>
      <trkpt lat="47.15853" lon="4.95496">
        <ele>245</ele>
        <time>2017-10-15T04:26:53Z</time>
      </trkpt>
      <trkpt lat="47.15846" lon="4.95489">
        <ele>245</ele>
        <time>2017-10-15T04:28:53Z</time>
      </trkpt>
      <trkpt lat="47.15836" lon="4.95484">
        <ele>245</ele>
        <time>2017-10-15T04:30:53Z</time>
      </trkpt>
      <trkpt lat="47.15825" lon="4.95485">
        <ele>245</ele>
        <time>2017-10-15T04:32:53Z</time>
      </trkpt>
      <trkpt lat="47.15815" lon="4.95485">
        <ele>245</ele>
        <time>2017-10-15T04:34:53Z</time>
      </trkpt>
      <trkpt lat="47.1581" lon="4.95485">
        <ele>245</ele>
        <time>2017-10-15T04:36:53Z</time>
      </trkpt>
      <trkpt lat="47.15801" lon="4.95481">
        <ele>245</ele>
        <time>2017-10-15T04:38:53Z</time>
      </trkpt>
      <trkpt lat="47.15794" lon="4.95486">
        <ele>244</ele>
        <time>2017-10-15T04:40:53Z</time>
      </trkpt>
      <trkpt lat="47.15789" lon="4.95483">
        <ele>244</ele>
        <time>2017-10-15T04:42:53Z</time>
      </trkpt>
    </trkseg>
  </trk>
</gpx>